<?xml version="1.0" encoding="UTF-8" standalone="no" ?>
<gpx xmlns="http://www.topografix.com/GPX/1/1" xmlns:xsi="http://www.w3.org/2001/XMLSchema-instance" xsi:schemaLocation="http://www.topografix.com/GPX/1/1 http://www.topografix.com/GPX/1/1/gpx.xsd" version="1.1" creator="VisuGPX - https://www.visugpx.com">
  <metadata>
    <name>boucle 31km au départ de Seillons</name>
    <desc><![CDATA[Variante des multiples traces déjà partagées. Aucune difficulté, peu physique (hormis au km 3, avec une montée un peu raide sur 500m, et autour du km 22 avec la montée vers La Pouresse). Joli parcours dans ces lieux toujours plaisants]]></desc>
  </metadata>
  <trk>
    <name><![CDATA[2021-02-21 08:32]]></name>
    <extensions>
      <line xmlns="http://www.topografix.com/GPX/gpx_style/0/2">
        <color>0000FF</color>
        <width>4</width>
      </line>
    </extensions>
    <trkseg>
      <trkpt lat="43.50339" lon="5.88672">
        <ele>256.57</ele>
        <time>2021-02-21T07:32:30Z</time>
      </trkpt>
      <trkpt lat="43.50357" lon="5.88695">
        <ele>255.25</ele>
        <time>2021-02-21T07:33:20Z</time>
      </trkpt>
      <trkpt lat="43.50374" lon="5.88702">
        <ele>246.66</ele>
        <time>2021-02-21T07:34:03Z</time>
      </trkpt>
      <trkpt lat="43.50373" lon="5.88677">
        <ele>246.89</ele>
        <time>2021-02-21T07:34:15Z</time>
      </trkpt>
      <trkpt lat="43.50372" lon="5.88651">
        <ele>247.63</ele>
        <time>2021-02-21T07:34:28Z</time>
      </trkpt>
      <trkpt lat="43.50387" lon="5.88635">
        <ele>248.72</ele>
        <time>2021-02-21T07:34:38Z</time>
      </trkpt>
      <trkpt lat="43.50403" lon="5.88622">
        <ele>251.02</ele>
        <time>2021-02-21T07:34:47Z</time>
      </trkpt>
      <trkpt lat="43.5042" lon="5.88611">
        <ele>253.41</ele>
        <time>2021-02-21T07:34:56Z</time>
      </trkpt>
      <trkpt lat="43.50439" lon="5.88601">
        <ele>255.59</ele>
        <time>2021-02-21T07:35:04Z</time>
      </trkpt>
      <trkpt lat="43.50455" lon="5.8859">
        <ele>258.1</ele>
        <time>2021-02-21T07:35:11Z</time>
      </trkpt>
      <trkpt lat="43.50474" lon="5.88578">
        <ele>259.3</ele>
        <time>2021-02-21T07:35:18Z</time>
      </trkpt>
      <trkpt lat="43.50491" lon="5.88568">
        <ele>261.49</ele>
        <time>2021-02-21T07:35:25Z</time>
      </trkpt>
      <trkpt lat="43.50508" lon="5.88554">
        <ele>263.12</ele>
        <time>2021-02-21T07:35:33Z</time>
      </trkpt>
      <trkpt lat="43.50524" lon="5.8854">
        <ele>263.72</ele>
        <time>2021-02-21T07:35:40Z</time>
      </trkpt>
      <trkpt lat="43.50539" lon="5.88523">
        <ele>264.82</ele>
        <time>2021-02-21T07:35:47Z</time>
      </trkpt>
      <trkpt lat="43.50552" lon="5.88503">
        <ele>265.33</ele>
        <time>2021-02-21T07:35:54Z</time>
      </trkpt>
      <trkpt lat="43.50567" lon="5.88484">
        <ele>265.84</ele>
        <time>2021-02-21T07:36:01Z</time>
      </trkpt>
      <trkpt lat="43.50582" lon="5.88468">
        <ele>267.6</ele>
        <time>2021-02-21T07:36:09Z</time>
      </trkpt>
      <trkpt lat="43.50599" lon="5.88456">
        <ele>270.55</ele>
        <time>2021-02-21T07:36:18Z</time>
      </trkpt>
      <trkpt lat="43.50619" lon="5.88457">
        <ele>271.1</ele>
        <time>2021-02-21T07:36:25Z</time>
      </trkpt>
      <trkpt lat="43.50637" lon="5.88447">
        <ele>275.81</ele>
        <time>2021-02-21T07:36:34Z</time>
      </trkpt>
      <trkpt lat="43.50657" lon="5.88437">
        <ele>279.72</ele>
        <time>2021-02-21T07:36:42Z</time>
      </trkpt>
      <trkpt lat="43.50674" lon="5.88423">
        <ele>281.81</ele>
        <time>2021-02-21T07:36:49Z</time>
      </trkpt>
      <trkpt lat="43.50688" lon="5.88401">
        <ele>282.91</ele>
        <time>2021-02-21T07:36:57Z</time>
      </trkpt>
      <trkpt lat="43.50703" lon="5.88386">
        <ele>283.54</ele>
        <time>2021-02-21T07:37:04Z</time>
      </trkpt>
      <trkpt lat="43.50717" lon="5.88369">
        <ele>283.87</ele>
        <time>2021-02-21T07:37:10Z</time>
      </trkpt>
      <trkpt lat="43.50727" lon="5.88346">
        <ele>284.19</ele>
        <time>2021-02-21T07:37:16Z</time>
      </trkpt>
      <trkpt lat="43.50733" lon="5.8832">
        <ele>284.13</ele>
        <time>2021-02-21T07:37:22Z</time>
      </trkpt>
      <trkpt lat="43.50747" lon="5.88301">
        <ele>286.89</ele>
        <time>2021-02-21T07:37:29Z</time>
      </trkpt>
      <trkpt lat="43.50766" lon="5.8829">
        <ele>289.76</ele>
        <time>2021-02-21T07:37:35Z</time>
      </trkpt>
      <trkpt lat="43.50784" lon="5.8829">
        <ele>291.34</ele>
        <time>2021-02-21T07:37:41Z</time>
      </trkpt>
      <trkpt lat="43.50803" lon="5.883">
        <ele>291.59</ele>
        <time>2021-02-21T07:37:47Z</time>
      </trkpt>
      <trkpt lat="43.50817" lon="5.88319">
        <ele>292.62</ele>
        <time>2021-02-21T07:37:54Z</time>
      </trkpt>
      <trkpt lat="43.50817" lon="5.88345">
        <ele>294.16</ele>
        <time>2021-02-21T07:38:01Z</time>
      </trkpt>
      <trkpt lat="43.50814" lon="5.88369">
        <ele>296.37</ele>
        <time>2021-02-21T07:38:08Z</time>
      </trkpt>
      <trkpt lat="43.50821" lon="5.88393">
        <ele>298.07</ele>
        <time>2021-02-21T07:38:15Z</time>
      </trkpt>
      <trkpt lat="43.50839" lon="5.88405">
        <ele>298.37</ele>
        <time>2021-02-21T07:38:21Z</time>
      </trkpt>
      <trkpt lat="43.50856" lon="5.88419">
        <ele>298.74</ele>
        <time>2021-02-21T07:38:29Z</time>
      </trkpt>
      <trkpt lat="43.50876" lon="5.88433">
        <ele>299.76</ele>
        <time>2021-02-21T07:38:36Z</time>
      </trkpt>
      <trkpt lat="43.50891" lon="5.88446">
        <ele>299.97</ele>
        <time>2021-02-21T07:38:42Z</time>
      </trkpt>
      <trkpt lat="43.50907" lon="5.88463">
        <ele>299.11</ele>
        <time>2021-02-21T07:38:51Z</time>
      </trkpt>
      <trkpt lat="43.50922" lon="5.88479">
        <ele>300.82</ele>
        <time>2021-02-21T07:39:00Z</time>
      </trkpt>
      <trkpt lat="43.50938" lon="5.88492">
        <ele>302.6</ele>
        <time>2021-02-21T07:39:11Z</time>
      </trkpt>
      <trkpt lat="43.50956" lon="5.88494">
        <ele>304.42</ele>
        <time>2021-02-21T07:39:20Z</time>
      </trkpt>
      <trkpt lat="43.50975" lon="5.88494">
        <ele>300.02</ele>
        <time>2021-02-21T07:39:28Z</time>
      </trkpt>
      <trkpt lat="43.50994" lon="5.88493">
        <ele>297.1</ele>
        <time>2021-02-21T07:39:38Z</time>
      </trkpt>
      <trkpt lat="43.51012" lon="5.88496">
        <ele>293.09</ele>
        <time>2021-02-21T07:39:46Z</time>
      </trkpt>
      <trkpt lat="43.51031" lon="5.88504">
        <ele>291.12</ele>
        <time>2021-02-21T07:39:54Z</time>
      </trkpt>
      <trkpt lat="43.51047" lon="5.88516">
        <ele>291.19</ele>
        <time>2021-02-21T07:40:02Z</time>
      </trkpt>
      <trkpt lat="43.51063" lon="5.88528">
        <ele>290.39</ele>
        <time>2021-02-21T07:40:10Z</time>
      </trkpt>
      <trkpt lat="43.51078" lon="5.88544">
        <ele>289.67</ele>
        <time>2021-02-21T07:40:18Z</time>
      </trkpt>
      <trkpt lat="43.5109" lon="5.88563">
        <ele>289.93</ele>
        <time>2021-02-21T07:40:26Z</time>
      </trkpt>
      <trkpt lat="43.51097" lon="5.88589">
        <ele>290.29</ele>
        <time>2021-02-21T07:40:35Z</time>
      </trkpt>
      <trkpt lat="43.51097" lon="5.88614">
        <ele>291.04</ele>
        <time>2021-02-21T07:40:43Z</time>
      </trkpt>
      <trkpt lat="43.51095" lon="5.88641">
        <ele>293.01</ele>
        <time>2021-02-21T07:40:52Z</time>
      </trkpt>
      <trkpt lat="43.51104" lon="5.88665">
        <ele>295.81</ele>
        <time>2021-02-21T07:41:02Z</time>
      </trkpt>
      <trkpt lat="43.51123" lon="5.8867">
        <ele>298.39</ele>
        <time>2021-02-21T07:41:11Z</time>
      </trkpt>
      <trkpt lat="43.51141" lon="5.8868">
        <ele>300.3</ele>
        <time>2021-02-21T07:41:19Z</time>
      </trkpt>
      <trkpt lat="43.51153" lon="5.887">
        <ele>303.15</ele>
        <time>2021-02-21T07:41:28Z</time>
      </trkpt>
      <trkpt lat="43.51173" lon="5.88704">
        <ele>306.95</ele>
        <time>2021-02-21T07:41:39Z</time>
      </trkpt>
      <trkpt lat="43.51192" lon="5.88708">
        <ele>311.77</ele>
        <time>2021-02-21T07:41:48Z</time>
      </trkpt>
      <trkpt lat="43.51213" lon="5.8871">
        <ele>311.12</ele>
        <time>2021-02-21T07:41:57Z</time>
      </trkpt>
      <trkpt lat="43.51232" lon="5.88715">
        <ele>307.62</ele>
        <time>2021-02-21T07:42:06Z</time>
      </trkpt>
      <trkpt lat="43.5125" lon="5.88727">
        <ele>308.34</ele>
        <time>2021-02-21T07:42:18Z</time>
      </trkpt>
      <trkpt lat="43.51267" lon="5.88739">
        <ele>311.29</ele>
        <time>2021-02-21T07:42:28Z</time>
      </trkpt>
      <trkpt lat="43.51275" lon="5.88763">
        <ele>314.49</ele>
        <time>2021-02-21T07:42:39Z</time>
      </trkpt>
      <trkpt lat="43.51279" lon="5.8879">
        <ele>316.84</ele>
        <time>2021-02-21T07:42:48Z</time>
      </trkpt>
      <trkpt lat="43.5129" lon="5.8881">
        <ele>319.87</ele>
        <time>2021-02-21T07:42:58Z</time>
      </trkpt>
      <trkpt lat="43.51309" lon="5.88819">
        <ele>323.28</ele>
        <time>2021-02-21T07:43:10Z</time>
      </trkpt>
      <trkpt lat="43.5132" lon="5.8884">
        <ele>326.92</ele>
        <time>2021-02-21T07:43:22Z</time>
      </trkpt>
      <trkpt lat="43.5132" lon="5.88867">
        <ele>331.56</ele>
        <time>2021-02-21T07:43:37Z</time>
      </trkpt>
      <trkpt lat="43.51318" lon="5.88892">
        <ele>334.87</ele>
        <time>2021-02-21T07:43:50Z</time>
      </trkpt>
      <trkpt lat="43.51311" lon="5.88916">
        <ele>343.01</ele>
        <time>2021-02-21T07:44:03Z</time>
      </trkpt>
      <trkpt lat="43.51301" lon="5.88938">
        <ele>348.86</ele>
        <time>2021-02-21T07:44:14Z</time>
      </trkpt>
      <trkpt lat="43.51292" lon="5.8896">
        <ele>352.02</ele>
        <time>2021-02-21T07:44:26Z</time>
      </trkpt>
      <trkpt lat="43.51282" lon="5.88982">
        <ele>354.79</ele>
        <time>2021-02-21T07:44:38Z</time>
      </trkpt>
      <trkpt lat="43.5128" lon="5.89007">
        <ele>354.75</ele>
        <time>2021-02-21T07:44:49Z</time>
      </trkpt>
      <trkpt lat="43.51271" lon="5.89028">
        <ele>358.43</ele>
        <time>2021-02-21T07:45:02Z</time>
      </trkpt>
      <trkpt lat="43.51259" lon="5.89049">
        <ele>362.27</ele>
        <time>2021-02-21T07:45:19Z</time>
      </trkpt>
      <trkpt lat="43.51245" lon="5.89066">
        <ele>365</ele>
        <time>2021-02-21T07:45:30Z</time>
      </trkpt>
      <trkpt lat="43.51232" lon="5.89086">
        <ele>368.99</ele>
        <time>2021-02-21T07:45:45Z</time>
      </trkpt>
      <trkpt lat="43.51218" lon="5.89102">
        <ele>372</ele>
        <time>2021-02-21T07:45:56Z</time>
      </trkpt>
      <trkpt lat="43.51203" lon="5.89116">
        <ele>374.28</ele>
        <time>2021-02-21T07:46:06Z</time>
      </trkpt>
      <trkpt lat="43.51189" lon="5.89133">
        <ele>374.98</ele>
        <time>2021-02-21T07:46:17Z</time>
      </trkpt>
      <trkpt lat="43.51173" lon="5.89148">
        <ele>374.28</ele>
        <time>2021-02-21T07:46:28Z</time>
      </trkpt>
      <trkpt lat="43.51156" lon="5.89159">
        <ele>373.63</ele>
        <time>2021-02-21T07:46:44Z</time>
      </trkpt>
      <trkpt lat="43.51139" lon="5.89172">
        <ele>373.27</ele>
        <time>2021-02-21T07:46:52Z</time>
      </trkpt>
      <trkpt lat="43.51123" lon="5.89188">
        <ele>372.91</ele>
        <time>2021-02-21T07:47:02Z</time>
      </trkpt>
      <trkpt lat="43.5111" lon="5.89206">
        <ele>373.57</ele>
        <time>2021-02-21T07:47:13Z</time>
      </trkpt>
      <trkpt lat="43.51096" lon="5.89222">
        <ele>372.92</ele>
        <time>2021-02-21T07:47:21Z</time>
      </trkpt>
      <trkpt lat="43.51083" lon="5.8924">
        <ele>374.12</ele>
        <time>2021-02-21T07:47:28Z</time>
      </trkpt>
      <trkpt lat="43.51075" lon="5.89264">
        <ele>376.14</ele>
        <time>2021-02-21T07:47:38Z</time>
      </trkpt>
      <trkpt lat="43.51089" lon="5.89278">
        <ele>358.38</ele>
        <time>2021-02-21T07:50:44Z</time>
      </trkpt>
      <trkpt lat="43.51106" lon="5.89288">
        <ele>358.74</ele>
        <time>2021-02-21T07:50:51Z</time>
      </trkpt>
      <trkpt lat="43.51126" lon="5.89297">
        <ele>360.02</ele>
        <time>2021-02-21T07:50:59Z</time>
      </trkpt>
      <trkpt lat="43.51146" lon="5.89303">
        <ele>361.16</ele>
        <time>2021-02-21T07:51:06Z</time>
      </trkpt>
      <trkpt lat="43.51164" lon="5.89306">
        <ele>363.49</ele>
        <time>2021-02-21T07:51:12Z</time>
      </trkpt>
      <trkpt lat="43.51182" lon="5.89309">
        <ele>367.14</ele>
        <time>2021-02-21T07:51:18Z</time>
      </trkpt>
      <trkpt lat="43.512" lon="5.89316">
        <ele>369.49</ele>
        <time>2021-02-21T07:51:25Z</time>
      </trkpt>
      <trkpt lat="43.51216" lon="5.89332">
        <ele>368.36</ele>
        <time>2021-02-21T07:51:33Z</time>
      </trkpt>
      <trkpt lat="43.51232" lon="5.89348">
        <ele>371.25</ele>
        <time>2021-02-21T07:51:41Z</time>
      </trkpt>
      <trkpt lat="43.51248" lon="5.8936">
        <ele>374.77</ele>
        <time>2021-02-21T07:51:49Z</time>
      </trkpt>
      <trkpt lat="43.51262" lon="5.89377">
        <ele>377.25</ele>
        <time>2021-02-21T07:51:57Z</time>
      </trkpt>
      <trkpt lat="43.51268" lon="5.89401">
        <ele>377.11</ele>
        <time>2021-02-21T07:52:06Z</time>
      </trkpt>
      <trkpt lat="43.51284" lon="5.89417">
        <ele>378.92</ele>
        <time>2021-02-21T07:52:14Z</time>
      </trkpt>
      <trkpt lat="43.513" lon="5.89429">
        <ele>380.62</ele>
        <time>2021-02-21T07:52:21Z</time>
      </trkpt>
      <trkpt lat="43.51319" lon="5.89434">
        <ele>383.55</ele>
        <time>2021-02-21T07:52:30Z</time>
      </trkpt>
      <trkpt lat="43.51337" lon="5.89435">
        <ele>385.12</ele>
        <time>2021-02-21T07:52:37Z</time>
      </trkpt>
      <trkpt lat="43.51355" lon="5.89436">
        <ele>387.97</ele>
        <time>2021-02-21T07:52:43Z</time>
      </trkpt>
      <trkpt lat="43.51374" lon="5.8944">
        <ele>386.41</ele>
        <time>2021-02-21T07:52:48Z</time>
      </trkpt>
      <trkpt lat="43.51392" lon="5.8945">
        <ele>385.05</ele>
        <time>2021-02-21T07:52:52Z</time>
      </trkpt>
      <trkpt lat="43.51408" lon="5.89463">
        <ele>379.96</ele>
        <time>2021-02-21T07:52:56Z</time>
      </trkpt>
      <trkpt lat="43.51426" lon="5.89482">
        <ele>375.3</ele>
        <time>2021-02-21T07:53:00Z</time>
      </trkpt>
      <trkpt lat="43.51442" lon="5.89493">
        <ele>372.4</ele>
        <time>2021-02-21T07:53:03Z</time>
      </trkpt>
      <trkpt lat="43.5146" lon="5.89503">
        <ele>370.05</ele>
        <time>2021-02-21T07:53:06Z</time>
      </trkpt>
      <trkpt lat="43.51478" lon="5.89509">
        <ele>368.23</ele>
        <time>2021-02-21T07:53:09Z</time>
      </trkpt>
      <trkpt lat="43.51497" lon="5.89515">
        <ele>366.66</ele>
        <time>2021-02-21T07:53:12Z</time>
      </trkpt>
      <trkpt lat="43.51514" lon="5.89526">
        <ele>364.92</ele>
        <time>2021-02-21T07:53:15Z</time>
      </trkpt>
      <trkpt lat="43.51535" lon="5.89532">
        <ele>363.27</ele>
        <time>2021-02-21T07:53:19Z</time>
      </trkpt>
      <trkpt lat="43.51555" lon="5.89547">
        <ele>362.06</ele>
        <time>2021-02-21T07:53:23Z</time>
      </trkpt>
      <trkpt lat="43.51573" lon="5.89563">
        <ele>361.26</ele>
        <time>2021-02-21T07:53:27Z</time>
      </trkpt>
      <trkpt lat="43.51586" lon="5.89583">
        <ele>359</ele>
        <time>2021-02-21T07:53:31Z</time>
      </trkpt>
      <trkpt lat="43.51595" lon="5.8961">
        <ele>357.31</ele>
        <time>2021-02-21T07:53:36Z</time>
      </trkpt>
      <trkpt lat="43.51588" lon="5.89638">
        <ele>354.43</ele>
        <time>2021-02-21T07:53:41Z</time>
      </trkpt>
      <trkpt lat="43.51605" lon="5.8965">
        <ele>352.17</ele>
        <time>2021-02-21T07:53:50Z</time>
      </trkpt>
      <trkpt lat="43.51624" lon="5.89659">
        <ele>353.4</ele>
        <time>2021-02-21T07:53:59Z</time>
      </trkpt>
      <trkpt lat="43.51645" lon="5.89663">
        <ele>356.44</ele>
        <time>2021-02-21T07:54:05Z</time>
      </trkpt>
      <trkpt lat="43.51663" lon="5.89669">
        <ele>360.74</ele>
        <time>2021-02-21T07:54:10Z</time>
      </trkpt>
      <trkpt lat="43.51683" lon="5.89674">
        <ele>366.73</ele>
        <time>2021-02-21T07:54:15Z</time>
      </trkpt>
      <trkpt lat="43.51701" lon="5.89677">
        <ele>370.89</ele>
        <time>2021-02-21T07:54:19Z</time>
      </trkpt>
      <trkpt lat="43.51721" lon="5.89681">
        <ele>366.33</ele>
        <time>2021-02-21T07:54:22Z</time>
      </trkpt>
      <trkpt lat="43.51742" lon="5.8969">
        <ele>362.91</ele>
        <time>2021-02-21T07:54:26Z</time>
      </trkpt>
      <trkpt lat="43.51764" lon="5.89699">
        <ele>361.6</ele>
        <time>2021-02-21T07:54:30Z</time>
      </trkpt>
      <trkpt lat="43.51787" lon="5.89702">
        <ele>360.46</ele>
        <time>2021-02-21T07:54:34Z</time>
      </trkpt>
      <trkpt lat="43.51808" lon="5.89703">
        <ele>360.4</ele>
        <time>2021-02-21T07:54:38Z</time>
      </trkpt>
      <trkpt lat="43.51828" lon="5.89703">
        <ele>359.77</ele>
        <time>2021-02-21T07:54:42Z</time>
      </trkpt>
      <trkpt lat="43.51849" lon="5.897">
        <ele>359.71</ele>
        <time>2021-02-21T07:54:46Z</time>
      </trkpt>
      <trkpt lat="43.51869" lon="5.89697">
        <ele>360.73</ele>
        <time>2021-02-21T07:54:50Z</time>
      </trkpt>
      <trkpt lat="43.51888" lon="5.89695">
        <ele>361.5</ele>
        <time>2021-02-21T07:54:54Z</time>
      </trkpt>
      <trkpt lat="43.51906" lon="5.89691">
        <ele>363.39</ele>
        <time>2021-02-21T07:54:58Z</time>
      </trkpt>
      <trkpt lat="43.51926" lon="5.89686">
        <ele>366.83</ele>
        <time>2021-02-21T07:55:02Z</time>
      </trkpt>
      <trkpt lat="43.51946" lon="5.89677">
        <ele>367.01</ele>
        <time>2021-02-21T07:55:06Z</time>
      </trkpt>
      <trkpt lat="43.51966" lon="5.89668">
        <ele>366.83</ele>
        <time>2021-02-21T07:55:10Z</time>
      </trkpt>
      <trkpt lat="43.51985" lon="5.89661">
        <ele>367.89</ele>
        <time>2021-02-21T07:55:14Z</time>
      </trkpt>
      <trkpt lat="43.52005" lon="5.89655">
        <ele>367.86</ele>
        <time>2021-02-21T07:55:18Z</time>
      </trkpt>
      <trkpt lat="43.52023" lon="5.8965">
        <ele>368.47</ele>
        <time>2021-02-21T07:55:22Z</time>
      </trkpt>
      <trkpt lat="43.52043" lon="5.89643">
        <ele>370.01</ele>
        <time>2021-02-21T07:55:27Z</time>
      </trkpt>
      <trkpt lat="43.52064" lon="5.89634">
        <ele>371.69</ele>
        <time>2021-02-21T07:55:32Z</time>
      </trkpt>
      <trkpt lat="43.52083" lon="5.89626">
        <ele>372.62</ele>
        <time>2021-02-21T07:55:37Z</time>
      </trkpt>
      <trkpt lat="43.52104" lon="5.89617">
        <ele>373.8</ele>
        <time>2021-02-21T07:55:42Z</time>
      </trkpt>
      <trkpt lat="43.52124" lon="5.8961">
        <ele>375.47</ele>
        <time>2021-02-21T07:55:47Z</time>
      </trkpt>
      <trkpt lat="43.52143" lon="5.896">
        <ele>377.45</ele>
        <time>2021-02-21T07:55:52Z</time>
      </trkpt>
      <trkpt lat="43.52161" lon="5.89594">
        <ele>380.38</ele>
        <time>2021-02-21T07:55:57Z</time>
      </trkpt>
      <trkpt lat="43.52179" lon="5.89587">
        <ele>383.91</ele>
        <time>2021-02-21T07:56:02Z</time>
      </trkpt>
      <trkpt lat="43.52199" lon="5.89576">
        <ele>386.37</ele>
        <time>2021-02-21T07:56:07Z</time>
      </trkpt>
      <trkpt lat="43.5222" lon="5.89567">
        <ele>384.03</ele>
        <time>2021-02-21T07:56:11Z</time>
      </trkpt>
      <trkpt lat="43.52244" lon="5.8956">
        <ele>385.27</ele>
        <time>2021-02-21T07:56:15Z</time>
      </trkpt>
      <trkpt lat="43.52266" lon="5.89557">
        <ele>387.04</ele>
        <time>2021-02-21T07:56:19Z</time>
      </trkpt>
      <trkpt lat="43.52287" lon="5.89556">
        <ele>387.24</ele>
        <time>2021-02-21T07:56:23Z</time>
      </trkpt>
      <trkpt lat="43.52306" lon="5.89555">
        <ele>387.98</ele>
        <time>2021-02-21T07:56:26Z</time>
      </trkpt>
      <trkpt lat="43.52326" lon="5.89556">
        <ele>390.57</ele>
        <time>2021-02-21T07:56:31Z</time>
      </trkpt>
      <trkpt lat="43.52347" lon="5.89555">
        <ele>397.24</ele>
        <time>2021-02-21T07:56:37Z</time>
      </trkpt>
      <trkpt lat="43.52366" lon="5.89555">
        <ele>398.06</ele>
        <time>2021-02-21T07:56:41Z</time>
      </trkpt>
      <trkpt lat="43.52387" lon="5.89559">
        <ele>399.69</ele>
        <time>2021-02-21T07:56:46Z</time>
      </trkpt>
      <trkpt lat="43.52407" lon="5.89565">
        <ele>406.06</ele>
        <time>2021-02-21T07:56:53Z</time>
      </trkpt>
      <trkpt lat="43.52425" lon="5.89571">
        <ele>411.86</ele>
        <time>2021-02-21T07:56:59Z</time>
      </trkpt>
      <trkpt lat="43.52446" lon="5.89574">
        <ele>420.24</ele>
        <time>2021-02-21T07:57:05Z</time>
      </trkpt>
      <trkpt lat="43.52467" lon="5.89577">
        <ele>428.17</ele>
        <time>2021-02-21T07:57:10Z</time>
      </trkpt>
      <trkpt lat="43.52487" lon="5.89579">
        <ele>436.98</ele>
        <time>2021-02-21T07:57:15Z</time>
      </trkpt>
      <trkpt lat="43.52507" lon="5.89583">
        <ele>448.63</ele>
        <time>2021-02-21T07:57:20Z</time>
      </trkpt>
      <trkpt lat="43.52525" lon="5.89585">
        <ele>455.2</ele>
        <time>2021-02-21T07:57:24Z</time>
      </trkpt>
      <trkpt lat="43.52548" lon="5.8958">
        <ele>453.78</ele>
        <time>2021-02-21T07:57:28Z</time>
      </trkpt>
      <trkpt lat="43.52568" lon="5.89581">
        <ele>457.99</ele>
        <time>2021-02-21T07:57:32Z</time>
      </trkpt>
      <trkpt lat="43.52586" lon="5.89585">
        <ele>466.32</ele>
        <time>2021-02-21T07:57:36Z</time>
      </trkpt>
      <trkpt lat="43.52605" lon="5.89587">
        <ele>471.96</ele>
        <time>2021-02-21T07:57:40Z</time>
      </trkpt>
      <trkpt lat="43.5263" lon="5.89587">
        <ele>468.89</ele>
        <time>2021-02-21T07:57:44Z</time>
      </trkpt>
      <trkpt lat="43.52653" lon="5.89587">
        <ele>463.73</ele>
        <time>2021-02-21T07:57:48Z</time>
      </trkpt>
      <trkpt lat="43.5268" lon="5.89586">
        <ele>447.58</ele>
        <time>2021-02-21T07:57:52Z</time>
      </trkpt>
      <trkpt lat="43.52701" lon="5.89584">
        <ele>426.52</ele>
        <time>2021-02-21T07:57:55Z</time>
      </trkpt>
      <trkpt lat="43.52723" lon="5.89579">
        <ele>401.36</ele>
        <time>2021-02-21T07:57:58Z</time>
      </trkpt>
      <trkpt lat="43.52743" lon="5.89576">
        <ele>391.24</ele>
        <time>2021-02-21T07:58:01Z</time>
      </trkpt>
      <trkpt lat="43.52767" lon="5.89571">
        <ele>376.11</ele>
        <time>2021-02-21T07:58:05Z</time>
      </trkpt>
      <trkpt lat="43.52787" lon="5.89564">
        <ele>365.46</ele>
        <time>2021-02-21T07:58:09Z</time>
      </trkpt>
      <trkpt lat="43.52806" lon="5.89555">
        <ele>358.53</ele>
        <time>2021-02-21T07:58:13Z</time>
      </trkpt>
      <trkpt lat="43.52825" lon="5.89546">
        <ele>353.05</ele>
        <time>2021-02-21T07:58:17Z</time>
      </trkpt>
      <trkpt lat="43.52844" lon="5.89534">
        <ele>346.22</ele>
        <time>2021-02-21T07:58:21Z</time>
      </trkpt>
      <trkpt lat="43.52861" lon="5.89523">
        <ele>341.22</ele>
        <time>2021-02-21T07:58:25Z</time>
      </trkpt>
      <trkpt lat="43.52881" lon="5.89512">
        <ele>336.49</ele>
        <time>2021-02-21T07:58:30Z</time>
      </trkpt>
      <trkpt lat="43.52903" lon="5.89503">
        <ele>332.63</ele>
        <time>2021-02-21T07:58:35Z</time>
      </trkpt>
      <trkpt lat="43.52922" lon="5.89494">
        <ele>329.38</ele>
        <time>2021-02-21T07:58:40Z</time>
      </trkpt>
      <trkpt lat="43.5294" lon="5.89485">
        <ele>326.52</ele>
        <time>2021-02-21T07:58:45Z</time>
      </trkpt>
      <trkpt lat="43.52959" lon="5.89473">
        <ele>323.25</ele>
        <time>2021-02-21T07:58:51Z</time>
      </trkpt>
      <trkpt lat="43.52977" lon="5.89465">
        <ele>321.92</ele>
        <time>2021-02-21T07:58:56Z</time>
      </trkpt>
      <trkpt lat="43.52994" lon="5.89456">
        <ele>321.09</ele>
        <time>2021-02-21T07:59:01Z</time>
      </trkpt>
      <trkpt lat="43.53015" lon="5.89448">
        <ele>320.79</ele>
        <time>2021-02-21T07:59:07Z</time>
      </trkpt>
      <trkpt lat="43.53033" lon="5.89437">
        <ele>321.26</ele>
        <time>2021-02-21T07:59:13Z</time>
      </trkpt>
      <trkpt lat="43.53052" lon="5.89424">
        <ele>321.23</ele>
        <time>2021-02-21T07:59:19Z</time>
      </trkpt>
      <trkpt lat="43.53069" lon="5.89408">
        <ele>319.83</ele>
        <time>2021-02-21T07:59:25Z</time>
      </trkpt>
      <trkpt lat="43.53087" lon="5.89392">
        <ele>318.83</ele>
        <time>2021-02-21T07:59:31Z</time>
      </trkpt>
      <trkpt lat="43.53103" lon="5.89377">
        <ele>318.96</ele>
        <time>2021-02-21T07:59:37Z</time>
      </trkpt>
      <trkpt lat="43.53118" lon="5.89361">
        <ele>319.05</ele>
        <time>2021-02-21T07:59:44Z</time>
      </trkpt>
      <trkpt lat="43.53133" lon="5.89346">
        <ele>319.45</ele>
        <time>2021-02-21T07:59:51Z</time>
      </trkpt>
      <trkpt lat="43.53149" lon="5.89332">
        <ele>320.06</ele>
        <time>2021-02-21T07:59:58Z</time>
      </trkpt>
      <trkpt lat="43.53166" lon="5.89321">
        <ele>321.22</ele>
        <time>2021-02-21T08:00:05Z</time>
      </trkpt>
      <trkpt lat="43.53184" lon="5.89313">
        <ele>322.5</ele>
        <time>2021-02-21T08:00:12Z</time>
      </trkpt>
      <trkpt lat="43.53203" lon="5.89303">
        <ele>324.04</ele>
        <time>2021-02-21T08:00:20Z</time>
      </trkpt>
      <trkpt lat="43.5322" lon="5.89291">
        <ele>325.35</ele>
        <time>2021-02-21T08:00:27Z</time>
      </trkpt>
      <trkpt lat="43.53237" lon="5.89277">
        <ele>327.2</ele>
        <time>2021-02-21T08:00:35Z</time>
      </trkpt>
      <trkpt lat="43.53254" lon="5.89266">
        <ele>329.97</ele>
        <time>2021-02-21T08:00:43Z</time>
      </trkpt>
      <trkpt lat="43.53272" lon="5.89257">
        <ele>333.29</ele>
        <time>2021-02-21T08:00:51Z</time>
      </trkpt>
      <trkpt lat="43.53289" lon="5.89242">
        <ele>336.4</ele>
        <time>2021-02-21T08:00:59Z</time>
      </trkpt>
      <trkpt lat="43.53304" lon="5.89227">
        <ele>337.92</ele>
        <time>2021-02-21T08:01:06Z</time>
      </trkpt>
      <trkpt lat="43.53321" lon="5.89214">
        <ele>339.04</ele>
        <time>2021-02-21T08:01:13Z</time>
      </trkpt>
      <trkpt lat="43.53337" lon="5.89201">
        <ele>340.02</ele>
        <time>2021-02-21T08:01:20Z</time>
      </trkpt>
      <trkpt lat="43.53353" lon="5.89188">
        <ele>341.44</ele>
        <time>2021-02-21T08:01:27Z</time>
      </trkpt>
      <trkpt lat="43.53368" lon="5.89173">
        <ele>343.39</ele>
        <time>2021-02-21T08:01:35Z</time>
      </trkpt>
      <trkpt lat="43.53385" lon="5.8916">
        <ele>344.16</ele>
        <time>2021-02-21T08:01:42Z</time>
      </trkpt>
      <trkpt lat="43.53401" lon="5.89145">
        <ele>344.53</ele>
        <time>2021-02-21T08:01:50Z</time>
      </trkpt>
      <trkpt lat="43.53416" lon="5.8913">
        <ele>345.63</ele>
        <time>2021-02-21T08:01:58Z</time>
      </trkpt>
      <trkpt lat="43.53431" lon="5.89115">
        <ele>347.69</ele>
        <time>2021-02-21T08:02:06Z</time>
      </trkpt>
      <trkpt lat="43.53446" lon="5.89099">
        <ele>349.48</ele>
        <time>2021-02-21T08:02:13Z</time>
      </trkpt>
      <trkpt lat="43.53459" lon="5.8908">
        <ele>350.83</ele>
        <time>2021-02-21T08:02:22Z</time>
      </trkpt>
      <trkpt lat="43.53465" lon="5.89056">
        <ele>353.98</ele>
        <time>2021-02-21T08:02:32Z</time>
      </trkpt>
      <trkpt lat="43.53464" lon="5.8903">
        <ele>356.29</ele>
        <time>2021-02-21T08:02:41Z</time>
      </trkpt>
      <trkpt lat="43.53453" lon="5.89011">
        <ele>354.99</ele>
        <time>2021-02-21T08:02:50Z</time>
      </trkpt>
      <trkpt lat="43.53435" lon="5.89002">
        <ele>352.87</ele>
        <time>2021-02-21T08:03:01Z</time>
      </trkpt>
      <trkpt lat="43.53415" lon="5.88996">
        <ele>351.37</ele>
        <time>2021-02-21T08:03:12Z</time>
      </trkpt>
      <trkpt lat="43.53398" lon="5.88983">
        <ele>352.15</ele>
        <time>2021-02-21T08:03:20Z</time>
      </trkpt>
      <trkpt lat="43.53382" lon="5.8897">
        <ele>352.45</ele>
        <time>2021-02-21T08:03:28Z</time>
      </trkpt>
      <trkpt lat="43.53369" lon="5.88948">
        <ele>353.04</ele>
        <time>2021-02-21T08:03:37Z</time>
      </trkpt>
      <trkpt lat="43.53359" lon="5.88926">
        <ele>353.27</ele>
        <time>2021-02-21T08:03:45Z</time>
      </trkpt>
      <trkpt lat="43.53347" lon="5.88906">
        <ele>353.14</ele>
        <time>2021-02-21T08:03:53Z</time>
      </trkpt>
      <trkpt lat="43.53335" lon="5.88886">
        <ele>351.24</ele>
        <time>2021-02-21T08:04:00Z</time>
      </trkpt>
      <trkpt lat="43.53324" lon="5.88867">
        <ele>349.81</ele>
        <time>2021-02-21T08:04:07Z</time>
      </trkpt>
      <trkpt lat="43.53312" lon="5.88846">
        <ele>350.74</ele>
        <time>2021-02-21T08:04:15Z</time>
      </trkpt>
      <trkpt lat="43.53295" lon="5.88831">
        <ele>352.37</ele>
        <time>2021-02-21T08:04:23Z</time>
      </trkpt>
      <trkpt lat="43.53279" lon="5.88818">
        <ele>352.74</ele>
        <time>2021-02-21T08:04:30Z</time>
      </trkpt>
      <trkpt lat="43.53262" lon="5.88805">
        <ele>352.77</ele>
        <time>2021-02-21T08:04:37Z</time>
      </trkpt>
      <trkpt lat="43.53245" lon="5.88793">
        <ele>352.77</ele>
        <time>2021-02-21T08:04:43Z</time>
      </trkpt>
      <trkpt lat="43.53234" lon="5.88771">
        <ele>353.86</ele>
        <time>2021-02-21T08:04:49Z</time>
      </trkpt>
      <trkpt lat="43.53247" lon="5.88753">
        <ele>356.21</ele>
        <time>2021-02-21T08:04:56Z</time>
      </trkpt>
      <trkpt lat="43.53264" lon="5.88741">
        <ele>357.54</ele>
        <time>2021-02-21T08:05:02Z</time>
      </trkpt>
      <trkpt lat="43.53274" lon="5.88715">
        <ele>358.79</ele>
        <time>2021-02-21T08:05:08Z</time>
      </trkpt>
      <trkpt lat="43.53275" lon="5.88689">
        <ele>358.86</ele>
        <time>2021-02-21T08:05:12Z</time>
      </trkpt>
      <trkpt lat="43.53287" lon="5.8867">
        <ele>359.62</ele>
        <time>2021-02-21T08:05:17Z</time>
      </trkpt>
      <trkpt lat="43.53306" lon="5.88675">
        <ele>362</ele>
        <time>2021-02-21T08:05:25Z</time>
      </trkpt>
      <trkpt lat="43.53322" lon="5.8869">
        <ele>364.1</ele>
        <time>2021-02-21T08:05:33Z</time>
      </trkpt>
      <trkpt lat="43.53342" lon="5.88701">
        <ele>366.79</ele>
        <time>2021-02-21T08:05:41Z</time>
      </trkpt>
      <trkpt lat="43.5336" lon="5.88707">
        <ele>369.37</ele>
        <time>2021-02-21T08:05:48Z</time>
      </trkpt>
      <trkpt lat="43.5338" lon="5.88713">
        <ele>372.09</ele>
        <time>2021-02-21T08:05:55Z</time>
      </trkpt>
      <trkpt lat="43.53397" lon="5.88722">
        <ele>375.76</ele>
        <time>2021-02-21T08:06:02Z</time>
      </trkpt>
      <trkpt lat="43.53415" lon="5.8873">
        <ele>378.47</ele>
        <time>2021-02-21T08:06:10Z</time>
      </trkpt>
      <trkpt lat="43.53435" lon="5.88733">
        <ele>379.24</ele>
        <time>2021-02-21T08:06:16Z</time>
      </trkpt>
      <trkpt lat="43.53453" lon="5.88734">
        <ele>380.24</ele>
        <time>2021-02-21T08:06:25Z</time>
      </trkpt>
      <trkpt lat="43.53471" lon="5.88734">
        <ele>382.12</ele>
        <time>2021-02-21T08:06:33Z</time>
      </trkpt>
      <trkpt lat="43.53492" lon="5.88725">
        <ele>382.27</ele>
        <time>2021-02-21T08:06:39Z</time>
      </trkpt>
      <trkpt lat="43.53508" lon="5.88714">
        <ele>381.86</ele>
        <time>2021-02-21T08:06:43Z</time>
      </trkpt>
      <trkpt lat="43.53522" lon="5.88697">
        <ele>381.36</ele>
        <time>2021-02-21T08:06:47Z</time>
      </trkpt>
      <trkpt lat="43.53537" lon="5.88678">
        <ele>381.29</ele>
        <time>2021-02-21T08:06:51Z</time>
      </trkpt>
      <trkpt lat="43.53549" lon="5.8866">
        <ele>380.06</ele>
        <time>2021-02-21T08:06:55Z</time>
      </trkpt>
      <trkpt lat="43.53561" lon="5.88639">
        <ele>379.35</ele>
        <time>2021-02-21T08:07:00Z</time>
      </trkpt>
      <trkpt lat="43.53578" lon="5.88634">
        <ele>380.02</ele>
        <time>2021-02-21T08:07:05Z</time>
      </trkpt>
      <trkpt lat="43.53598" lon="5.8863">
        <ele>382.34</ele>
        <time>2021-02-21T08:07:11Z</time>
      </trkpt>
      <trkpt lat="43.53618" lon="5.88622">
        <ele>382.79</ele>
        <time>2021-02-21T08:07:17Z</time>
      </trkpt>
      <trkpt lat="43.53636" lon="5.88615">
        <ele>383.5</ele>
        <time>2021-02-21T08:07:24Z</time>
      </trkpt>
      <trkpt lat="43.53653" lon="5.88607">
        <ele>384.65</ele>
        <time>2021-02-21T08:07:31Z</time>
      </trkpt>
      <trkpt lat="43.53669" lon="5.88593">
        <ele>384.09</ele>
        <time>2021-02-21T08:07:37Z</time>
      </trkpt>
      <trkpt lat="43.53684" lon="5.88574">
        <ele>382.71</ele>
        <time>2021-02-21T08:07:42Z</time>
      </trkpt>
      <trkpt lat="43.53702" lon="5.88558">
        <ele>382.12</ele>
        <time>2021-02-21T08:07:48Z</time>
      </trkpt>
      <trkpt lat="43.53715" lon="5.88539">
        <ele>381.21</ele>
        <time>2021-02-21T08:07:54Z</time>
      </trkpt>
      <trkpt lat="43.53729" lon="5.8852">
        <ele>380.45</ele>
        <time>2021-02-21T08:08:01Z</time>
      </trkpt>
      <trkpt lat="43.53739" lon="5.88498">
        <ele>383.16</ele>
        <time>2021-02-21T08:08:10Z</time>
      </trkpt>
      <trkpt lat="43.53748" lon="5.88475">
        <ele>385.72</ele>
        <time>2021-02-21T08:08:18Z</time>
      </trkpt>
      <trkpt lat="43.53757" lon="5.88452">
        <ele>386.07</ele>
        <time>2021-02-21T08:08:26Z</time>
      </trkpt>
      <trkpt lat="43.53774" lon="5.8844">
        <ele>386.92</ele>
        <time>2021-02-21T08:08:34Z</time>
      </trkpt>
      <trkpt lat="43.53791" lon="5.88428">
        <ele>388.08</ele>
        <time>2021-02-21T08:08:40Z</time>
      </trkpt>
      <trkpt lat="43.53811" lon="5.88424">
        <ele>390.06</ele>
        <time>2021-02-21T08:08:48Z</time>
      </trkpt>
      <trkpt lat="43.53829" lon="5.88434">
        <ele>389.02</ele>
        <time>2021-02-21T08:08:58Z</time>
      </trkpt>
      <trkpt lat="43.53847" lon="5.88442">
        <ele>391.79</ele>
        <time>2021-02-21T08:09:08Z</time>
      </trkpt>
      <trkpt lat="43.53865" lon="5.88437">
        <ele>393.68</ele>
        <time>2021-02-21T08:09:23Z</time>
      </trkpt>
      <trkpt lat="43.53884" lon="5.88435">
        <ele>399.02</ele>
        <time>2021-02-21T08:09:34Z</time>
      </trkpt>
      <trkpt lat="43.53904" lon="5.88437">
        <ele>404.65</ele>
        <time>2021-02-21T08:09:43Z</time>
      </trkpt>
      <trkpt lat="43.53922" lon="5.88438">
        <ele>411.88</ele>
        <time>2021-02-21T08:09:51Z</time>
      </trkpt>
      <trkpt lat="43.5394" lon="5.88441">
        <ele>412.19</ele>
        <time>2021-02-21T08:09:57Z</time>
      </trkpt>
      <trkpt lat="43.53957" lon="5.88451">
        <ele>406.92</ele>
        <time>2021-02-21T08:10:04Z</time>
      </trkpt>
      <trkpt lat="43.53975" lon="5.88456">
        <ele>409.82</ele>
        <time>2021-02-21T08:10:11Z</time>
      </trkpt>
      <trkpt lat="43.53994" lon="5.88457">
        <ele>413.9</ele>
        <time>2021-02-21T08:10:21Z</time>
      </trkpt>
      <trkpt lat="43.54012" lon="5.88454">
        <ele>413.92</ele>
        <time>2021-02-21T08:10:30Z</time>
      </trkpt>
      <trkpt lat="43.5403" lon="5.88445">
        <ele>414.15</ele>
        <time>2021-02-21T08:10:39Z</time>
      </trkpt>
      <trkpt lat="43.54048" lon="5.88436">
        <ele>415.37</ele>
        <time>2021-02-21T08:10:47Z</time>
      </trkpt>
      <trkpt lat="43.54069" lon="5.88427">
        <ele>416.73</ele>
        <time>2021-02-21T08:10:55Z</time>
      </trkpt>
      <trkpt lat="43.54087" lon="5.88413">
        <ele>416.72</ele>
        <time>2021-02-21T08:11:00Z</time>
      </trkpt>
      <trkpt lat="43.54104" lon="5.88398">
        <ele>416.79</ele>
        <time>2021-02-21T08:11:05Z</time>
      </trkpt>
      <trkpt lat="43.5412" lon="5.88383">
        <ele>415.83</ele>
        <time>2021-02-21T08:11:11Z</time>
      </trkpt>
      <trkpt lat="43.54137" lon="5.8837">
        <ele>415.49</ele>
        <time>2021-02-21T08:11:18Z</time>
      </trkpt>
      <trkpt lat="43.54154" lon="5.88357">
        <ele>414.6</ele>
        <time>2021-02-21T08:11:25Z</time>
      </trkpt>
      <trkpt lat="43.54171" lon="5.88345">
        <ele>416.55</ele>
        <time>2021-02-21T08:11:33Z</time>
      </trkpt>
      <trkpt lat="43.54191" lon="5.88342">
        <ele>420.83</ele>
        <time>2021-02-21T08:11:41Z</time>
      </trkpt>
      <trkpt lat="43.5421" lon="5.88336">
        <ele>426.11</ele>
        <time>2021-02-21T08:11:49Z</time>
      </trkpt>
      <trkpt lat="43.54229" lon="5.88329">
        <ele>432.15</ele>
        <time>2021-02-21T08:11:58Z</time>
      </trkpt>
      <trkpt lat="43.54247" lon="5.88321">
        <ele>431.93</ele>
        <time>2021-02-21T08:12:06Z</time>
      </trkpt>
      <trkpt lat="43.54266" lon="5.88311">
        <ele>434.06</ele>
        <time>2021-02-21T08:12:15Z</time>
      </trkpt>
      <trkpt lat="43.54283" lon="5.88298">
        <ele>435.42</ele>
        <time>2021-02-21T08:12:23Z</time>
      </trkpt>
      <trkpt lat="43.543" lon="5.88285">
        <ele>437.42</ele>
        <time>2021-02-21T08:12:30Z</time>
      </trkpt>
      <trkpt lat="43.54317" lon="5.88276">
        <ele>433.76</ele>
        <time>2021-02-21T08:12:37Z</time>
      </trkpt>
      <trkpt lat="43.54334" lon="5.88265">
        <ele>430.71</ele>
        <time>2021-02-21T08:12:44Z</time>
      </trkpt>
      <trkpt lat="43.54352" lon="5.88251">
        <ele>426.91</ele>
        <time>2021-02-21T08:12:52Z</time>
      </trkpt>
      <trkpt lat="43.54369" lon="5.88239">
        <ele>425.13</ele>
        <time>2021-02-21T08:12:59Z</time>
      </trkpt>
      <trkpt lat="43.54385" lon="5.88225">
        <ele>422.63</ele>
        <time>2021-02-21T08:13:06Z</time>
      </trkpt>
      <trkpt lat="43.544" lon="5.8821">
        <ele>420.68</ele>
        <time>2021-02-21T08:13:13Z</time>
      </trkpt>
      <trkpt lat="43.54416" lon="5.88195">
        <ele>417.45</ele>
        <time>2021-02-21T08:13:21Z</time>
      </trkpt>
      <trkpt lat="43.54434" lon="5.88187">
        <ele>416.88</ele>
        <time>2021-02-21T08:13:29Z</time>
      </trkpt>
      <trkpt lat="43.54449" lon="5.8817">
        <ele>416.13</ele>
        <time>2021-02-21T08:13:37Z</time>
      </trkpt>
      <trkpt lat="43.5445" lon="5.88142">
        <ele>416</ele>
        <time>2021-02-21T08:13:45Z</time>
      </trkpt>
      <trkpt lat="43.54461" lon="5.88123">
        <ele>416.23</ele>
        <time>2021-02-21T08:13:52Z</time>
      </trkpt>
      <trkpt lat="43.54476" lon="5.88105">
        <ele>416.46</ele>
        <time>2021-02-21T08:13:59Z</time>
      </trkpt>
      <trkpt lat="43.54489" lon="5.88086">
        <ele>416.75</ele>
        <time>2021-02-21T08:14:06Z</time>
      </trkpt>
      <trkpt lat="43.54501" lon="5.88066">
        <ele>416.89</ele>
        <time>2021-02-21T08:14:13Z</time>
      </trkpt>
      <trkpt lat="43.54515" lon="5.88047">
        <ele>416.73</ele>
        <time>2021-02-21T08:14:20Z</time>
      </trkpt>
      <trkpt lat="43.54528" lon="5.88027">
        <ele>417.44</ele>
        <time>2021-02-21T08:14:26Z</time>
      </trkpt>
      <trkpt lat="43.54539" lon="5.88002">
        <ele>417.49</ele>
        <time>2021-02-21T08:14:31Z</time>
      </trkpt>
      <trkpt lat="43.54554" lon="5.87987">
        <ele>417.71</ele>
        <time>2021-02-21T08:14:36Z</time>
      </trkpt>
      <trkpt lat="43.54571" lon="5.87976">
        <ele>417.23</ele>
        <time>2021-02-21T08:15:05Z</time>
      </trkpt>
      <trkpt lat="43.54589" lon="5.87965">
        <ele>419.72</ele>
        <time>2021-02-21T08:15:16Z</time>
      </trkpt>
      <trkpt lat="43.54602" lon="5.87947">
        <ele>421.42</ele>
        <time>2021-02-21T08:15:23Z</time>
      </trkpt>
      <trkpt lat="43.54618" lon="5.87931">
        <ele>423.39</ele>
        <time>2021-02-21T08:15:31Z</time>
      </trkpt>
      <trkpt lat="43.54634" lon="5.87918">
        <ele>424.19</ele>
        <time>2021-02-21T08:15:38Z</time>
      </trkpt>
      <trkpt lat="43.54649" lon="5.879">
        <ele>424.44</ele>
        <time>2021-02-21T08:15:45Z</time>
      </trkpt>
      <trkpt lat="43.54662" lon="5.8788">
        <ele>424.85</ele>
        <time>2021-02-21T08:15:53Z</time>
      </trkpt>
      <trkpt lat="43.54676" lon="5.87861">
        <ele>424.56</ele>
        <time>2021-02-21T08:16:01Z</time>
      </trkpt>
      <trkpt lat="43.5469" lon="5.87841">
        <ele>423.93</ele>
        <time>2021-02-21T08:16:07Z</time>
      </trkpt>
      <trkpt lat="43.54704" lon="5.87824">
        <ele>423.65</ele>
        <time>2021-02-21T08:16:11Z</time>
      </trkpt>
      <trkpt lat="43.54713" lon="5.87798">
        <ele>423.75</ele>
        <time>2021-02-21T08:16:15Z</time>
      </trkpt>
      <trkpt lat="43.54717" lon="5.87773">
        <ele>423.2</ele>
        <time>2021-02-21T08:16:18Z</time>
      </trkpt>
      <trkpt lat="43.54723" lon="5.87749">
        <ele>422.42</ele>
        <time>2021-02-21T08:16:21Z</time>
      </trkpt>
      <trkpt lat="43.54734" lon="5.8772">
        <ele>421.5</ele>
        <time>2021-02-21T08:16:25Z</time>
      </trkpt>
      <trkpt lat="43.54747" lon="5.87695">
        <ele>420.71</ele>
        <time>2021-02-21T08:16:29Z</time>
      </trkpt>
      <trkpt lat="43.54766" lon="5.87683">
        <ele>419.95</ele>
        <time>2021-02-21T08:16:33Z</time>
      </trkpt>
      <trkpt lat="43.54781" lon="5.8767">
        <ele>419.59</ele>
        <time>2021-02-21T08:16:37Z</time>
      </trkpt>
      <trkpt lat="43.54798" lon="5.87658">
        <ele>419.82</ele>
        <time>2021-02-21T08:16:42Z</time>
      </trkpt>
      <trkpt lat="43.54819" lon="5.87661">
        <ele>421.64</ele>
        <time>2021-02-21T08:16:48Z</time>
      </trkpt>
      <trkpt lat="43.54839" lon="5.87669">
        <ele>420.24</ele>
        <time>2021-02-21T08:16:53Z</time>
      </trkpt>
      <trkpt lat="43.54859" lon="5.87678">
        <ele>419.2</ele>
        <time>2021-02-21T08:16:59Z</time>
      </trkpt>
      <trkpt lat="43.54878" lon="5.87678">
        <ele>419.72</ele>
        <time>2021-02-21T08:17:05Z</time>
      </trkpt>
      <trkpt lat="43.54897" lon="5.87674">
        <ele>421.08</ele>
        <time>2021-02-21T08:17:12Z</time>
      </trkpt>
      <trkpt lat="43.54918" lon="5.87674">
        <ele>425.51</ele>
        <time>2021-02-21T08:17:19Z</time>
      </trkpt>
      <trkpt lat="43.54936" lon="5.87672">
        <ele>430.01</ele>
        <time>2021-02-21T08:17:25Z</time>
      </trkpt>
      <trkpt lat="43.54954" lon="5.87663">
        <ele>430.04</ele>
        <time>2021-02-21T08:17:31Z</time>
      </trkpt>
      <trkpt lat="43.54973" lon="5.87659">
        <ele>432.94</ele>
        <time>2021-02-21T08:17:37Z</time>
      </trkpt>
      <trkpt lat="43.54992" lon="5.87655">
        <ele>438.98</ele>
        <time>2021-02-21T08:17:43Z</time>
      </trkpt>
      <trkpt lat="43.55012" lon="5.87649">
        <ele>438.26</ele>
        <time>2021-02-21T08:17:49Z</time>
      </trkpt>
      <trkpt lat="43.55032" lon="5.87638">
        <ele>437.18</ele>
        <time>2021-02-21T08:17:55Z</time>
      </trkpt>
      <trkpt lat="43.55049" lon="5.87627">
        <ele>436.06</ele>
        <time>2021-02-21T08:18:00Z</time>
      </trkpt>
      <trkpt lat="43.55066" lon="5.87608">
        <ele>436.25</ele>
        <time>2021-02-21T08:18:05Z</time>
      </trkpt>
      <trkpt lat="43.55085" lon="5.8759">
        <ele>436.24</ele>
        <time>2021-02-21T08:18:10Z</time>
      </trkpt>
      <trkpt lat="43.551" lon="5.87573">
        <ele>435.34</ele>
        <time>2021-02-21T08:18:14Z</time>
      </trkpt>
      <trkpt lat="43.55116" lon="5.8756">
        <ele>432.61</ele>
        <time>2021-02-21T08:18:18Z</time>
      </trkpt>
      <trkpt lat="43.55133" lon="5.87543">
        <ele>429.89</ele>
        <time>2021-02-21T08:18:23Z</time>
      </trkpt>
      <trkpt lat="43.55151" lon="5.87525">
        <ele>428.28</ele>
        <time>2021-02-21T08:18:28Z</time>
      </trkpt>
      <trkpt lat="43.55165" lon="5.87507">
        <ele>426.27</ele>
        <time>2021-02-21T08:18:32Z</time>
      </trkpt>
      <trkpt lat="43.55179" lon="5.87488">
        <ele>422.86</ele>
        <time>2021-02-21T08:18:36Z</time>
      </trkpt>
      <trkpt lat="43.55194" lon="5.87468">
        <ele>419.57</ele>
        <time>2021-02-21T08:18:40Z</time>
      </trkpt>
      <trkpt lat="43.55211" lon="5.87448">
        <ele>415.54</ele>
        <time>2021-02-21T08:18:44Z</time>
      </trkpt>
      <trkpt lat="43.55228" lon="5.87428">
        <ele>410.96</ele>
        <time>2021-02-21T08:18:48Z</time>
      </trkpt>
      <trkpt lat="43.55244" lon="5.87413">
        <ele>405.34</ele>
        <time>2021-02-21T08:18:52Z</time>
      </trkpt>
      <trkpt lat="43.55261" lon="5.87399">
        <ele>400.73</ele>
        <time>2021-02-21T08:18:57Z</time>
      </trkpt>
      <trkpt lat="43.55278" lon="5.87384">
        <ele>395.75</ele>
        <time>2021-02-21T08:19:02Z</time>
      </trkpt>
      <trkpt lat="43.55297" lon="5.87392">
        <ele>390.55</ele>
        <time>2021-02-21T08:19:10Z</time>
      </trkpt>
      <trkpt lat="43.55314" lon="5.87404">
        <ele>388.6</ele>
        <time>2021-02-21T08:19:18Z</time>
      </trkpt>
      <trkpt lat="43.55334" lon="5.87416">
        <ele>387.9</ele>
        <time>2021-02-21T08:19:24Z</time>
      </trkpt>
      <trkpt lat="43.55354" lon="5.87423">
        <ele>387.48</ele>
        <time>2021-02-21T08:19:29Z</time>
      </trkpt>
      <trkpt lat="43.55374" lon="5.87429">
        <ele>386.75</ele>
        <time>2021-02-21T08:19:34Z</time>
      </trkpt>
      <trkpt lat="43.55394" lon="5.87437">
        <ele>385.85</ele>
        <time>2021-02-21T08:19:39Z</time>
      </trkpt>
      <trkpt lat="43.55414" lon="5.8744">
        <ele>383.3</ele>
        <time>2021-02-21T08:19:44Z</time>
      </trkpt>
      <trkpt lat="43.55432" lon="5.87445">
        <ele>383.72</ele>
        <time>2021-02-21T08:19:49Z</time>
      </trkpt>
      <trkpt lat="43.55449" lon="5.87461">
        <ele>383.91</ele>
        <time>2021-02-21T08:19:55Z</time>
      </trkpt>
      <trkpt lat="43.55469" lon="5.87468">
        <ele>383.41</ele>
        <time>2021-02-21T08:20:00Z</time>
      </trkpt>
      <trkpt lat="43.55487" lon="5.87479">
        <ele>382.75</ele>
        <time>2021-02-21T08:20:04Z</time>
      </trkpt>
      <trkpt lat="43.55502" lon="5.87495">
        <ele>381.72</ele>
        <time>2021-02-21T08:20:08Z</time>
      </trkpt>
      <trkpt lat="43.55523" lon="5.87495">
        <ele>380.54</ele>
        <time>2021-02-21T08:20:12Z</time>
      </trkpt>
      <trkpt lat="43.55546" lon="5.87491">
        <ele>379.25</ele>
        <time>2021-02-21T08:20:16Z</time>
      </trkpt>
      <trkpt lat="43.55565" lon="5.8748">
        <ele>377.66</ele>
        <time>2021-02-21T08:20:20Z</time>
      </trkpt>
      <trkpt lat="43.55584" lon="5.87492">
        <ele>376.5</ele>
        <time>2021-02-21T08:20:25Z</time>
      </trkpt>
      <trkpt lat="43.55594" lon="5.87515">
        <ele>375.63</ele>
        <time>2021-02-21T08:20:29Z</time>
      </trkpt>
      <trkpt lat="43.55598" lon="5.8754">
        <ele>374.8</ele>
        <time>2021-02-21T08:20:33Z</time>
      </trkpt>
      <trkpt lat="43.55595" lon="5.87568">
        <ele>374.09</ele>
        <time>2021-02-21T08:20:38Z</time>
      </trkpt>
      <trkpt lat="43.55602" lon="5.87594">
        <ele>373.39</ele>
        <time>2021-02-21T08:20:44Z</time>
      </trkpt>
      <trkpt lat="43.5561" lon="5.87619">
        <ele>373.76</ele>
        <time>2021-02-21T08:20:50Z</time>
      </trkpt>
      <trkpt lat="43.5561" lon="5.87646">
        <ele>373.19</ele>
        <time>2021-02-21T08:20:58Z</time>
      </trkpt>
      <trkpt lat="43.5561" lon="5.87672">
        <ele>373.25</ele>
        <time>2021-02-21T08:21:05Z</time>
      </trkpt>
      <trkpt lat="43.55604" lon="5.87699">
        <ele>373.17</ele>
        <time>2021-02-21T08:21:12Z</time>
      </trkpt>
      <trkpt lat="43.55596" lon="5.87723">
        <ele>373.05</ele>
        <time>2021-02-21T08:21:18Z</time>
      </trkpt>
      <trkpt lat="43.55588" lon="5.87746">
        <ele>373.66</ele>
        <time>2021-02-21T08:21:24Z</time>
      </trkpt>
      <trkpt lat="43.55578" lon="5.8777">
        <ele>374.24</ele>
        <time>2021-02-21T08:21:31Z</time>
      </trkpt>
      <trkpt lat="43.55567" lon="5.87791">
        <ele>374.56</ele>
        <time>2021-02-21T08:21:37Z</time>
      </trkpt>
      <trkpt lat="43.55558" lon="5.87816">
        <ele>375.54</ele>
        <time>2021-02-21T08:21:44Z</time>
      </trkpt>
      <trkpt lat="43.55549" lon="5.87838">
        <ele>376.84</ele>
        <time>2021-02-21T08:21:53Z</time>
      </trkpt>
      <trkpt lat="43.55538" lon="5.87858">
        <ele>378.52</ele>
        <time>2021-02-21T08:22:02Z</time>
      </trkpt>
      <trkpt lat="43.55529" lon="5.87882">
        <ele>380.22</ele>
        <time>2021-02-21T08:22:11Z</time>
      </trkpt>
      <trkpt lat="43.55524" lon="5.87908">
        <ele>382.02</ele>
        <time>2021-02-21T08:22:20Z</time>
      </trkpt>
      <trkpt lat="43.55522" lon="5.87933">
        <ele>383.68</ele>
        <time>2021-02-21T08:22:28Z</time>
      </trkpt>
      <trkpt lat="43.55526" lon="5.87957">
        <ele>384.62</ele>
        <time>2021-02-21T08:22:34Z</time>
      </trkpt>
      <trkpt lat="43.55533" lon="5.87985">
        <ele>385.24</ele>
        <time>2021-02-21T08:22:40Z</time>
      </trkpt>
      <trkpt lat="43.5554" lon="5.88009">
        <ele>386.02</ele>
        <time>2021-02-21T08:22:46Z</time>
      </trkpt>
      <trkpt lat="43.55548" lon="5.88035">
        <ele>386.84</ele>
        <time>2021-02-21T08:22:52Z</time>
      </trkpt>
      <trkpt lat="43.55564" lon="5.88054">
        <ele>387.46</ele>
        <time>2021-02-21T08:22:58Z</time>
      </trkpt>
      <trkpt lat="43.5558" lon="5.8807">
        <ele>387.79</ele>
        <time>2021-02-21T08:23:23Z</time>
      </trkpt>
      <trkpt lat="43.55595" lon="5.88084">
        <ele>387.64</ele>
        <time>2021-02-21T08:23:32Z</time>
      </trkpt>
      <trkpt lat="43.55615" lon="5.88085">
        <ele>390.09</ele>
        <time>2021-02-21T08:23:41Z</time>
      </trkpt>
      <trkpt lat="43.55633" lon="5.88095">
        <ele>391.65</ele>
        <time>2021-02-21T08:23:50Z</time>
      </trkpt>
      <trkpt lat="43.55645" lon="5.88114">
        <ele>392.25</ele>
        <time>2021-02-21T08:23:58Z</time>
      </trkpt>
      <trkpt lat="43.55653" lon="5.88139">
        <ele>393.3</ele>
        <time>2021-02-21T08:24:05Z</time>
      </trkpt>
      <trkpt lat="43.5566" lon="5.88163">
        <ele>393.87</ele>
        <time>2021-02-21T08:24:13Z</time>
      </trkpt>
      <trkpt lat="43.5566" lon="5.88189">
        <ele>394.42</ele>
        <time>2021-02-21T08:24:20Z</time>
      </trkpt>
      <trkpt lat="43.55661" lon="5.88215">
        <ele>395.44</ele>
        <time>2021-02-21T08:24:28Z</time>
      </trkpt>
      <trkpt lat="43.55665" lon="5.88242">
        <ele>396.03</ele>
        <time>2021-02-21T08:24:36Z</time>
      </trkpt>
      <trkpt lat="43.55681" lon="5.88257">
        <ele>397.12</ele>
        <time>2021-02-21T08:24:43Z</time>
      </trkpt>
      <trkpt lat="43.55693" lon="5.88278">
        <ele>397.96</ele>
        <time>2021-02-21T08:24:51Z</time>
      </trkpt>
      <trkpt lat="43.55702" lon="5.88302">
        <ele>398.74</ele>
        <time>2021-02-21T08:24:59Z</time>
      </trkpt>
      <trkpt lat="43.55713" lon="5.88326">
        <ele>399.72</ele>
        <time>2021-02-21T08:25:07Z</time>
      </trkpt>
      <trkpt lat="43.55716" lon="5.88351">
        <ele>400.56</ele>
        <time>2021-02-21T08:25:16Z</time>
      </trkpt>
      <trkpt lat="43.55728" lon="5.8837">
        <ele>401.26</ele>
        <time>2021-02-21T08:25:24Z</time>
      </trkpt>
      <trkpt lat="43.55738" lon="5.88393">
        <ele>401.35</ele>
        <time>2021-02-21T08:25:32Z</time>
      </trkpt>
      <trkpt lat="43.55744" lon="5.88419">
        <ele>402.55</ele>
        <time>2021-02-21T08:25:41Z</time>
      </trkpt>
      <trkpt lat="43.55745" lon="5.88445">
        <ele>403.64</ele>
        <time>2021-02-21T08:25:50Z</time>
      </trkpt>
      <trkpt lat="43.55748" lon="5.88471">
        <ele>405.02</ele>
        <time>2021-02-21T08:25:58Z</time>
      </trkpt>
      <trkpt lat="43.55754" lon="5.88498">
        <ele>405.56</ele>
        <time>2021-02-21T08:26:06Z</time>
      </trkpt>
      <trkpt lat="43.55762" lon="5.88522">
        <ele>405.78</ele>
        <time>2021-02-21T08:26:14Z</time>
      </trkpt>
      <trkpt lat="43.5577" lon="5.88546">
        <ele>406.24</ele>
        <time>2021-02-21T08:26:22Z</time>
      </trkpt>
      <trkpt lat="43.55782" lon="5.88566">
        <ele>407.56</ele>
        <time>2021-02-21T08:26:32Z</time>
      </trkpt>
      <trkpt lat="43.55799" lon="5.88576">
        <ele>408.74</ele>
        <time>2021-02-21T08:26:43Z</time>
      </trkpt>
      <trkpt lat="43.55816" lon="5.88582">
        <ele>411.9</ele>
        <time>2021-02-21T08:26:56Z</time>
      </trkpt>
      <trkpt lat="43.55834" lon="5.8859">
        <ele>414.22</ele>
        <time>2021-02-21T08:27:08Z</time>
      </trkpt>
      <trkpt lat="43.55847" lon="5.88609">
        <ele>417.12</ele>
        <time>2021-02-21T08:27:20Z</time>
      </trkpt>
      <trkpt lat="43.55864" lon="5.88621">
        <ele>419.62</ele>
        <time>2021-02-21T08:27:30Z</time>
      </trkpt>
      <trkpt lat="43.55881" lon="5.88633">
        <ele>420.15</ele>
        <time>2021-02-21T08:27:40Z</time>
      </trkpt>
      <trkpt lat="43.55898" lon="5.88645">
        <ele>420.46</ele>
        <time>2021-02-21T08:27:48Z</time>
      </trkpt>
      <trkpt lat="43.55914" lon="5.88655">
        <ele>420.94</ele>
        <time>2021-02-21T08:27:56Z</time>
      </trkpt>
      <trkpt lat="43.55932" lon="5.88663">
        <ele>421.57</ele>
        <time>2021-02-21T08:28:03Z</time>
      </trkpt>
      <trkpt lat="43.5595" lon="5.88675">
        <ele>421.4</ele>
        <time>2021-02-21T08:28:10Z</time>
      </trkpt>
      <trkpt lat="43.55967" lon="5.88687">
        <ele>420.68</ele>
        <time>2021-02-21T08:28:16Z</time>
      </trkpt>
      <trkpt lat="43.55986" lon="5.88697">
        <ele>420.17</ele>
        <time>2021-02-21T08:28:22Z</time>
      </trkpt>
      <trkpt lat="43.56007" lon="5.88703">
        <ele>420.35</ele>
        <time>2021-02-21T08:28:28Z</time>
      </trkpt>
      <trkpt lat="43.56027" lon="5.88705">
        <ele>422.64</ele>
        <time>2021-02-21T08:28:35Z</time>
      </trkpt>
      <trkpt lat="43.56046" lon="5.88702">
        <ele>426.56</ele>
        <time>2021-02-21T08:28:42Z</time>
      </trkpt>
      <trkpt lat="43.56066" lon="5.88708">
        <ele>413.97</ele>
        <time>2021-02-21T08:31:48Z</time>
      </trkpt>
      <trkpt lat="43.56085" lon="5.88705">
        <ele>414.44</ele>
        <time>2021-02-21T08:31:57Z</time>
      </trkpt>
      <trkpt lat="43.56104" lon="5.88696">
        <ele>415.44</ele>
        <time>2021-02-21T08:32:07Z</time>
      </trkpt>
      <trkpt lat="43.56123" lon="5.8869">
        <ele>418.01</ele>
        <time>2021-02-21T08:32:15Z</time>
      </trkpt>
      <trkpt lat="43.56142" lon="5.88688">
        <ele>422.3</ele>
        <time>2021-02-21T08:32:23Z</time>
      </trkpt>
      <trkpt lat="43.5616" lon="5.88684">
        <ele>426.4</ele>
        <time>2021-02-21T08:32:31Z</time>
      </trkpt>
      <trkpt lat="43.56179" lon="5.88681">
        <ele>427.88</ele>
        <time>2021-02-21T08:32:39Z</time>
      </trkpt>
      <trkpt lat="43.56198" lon="5.88677">
        <ele>429.07</ele>
        <time>2021-02-21T08:32:47Z</time>
      </trkpt>
      <trkpt lat="43.56217" lon="5.88677">
        <ele>429.77</ele>
        <time>2021-02-21T08:32:56Z</time>
      </trkpt>
      <trkpt lat="43.56235" lon="5.88682">
        <ele>429.96</ele>
        <time>2021-02-21T08:33:04Z</time>
      </trkpt>
      <trkpt lat="43.56254" lon="5.88686">
        <ele>431.32</ele>
        <time>2021-02-21T08:33:12Z</time>
      </trkpt>
      <trkpt lat="43.56273" lon="5.88691">
        <ele>432.36</ele>
        <time>2021-02-21T08:33:20Z</time>
      </trkpt>
      <trkpt lat="43.56292" lon="5.88696">
        <ele>433.38</ele>
        <time>2021-02-21T08:33:28Z</time>
      </trkpt>
      <trkpt lat="43.56311" lon="5.88699">
        <ele>434.97</ele>
        <time>2021-02-21T08:33:36Z</time>
      </trkpt>
      <trkpt lat="43.56331" lon="5.88701">
        <ele>434.17</ele>
        <time>2021-02-21T08:33:44Z</time>
      </trkpt>
      <trkpt lat="43.56351" lon="5.88698">
        <ele>431.77</ele>
        <time>2021-02-21T08:33:52Z</time>
      </trkpt>
      <trkpt lat="43.5637" lon="5.8869">
        <ele>431.75</ele>
        <time>2021-02-21T08:34:00Z</time>
      </trkpt>
      <trkpt lat="43.56389" lon="5.88679">
        <ele>433.05</ele>
        <time>2021-02-21T08:34:08Z</time>
      </trkpt>
      <trkpt lat="43.56407" lon="5.88676">
        <ele>434.13</ele>
        <time>2021-02-21T08:34:15Z</time>
      </trkpt>
      <trkpt lat="43.56426" lon="5.88675">
        <ele>434.43</ele>
        <time>2021-02-21T08:34:22Z</time>
      </trkpt>
      <trkpt lat="43.56445" lon="5.88666">
        <ele>434.5</ele>
        <time>2021-02-21T08:34:28Z</time>
      </trkpt>
      <trkpt lat="43.56461" lon="5.88653">
        <ele>433.59</ele>
        <time>2021-02-21T08:34:33Z</time>
      </trkpt>
      <trkpt lat="43.56454" lon="5.88626">
        <ele>433.35</ele>
        <time>2021-02-21T08:34:40Z</time>
      </trkpt>
      <trkpt lat="43.56446" lon="5.88602">
        <ele>430.57</ele>
        <time>2021-02-21T08:34:47Z</time>
      </trkpt>
      <trkpt lat="43.56437" lon="5.88579">
        <ele>429.53</ele>
        <time>2021-02-21T08:34:54Z</time>
      </trkpt>
      <trkpt lat="43.56426" lon="5.88557">
        <ele>428.77</ele>
        <time>2021-02-21T08:35:01Z</time>
      </trkpt>
      <trkpt lat="43.56417" lon="5.88532">
        <ele>427.02</ele>
        <time>2021-02-21T08:35:08Z</time>
      </trkpt>
      <trkpt lat="43.56413" lon="5.88508">
        <ele>425.92</ele>
        <time>2021-02-21T08:35:13Z</time>
      </trkpt>
      <trkpt lat="43.56403" lon="5.88486">
        <ele>424.51</ele>
        <time>2021-02-21T08:35:18Z</time>
      </trkpt>
      <trkpt lat="43.56411" lon="5.88458">
        <ele>424</ele>
        <time>2021-02-21T08:35:23Z</time>
      </trkpt>
      <trkpt lat="43.56416" lon="5.88433">
        <ele>423.59</ele>
        <time>2021-02-21T08:35:27Z</time>
      </trkpt>
      <trkpt lat="43.56421" lon="5.88408">
        <ele>423.47</ele>
        <time>2021-02-21T08:35:31Z</time>
      </trkpt>
      <trkpt lat="43.56429" lon="5.88383">
        <ele>423.29</ele>
        <time>2021-02-21T08:35:35Z</time>
      </trkpt>
      <trkpt lat="43.56442" lon="5.88363">
        <ele>424.44</ele>
        <time>2021-02-21T08:35:44Z</time>
      </trkpt>
      <trkpt lat="43.56447" lon="5.88338">
        <ele>424.65</ele>
        <time>2021-02-21T08:35:51Z</time>
      </trkpt>
      <trkpt lat="43.56455" lon="5.88313">
        <ele>425.13</ele>
        <time>2021-02-21T08:35:57Z</time>
      </trkpt>
      <trkpt lat="43.56464" lon="5.88291">
        <ele>425.82</ele>
        <time>2021-02-21T08:36:02Z</time>
      </trkpt>
      <trkpt lat="43.5647" lon="5.88264">
        <ele>426.9</ele>
        <time>2021-02-21T08:36:09Z</time>
      </trkpt>
      <trkpt lat="43.56471" lon="5.88236">
        <ele>428.04</ele>
        <time>2021-02-21T08:36:15Z</time>
      </trkpt>
      <trkpt lat="43.56473" lon="5.88211">
        <ele>428.17</ele>
        <time>2021-02-21T08:36:20Z</time>
      </trkpt>
      <trkpt lat="43.56468" lon="5.88186">
        <ele>428.73</ele>
        <time>2021-02-21T08:36:27Z</time>
      </trkpt>
      <trkpt lat="43.56449" lon="5.88174">
        <ele>429.37</ele>
        <time>2021-02-21T08:36:34Z</time>
      </trkpt>
      <trkpt lat="43.56443" lon="5.88151">
        <ele>427.24</ele>
        <time>2021-02-21T08:36:42Z</time>
      </trkpt>
      <trkpt lat="43.56447" lon="5.88124">
        <ele>427.16</ele>
        <time>2021-02-21T08:36:51Z</time>
      </trkpt>
      <trkpt lat="43.56455" lon="5.88102">
        <ele>426.67</ele>
        <time>2021-02-21T08:36:58Z</time>
      </trkpt>
      <trkpt lat="43.56462" lon="5.88079">
        <ele>426.06</ele>
        <time>2021-02-21T08:37:05Z</time>
      </trkpt>
      <trkpt lat="43.56477" lon="5.88063">
        <ele>425.68</ele>
        <time>2021-02-21T08:37:12Z</time>
      </trkpt>
      <trkpt lat="43.56494" lon="5.88051">
        <ele>425.1</ele>
        <time>2021-02-21T08:37:20Z</time>
      </trkpt>
      <trkpt lat="43.56515" lon="5.88045">
        <ele>426.21</ele>
        <time>2021-02-21T08:37:26Z</time>
      </trkpt>
      <trkpt lat="43.56535" lon="5.88042">
        <ele>428.74</ele>
        <time>2021-02-21T08:37:33Z</time>
      </trkpt>
      <trkpt lat="43.56553" lon="5.8805">
        <ele>431.57</ele>
        <time>2021-02-21T08:37:41Z</time>
      </trkpt>
      <trkpt lat="43.56565" lon="5.8807">
        <ele>434.87</ele>
        <time>2021-02-21T08:37:51Z</time>
      </trkpt>
      <trkpt lat="43.56559" lon="5.88094">
        <ele>437.4</ele>
        <time>2021-02-21T08:38:00Z</time>
      </trkpt>
      <trkpt lat="43.56558" lon="5.8812">
        <ele>439.71</ele>
        <time>2021-02-21T08:38:08Z</time>
      </trkpt>
      <trkpt lat="43.56564" lon="5.88143">
        <ele>441.99</ele>
        <time>2021-02-21T08:38:16Z</time>
      </trkpt>
      <trkpt lat="43.56582" lon="5.88151">
        <ele>443.88</ele>
        <time>2021-02-21T08:38:24Z</time>
      </trkpt>
      <trkpt lat="43.56599" lon="5.88158">
        <ele>442.74</ele>
        <time>2021-02-21T08:38:34Z</time>
      </trkpt>
      <trkpt lat="43.56615" lon="5.88171">
        <ele>443.82</ele>
        <time>2021-02-21T08:38:42Z</time>
      </trkpt>
      <trkpt lat="43.56625" lon="5.88192">
        <ele>444.87</ele>
        <time>2021-02-21T08:38:51Z</time>
      </trkpt>
      <trkpt lat="43.56624" lon="5.88219">
        <ele>445.26</ele>
        <time>2021-02-21T08:38:58Z</time>
      </trkpt>
      <trkpt lat="43.56626" lon="5.88245">
        <ele>445.67</ele>
        <time>2021-02-21T08:39:05Z</time>
      </trkpt>
      <trkpt lat="43.5662" lon="5.8827">
        <ele>445.45</ele>
        <time>2021-02-21T08:39:12Z</time>
      </trkpt>
      <trkpt lat="43.56613" lon="5.88296">
        <ele>446.06</ele>
        <time>2021-02-21T08:39:19Z</time>
      </trkpt>
      <trkpt lat="43.5661" lon="5.88325">
        <ele>445.75</ele>
        <time>2021-02-21T08:39:26Z</time>
      </trkpt>
      <trkpt lat="43.5661" lon="5.8835">
        <ele>445.75</ele>
        <time>2021-02-21T08:39:32Z</time>
      </trkpt>
      <trkpt lat="43.56609" lon="5.88375">
        <ele>445.39</ele>
        <time>2021-02-21T08:39:38Z</time>
      </trkpt>
      <trkpt lat="43.56609" lon="5.88401">
        <ele>444.53</ele>
        <time>2021-02-21T08:39:43Z</time>
      </trkpt>
      <trkpt lat="43.56618" lon="5.88427">
        <ele>444.17</ele>
        <time>2021-02-21T08:39:49Z</time>
      </trkpt>
      <trkpt lat="43.5663" lon="5.88448">
        <ele>443.92</ele>
        <time>2021-02-21T08:39:58Z</time>
      </trkpt>
      <trkpt lat="43.56621" lon="5.88472">
        <ele>442.72</ele>
        <time>2021-02-21T08:40:03Z</time>
      </trkpt>
      <trkpt lat="43.56617" lon="5.88497">
        <ele>441.64</ele>
        <time>2021-02-21T08:40:07Z</time>
      </trkpt>
      <trkpt lat="43.56616" lon="5.88525">
        <ele>440.44</ele>
        <time>2021-02-21T08:40:12Z</time>
      </trkpt>
      <trkpt lat="43.56624" lon="5.88548">
        <ele>439.02</ele>
        <time>2021-02-21T08:40:17Z</time>
      </trkpt>
      <trkpt lat="43.5664" lon="5.88559">
        <ele>437.72</ele>
        <time>2021-02-21T08:40:22Z</time>
      </trkpt>
      <trkpt lat="43.56659" lon="5.88567">
        <ele>436.65</ele>
        <time>2021-02-21T08:40:29Z</time>
      </trkpt>
      <trkpt lat="43.56678" lon="5.88566">
        <ele>436.71</ele>
        <time>2021-02-21T08:40:37Z</time>
      </trkpt>
      <trkpt lat="43.56695" lon="5.88556">
        <ele>436.83</ele>
        <time>2021-02-21T08:40:44Z</time>
      </trkpt>
      <trkpt lat="43.56714" lon="5.88547">
        <ele>437.27</ele>
        <time>2021-02-21T08:40:49Z</time>
      </trkpt>
      <trkpt lat="43.56731" lon="5.88539">
        <ele>436.96</ele>
        <time>2021-02-21T08:40:53Z</time>
      </trkpt>
      <trkpt lat="43.56749" lon="5.88528">
        <ele>436.09</ele>
        <time>2021-02-21T08:40:57Z</time>
      </trkpt>
      <trkpt lat="43.56767" lon="5.88517">
        <ele>436.44</ele>
        <time>2021-02-21T08:41:01Z</time>
      </trkpt>
      <trkpt lat="43.56787" lon="5.88504">
        <ele>436.93</ele>
        <time>2021-02-21T08:41:06Z</time>
      </trkpt>
      <trkpt lat="43.56804" lon="5.88498">
        <ele>437.82</ele>
        <time>2021-02-21T08:41:10Z</time>
      </trkpt>
      <trkpt lat="43.56822" lon="5.88491">
        <ele>438.63</ele>
        <time>2021-02-21T08:41:14Z</time>
      </trkpt>
      <trkpt lat="43.5684" lon="5.88484">
        <ele>439.52</ele>
        <time>2021-02-21T08:41:20Z</time>
      </trkpt>
      <trkpt lat="43.56858" lon="5.88475">
        <ele>440.89</ele>
        <time>2021-02-21T08:41:26Z</time>
      </trkpt>
      <trkpt lat="43.56876" lon="5.88467">
        <ele>441.47</ele>
        <time>2021-02-21T08:41:32Z</time>
      </trkpt>
      <trkpt lat="43.56894" lon="5.88456">
        <ele>441.94</ele>
        <time>2021-02-21T08:41:37Z</time>
      </trkpt>
      <trkpt lat="43.56913" lon="5.88447">
        <ele>442.48</ele>
        <time>2021-02-21T08:41:42Z</time>
      </trkpt>
      <trkpt lat="43.56932" lon="5.88435">
        <ele>442.85</ele>
        <time>2021-02-21T08:41:47Z</time>
      </trkpt>
      <trkpt lat="43.56953" lon="5.88422">
        <ele>442.07</ele>
        <time>2021-02-21T08:41:52Z</time>
      </trkpt>
      <trkpt lat="43.5697" lon="5.88413">
        <ele>441.41</ele>
        <time>2021-02-21T08:41:56Z</time>
      </trkpt>
      <trkpt lat="43.5699" lon="5.88401">
        <ele>441.46</ele>
        <time>2021-02-21T08:42:01Z</time>
      </trkpt>
      <trkpt lat="43.5701" lon="5.88391">
        <ele>441.29</ele>
        <time>2021-02-21T08:42:06Z</time>
      </trkpt>
      <trkpt lat="43.57029" lon="5.88382">
        <ele>441.64</ele>
        <time>2021-02-21T08:42:11Z</time>
      </trkpt>
      <trkpt lat="43.57047" lon="5.8837">
        <ele>442.5</ele>
        <time>2021-02-21T08:42:16Z</time>
      </trkpt>
      <trkpt lat="43.57063" lon="5.88357">
        <ele>443.63</ele>
        <time>2021-02-21T08:42:21Z</time>
      </trkpt>
      <trkpt lat="43.57081" lon="5.88345">
        <ele>445.76</ele>
        <time>2021-02-21T08:42:27Z</time>
      </trkpt>
      <trkpt lat="43.57099" lon="5.88339">
        <ele>447.79</ele>
        <time>2021-02-21T08:42:32Z</time>
      </trkpt>
      <trkpt lat="43.57115" lon="5.88327">
        <ele>449.77</ele>
        <time>2021-02-21T08:42:37Z</time>
      </trkpt>
      <trkpt lat="43.57132" lon="5.88312">
        <ele>451.65</ele>
        <time>2021-02-21T08:42:42Z</time>
      </trkpt>
      <trkpt lat="43.57151" lon="5.88305">
        <ele>454.17</ele>
        <time>2021-02-21T08:42:48Z</time>
      </trkpt>
      <trkpt lat="43.5717" lon="5.88303">
        <ele>456.69</ele>
        <time>2021-02-21T08:42:54Z</time>
      </trkpt>
      <trkpt lat="43.57188" lon="5.88302">
        <ele>458.38</ele>
        <time>2021-02-21T08:43:00Z</time>
      </trkpt>
      <trkpt lat="43.57208" lon="5.88295">
        <ele>459.9</ele>
        <time>2021-02-21T08:43:07Z</time>
      </trkpt>
      <trkpt lat="43.57226" lon="5.88287">
        <ele>461.26</ele>
        <time>2021-02-21T08:43:14Z</time>
      </trkpt>
      <trkpt lat="43.57247" lon="5.88285">
        <ele>459.76</ele>
        <time>2021-02-21T08:43:22Z</time>
      </trkpt>
      <trkpt lat="43.57264" lon="5.88276">
        <ele>458.49</ele>
        <time>2021-02-21T08:43:29Z</time>
      </trkpt>
      <trkpt lat="43.57283" lon="5.88265">
        <ele>458.98</ele>
        <time>2021-02-21T08:43:37Z</time>
      </trkpt>
      <trkpt lat="43.57301" lon="5.88259">
        <ele>458.65</ele>
        <time>2021-02-21T08:43:44Z</time>
      </trkpt>
      <trkpt lat="43.57318" lon="5.8825">
        <ele>458.75</ele>
        <time>2021-02-21T08:43:51Z</time>
      </trkpt>
      <trkpt lat="43.57335" lon="5.8824">
        <ele>459.92</ele>
        <time>2021-02-21T08:43:59Z</time>
      </trkpt>
      <trkpt lat="43.57329" lon="5.88215">
        <ele>463.59</ele>
        <time>2021-02-21T08:44:12Z</time>
      </trkpt>
      <trkpt lat="43.57326" lon="5.88188">
        <ele>462.56</ele>
        <time>2021-02-21T08:44:19Z</time>
      </trkpt>
      <trkpt lat="43.57324" lon="5.8816">
        <ele>463.13</ele>
        <time>2021-02-21T08:44:26Z</time>
      </trkpt>
      <trkpt lat="43.5732" lon="5.88134">
        <ele>463.34</ele>
        <time>2021-02-21T08:44:35Z</time>
      </trkpt>
      <trkpt lat="43.57319" lon="5.88109">
        <ele>461.24</ele>
        <time>2021-02-21T08:44:44Z</time>
      </trkpt>
      <trkpt lat="43.57311" lon="5.88086">
        <ele>461.65</ele>
        <time>2021-02-21T08:44:54Z</time>
      </trkpt>
      <trkpt lat="43.5731" lon="5.88058">
        <ele>457.53</ele>
        <time>2021-02-21T08:45:01Z</time>
      </trkpt>
      <trkpt lat="43.57307" lon="5.88033">
        <ele>457.57</ele>
        <time>2021-02-21T08:45:07Z</time>
      </trkpt>
      <trkpt lat="43.57289" lon="5.88018">
        <ele>454.83</ele>
        <time>2021-02-21T08:45:15Z</time>
      </trkpt>
      <trkpt lat="43.57284" lon="5.8799">
        <ele>452.72</ele>
        <time>2021-02-21T08:45:23Z</time>
      </trkpt>
      <trkpt lat="43.57281" lon="5.87963">
        <ele>451.61</ele>
        <time>2021-02-21T08:45:31Z</time>
      </trkpt>
      <trkpt lat="43.57272" lon="5.87938">
        <ele>450.45</ele>
        <time>2021-02-21T08:45:40Z</time>
      </trkpt>
      <trkpt lat="43.57272" lon="5.87912">
        <ele>450.76</ele>
        <time>2021-02-21T08:45:47Z</time>
      </trkpt>
      <trkpt lat="43.5727" lon="5.87885">
        <ele>450.94</ele>
        <time>2021-02-21T08:45:55Z</time>
      </trkpt>
      <trkpt lat="43.57271" lon="5.87859">
        <ele>451.56</ele>
        <time>2021-02-21T08:46:04Z</time>
      </trkpt>
      <trkpt lat="43.57258" lon="5.87837">
        <ele>451.55</ele>
        <time>2021-02-21T08:46:12Z</time>
      </trkpt>
      <trkpt lat="43.57246" lon="5.87819">
        <ele>452.83</ele>
        <time>2021-02-21T08:46:20Z</time>
      </trkpt>
      <trkpt lat="43.57234" lon="5.87797">
        <ele>452.01</ele>
        <time>2021-02-21T08:46:29Z</time>
      </trkpt>
      <trkpt lat="43.57222" lon="5.87776">
        <ele>452.64</ele>
        <time>2021-02-21T08:46:38Z</time>
      </trkpt>
      <trkpt lat="43.57204" lon="5.87762">
        <ele>453.3</ele>
        <time>2021-02-21T08:46:44Z</time>
      </trkpt>
      <trkpt lat="43.57189" lon="5.87746">
        <ele>453.84</ele>
        <time>2021-02-21T08:46:50Z</time>
      </trkpt>
      <trkpt lat="43.57172" lon="5.87735">
        <ele>454.12</ele>
        <time>2021-02-21T08:47:00Z</time>
      </trkpt>
      <trkpt lat="43.57177" lon="5.8771">
        <ele>455.65</ele>
        <time>2021-02-21T08:47:19Z</time>
      </trkpt>
      <trkpt lat="43.57179" lon="5.87684">
        <ele>455.32</ele>
        <time>2021-02-21T08:47:28Z</time>
      </trkpt>
      <trkpt lat="43.57175" lon="5.87656">
        <ele>452.85</ele>
        <time>2021-02-21T08:47:35Z</time>
      </trkpt>
      <trkpt lat="43.57173" lon="5.8763">
        <ele>451.62</ele>
        <time>2021-02-21T08:47:40Z</time>
      </trkpt>
      <trkpt lat="43.57171" lon="5.87601">
        <ele>450.55</ele>
        <time>2021-02-21T08:47:45Z</time>
      </trkpt>
      <trkpt lat="43.57163" lon="5.87572">
        <ele>448.68</ele>
        <time>2021-02-21T08:47:50Z</time>
      </trkpt>
      <trkpt lat="43.5715" lon="5.87548">
        <ele>446.9</ele>
        <time>2021-02-21T08:47:55Z</time>
      </trkpt>
      <trkpt lat="43.57136" lon="5.87528">
        <ele>446.38</ele>
        <time>2021-02-21T08:47:59Z</time>
      </trkpt>
      <trkpt lat="43.57123" lon="5.8751">
        <ele>446.25</ele>
        <time>2021-02-21T08:48:03Z</time>
      </trkpt>
      <trkpt lat="43.57112" lon="5.87488">
        <ele>447.65</ele>
        <time>2021-02-21T08:48:15Z</time>
      </trkpt>
      <trkpt lat="43.57095" lon="5.87471">
        <ele>448.94</ele>
        <time>2021-02-21T08:48:24Z</time>
      </trkpt>
      <trkpt lat="43.57081" lon="5.87451">
        <ele>448.9</ele>
        <time>2021-02-21T08:48:30Z</time>
      </trkpt>
      <trkpt lat="43.57066" lon="5.87433">
        <ele>449.7</ele>
        <time>2021-02-21T08:48:36Z</time>
      </trkpt>
      <trkpt lat="43.57049" lon="5.87416">
        <ele>450.36</ele>
        <time>2021-02-21T08:48:42Z</time>
      </trkpt>
      <trkpt lat="43.57036" lon="5.87398">
        <ele>451.58</ele>
        <time>2021-02-21T08:48:52Z</time>
      </trkpt>
      <trkpt lat="43.5703" lon="5.87374">
        <ele>450.79</ele>
        <time>2021-02-21T08:49:03Z</time>
      </trkpt>
      <trkpt lat="43.57014" lon="5.87359">
        <ele>450.87</ele>
        <time>2021-02-21T08:49:13Z</time>
      </trkpt>
      <trkpt lat="43.57003" lon="5.87336">
        <ele>449.69</ele>
        <time>2021-02-21T08:49:18Z</time>
      </trkpt>
      <trkpt lat="43.56997" lon="5.87309">
        <ele>447.62</ele>
        <time>2021-02-21T08:49:23Z</time>
      </trkpt>
      <trkpt lat="43.56994" lon="5.87281">
        <ele>446.51</ele>
        <time>2021-02-21T08:49:28Z</time>
      </trkpt>
      <trkpt lat="43.56988" lon="5.87256">
        <ele>443.98</ele>
        <time>2021-02-21T08:49:33Z</time>
      </trkpt>
      <trkpt lat="43.56985" lon="5.87228">
        <ele>443.07</ele>
        <time>2021-02-21T08:49:39Z</time>
      </trkpt>
      <trkpt lat="43.5698" lon="5.87203">
        <ele>442.3</ele>
        <time>2021-02-21T08:49:44Z</time>
      </trkpt>
      <trkpt lat="43.56974" lon="5.87176">
        <ele>441.87</ele>
        <time>2021-02-21T08:49:49Z</time>
      </trkpt>
      <trkpt lat="43.56973" lon="5.87147">
        <ele>441.61</ele>
        <time>2021-02-21T08:49:54Z</time>
      </trkpt>
      <trkpt lat="43.56973" lon="5.87117">
        <ele>441.29</ele>
        <time>2021-02-21T08:49:59Z</time>
      </trkpt>
      <trkpt lat="43.56968" lon="5.87092">
        <ele>441.27</ele>
        <time>2021-02-21T08:50:03Z</time>
      </trkpt>
      <trkpt lat="43.56959" lon="5.87067">
        <ele>441.49</ele>
        <time>2021-02-21T08:50:08Z</time>
      </trkpt>
      <trkpt lat="43.56954" lon="5.87044">
        <ele>440.38</ele>
        <time>2021-02-21T08:50:13Z</time>
      </trkpt>
      <trkpt lat="43.56947" lon="5.87015">
        <ele>438.8</ele>
        <time>2021-02-21T08:50:18Z</time>
      </trkpt>
      <trkpt lat="43.56944" lon="5.86986">
        <ele>438.1</ele>
        <time>2021-02-21T08:50:22Z</time>
      </trkpt>
      <trkpt lat="43.5694" lon="5.86956">
        <ele>437.89</ele>
        <time>2021-02-21T08:50:26Z</time>
      </trkpt>
      <trkpt lat="43.56937" lon="5.86931">
        <ele>437.71</ele>
        <time>2021-02-21T08:50:29Z</time>
      </trkpt>
      <trkpt lat="43.56934" lon="5.86905">
        <ele>438.02</ele>
        <time>2021-02-21T08:50:32Z</time>
      </trkpt>
      <trkpt lat="43.56931" lon="5.86881">
        <ele>438.28</ele>
        <time>2021-02-21T08:50:35Z</time>
      </trkpt>
      <trkpt lat="43.56927" lon="5.86856">
        <ele>438.05</ele>
        <time>2021-02-21T08:50:38Z</time>
      </trkpt>
      <trkpt lat="43.56923" lon="5.86831">
        <ele>437.69</ele>
        <time>2021-02-21T08:50:41Z</time>
      </trkpt>
      <trkpt lat="43.56919" lon="5.86806">
        <ele>437.3</ele>
        <time>2021-02-21T08:50:44Z</time>
      </trkpt>
      <trkpt lat="43.56915" lon="5.86782">
        <ele>436.91</ele>
        <time>2021-02-21T08:50:47Z</time>
      </trkpt>
      <trkpt lat="43.56912" lon="5.86751">
        <ele>436.67</ele>
        <time>2021-02-21T08:50:51Z</time>
      </trkpt>
      <trkpt lat="43.56911" lon="5.8672">
        <ele>436.47</ele>
        <time>2021-02-21T08:50:55Z</time>
      </trkpt>
      <trkpt lat="43.5691" lon="5.86687">
        <ele>435.82</ele>
        <time>2021-02-21T08:50:59Z</time>
      </trkpt>
      <trkpt lat="43.56915" lon="5.86662">
        <ele>435.32</ele>
        <time>2021-02-21T08:51:02Z</time>
      </trkpt>
      <trkpt lat="43.56918" lon="5.86633">
        <ele>434.68</ele>
        <time>2021-02-21T08:51:06Z</time>
      </trkpt>
      <trkpt lat="43.56917" lon="5.86606">
        <ele>434.29</ele>
        <time>2021-02-21T08:51:12Z</time>
      </trkpt>
      <trkpt lat="43.56904" lon="5.86587">
        <ele>433.95</ele>
        <time>2021-02-21T08:51:19Z</time>
      </trkpt>
      <trkpt lat="43.56886" lon="5.86585">
        <ele>433.84</ele>
        <time>2021-02-21T08:51:26Z</time>
      </trkpt>
      <trkpt lat="43.56874" lon="5.86562">
        <ele>431.92</ele>
        <time>2021-02-21T08:51:35Z</time>
      </trkpt>
      <trkpt lat="43.56863" lon="5.86541">
        <ele>431.27</ele>
        <time>2021-02-21T08:51:41Z</time>
      </trkpt>
      <trkpt lat="43.56845" lon="5.86532">
        <ele>430.46</ele>
        <time>2021-02-21T08:51:47Z</time>
      </trkpt>
      <trkpt lat="43.56837" lon="5.86509">
        <ele>429.45</ele>
        <time>2021-02-21T08:51:55Z</time>
      </trkpt>
      <trkpt lat="43.56842" lon="5.86484">
        <ele>429.44</ele>
        <time>2021-02-21T08:52:02Z</time>
      </trkpt>
      <trkpt lat="43.56848" lon="5.86458">
        <ele>429.14</ele>
        <time>2021-02-21T08:52:08Z</time>
      </trkpt>
      <trkpt lat="43.56855" lon="5.86434">
        <ele>429.55</ele>
        <time>2021-02-21T08:52:14Z</time>
      </trkpt>
      <trkpt lat="43.5685" lon="5.8641">
        <ele>429.81</ele>
        <time>2021-02-21T08:52:20Z</time>
      </trkpt>
      <trkpt lat="43.56847" lon="5.86382">
        <ele>429.84</ele>
        <time>2021-02-21T08:52:27Z</time>
      </trkpt>
      <trkpt lat="43.56851" lon="5.86354">
        <ele>430.05</ele>
        <time>2021-02-21T08:52:33Z</time>
      </trkpt>
      <trkpt lat="43.56849" lon="5.86328">
        <ele>430.46</ele>
        <time>2021-02-21T08:52:39Z</time>
      </trkpt>
      <trkpt lat="43.56848" lon="5.86303">
        <ele>429.9</ele>
        <time>2021-02-21T08:52:45Z</time>
      </trkpt>
      <trkpt lat="43.56848" lon="5.86275">
        <ele>431.25</ele>
        <time>2021-02-21T08:52:52Z</time>
      </trkpt>
      <trkpt lat="43.56852" lon="5.86247">
        <ele>429.97</ele>
        <time>2021-02-21T08:52:58Z</time>
      </trkpt>
      <trkpt lat="43.56851" lon="5.86221">
        <ele>429.19</ele>
        <time>2021-02-21T08:53:04Z</time>
      </trkpt>
      <trkpt lat="43.56851" lon="5.86194">
        <ele>430.05</ele>
        <time>2021-02-21T08:53:11Z</time>
      </trkpt>
      <trkpt lat="43.56855" lon="5.86168">
        <ele>429.09</ele>
        <time>2021-02-21T08:53:31Z</time>
      </trkpt>
      <trkpt lat="43.56838" lon="5.86178">
        <ele>429.84</ele>
        <time>2021-02-21T08:53:52Z</time>
      </trkpt>
      <trkpt lat="43.5682" lon="5.86184">
        <ele>431.38</ele>
        <time>2021-02-21T08:53:58Z</time>
      </trkpt>
      <trkpt lat="43.568" lon="5.86184">
        <ele>432.23</ele>
        <time>2021-02-21T08:54:04Z</time>
      </trkpt>
      <trkpt lat="43.56781" lon="5.86185">
        <ele>432.96</ele>
        <time>2021-02-21T08:54:10Z</time>
      </trkpt>
      <trkpt lat="43.56761" lon="5.86187">
        <ele>433.72</ele>
        <time>2021-02-21T08:54:15Z</time>
      </trkpt>
      <trkpt lat="43.5674" lon="5.86183">
        <ele>434.54</ele>
        <time>2021-02-21T08:54:20Z</time>
      </trkpt>
      <trkpt lat="43.56719" lon="5.86177">
        <ele>436.01</ele>
        <time>2021-02-21T08:54:25Z</time>
      </trkpt>
      <trkpt lat="43.56701" lon="5.86174">
        <ele>437.04</ele>
        <time>2021-02-21T08:54:30Z</time>
      </trkpt>
      <trkpt lat="43.56684" lon="5.86167">
        <ele>437.56</ele>
        <time>2021-02-21T08:54:35Z</time>
      </trkpt>
      <trkpt lat="43.56666" lon="5.86161">
        <ele>438.32</ele>
        <time>2021-02-21T08:54:40Z</time>
      </trkpt>
      <trkpt lat="43.56647" lon="5.86162">
        <ele>439.69</ele>
        <time>2021-02-21T08:54:45Z</time>
      </trkpt>
      <trkpt lat="43.56626" lon="5.8617">
        <ele>441.9</ele>
        <time>2021-02-21T08:54:52Z</time>
      </trkpt>
      <trkpt lat="43.56609" lon="5.86177">
        <ele>443.77</ele>
        <time>2021-02-21T08:54:58Z</time>
      </trkpt>
      <trkpt lat="43.56591" lon="5.86184">
        <ele>445.89</ele>
        <time>2021-02-21T08:55:05Z</time>
      </trkpt>
      <trkpt lat="43.56571" lon="5.86187">
        <ele>448.67</ele>
        <time>2021-02-21T08:55:13Z</time>
      </trkpt>
      <trkpt lat="43.56553" lon="5.86198">
        <ele>450.21</ele>
        <time>2021-02-21T08:55:21Z</time>
      </trkpt>
      <trkpt lat="43.56536" lon="5.86211">
        <ele>451.32</ele>
        <time>2021-02-21T08:55:28Z</time>
      </trkpt>
      <trkpt lat="43.56517" lon="5.86225">
        <ele>451.37</ele>
        <time>2021-02-21T08:55:34Z</time>
      </trkpt>
      <trkpt lat="43.56501" lon="5.86239">
        <ele>451.28</ele>
        <time>2021-02-21T08:55:39Z</time>
      </trkpt>
      <trkpt lat="43.56483" lon="5.86253">
        <ele>451.57</ele>
        <time>2021-02-21T08:55:44Z</time>
      </trkpt>
      <trkpt lat="43.56466" lon="5.86264">
        <ele>451.5</ele>
        <time>2021-02-21T08:55:48Z</time>
      </trkpt>
      <trkpt lat="43.56445" lon="5.86275">
        <ele>451.09</ele>
        <time>2021-02-21T08:55:53Z</time>
      </trkpt>
      <trkpt lat="43.56426" lon="5.86278">
        <ele>450.03</ele>
        <time>2021-02-21T08:55:57Z</time>
      </trkpt>
      <trkpt lat="43.56407" lon="5.86284">
        <ele>448.6</ele>
        <time>2021-02-21T08:56:01Z</time>
      </trkpt>
      <trkpt lat="43.56387" lon="5.86287">
        <ele>447.55</ele>
        <time>2021-02-21T08:56:05Z</time>
      </trkpt>
      <trkpt lat="43.56367" lon="5.86285">
        <ele>447.26</ele>
        <time>2021-02-21T08:56:09Z</time>
      </trkpt>
      <trkpt lat="43.56344" lon="5.86292">
        <ele>446.4</ele>
        <time>2021-02-21T08:56:13Z</time>
      </trkpt>
      <trkpt lat="43.56322" lon="5.86292">
        <ele>445.94</ele>
        <time>2021-02-21T08:56:17Z</time>
      </trkpt>
      <trkpt lat="43.56301" lon="5.8629">
        <ele>444.78</ele>
        <time>2021-02-21T08:56:21Z</time>
      </trkpt>
      <trkpt lat="43.56283" lon="5.86285">
        <ele>443.69</ele>
        <time>2021-02-21T08:56:25Z</time>
      </trkpt>
      <trkpt lat="43.56264" lon="5.86285">
        <ele>444.13</ele>
        <time>2021-02-21T08:56:31Z</time>
      </trkpt>
      <trkpt lat="43.56245" lon="5.86286">
        <ele>443.57</ele>
        <time>2021-02-21T08:56:42Z</time>
      </trkpt>
      <trkpt lat="43.56224" lon="5.86285">
        <ele>443.43</ele>
        <time>2021-02-21T08:56:54Z</time>
      </trkpt>
      <trkpt lat="43.56206" lon="5.86291">
        <ele>441.59</ele>
        <time>2021-02-21T08:57:02Z</time>
      </trkpt>
      <trkpt lat="43.56187" lon="5.86297">
        <ele>439.55</ele>
        <time>2021-02-21T08:57:12Z</time>
      </trkpt>
      <trkpt lat="43.56168" lon="5.86305">
        <ele>439.39</ele>
        <time>2021-02-21T08:57:21Z</time>
      </trkpt>
      <trkpt lat="43.5615" lon="5.86311">
        <ele>437.83</ele>
        <time>2021-02-21T08:57:26Z</time>
      </trkpt>
      <trkpt lat="43.5613" lon="5.86317">
        <ele>435.08</ele>
        <time>2021-02-21T08:57:30Z</time>
      </trkpt>
      <trkpt lat="43.56107" lon="5.86317">
        <ele>432.5</ele>
        <time>2021-02-21T08:57:35Z</time>
      </trkpt>
      <trkpt lat="43.56084" lon="5.86311">
        <ele>430.49</ele>
        <time>2021-02-21T08:57:39Z</time>
      </trkpt>
      <trkpt lat="43.56065" lon="5.86305">
        <ele>429.01</ele>
        <time>2021-02-21T08:57:43Z</time>
      </trkpt>
      <trkpt lat="43.56042" lon="5.86295">
        <ele>426.18</ele>
        <time>2021-02-21T08:57:48Z</time>
      </trkpt>
      <trkpt lat="43.5602" lon="5.86283">
        <ele>424.3</ele>
        <time>2021-02-21T08:57:52Z</time>
      </trkpt>
      <trkpt lat="43.55999" lon="5.86278">
        <ele>423.39</ele>
        <time>2021-02-21T08:57:56Z</time>
      </trkpt>
      <trkpt lat="43.5598" lon="5.86269">
        <ele>419.98</ele>
        <time>2021-02-21T08:58:00Z</time>
      </trkpt>
      <trkpt lat="43.55957" lon="5.86263">
        <ele>414.39</ele>
        <time>2021-02-21T08:58:05Z</time>
      </trkpt>
      <trkpt lat="43.55939" lon="5.86258">
        <ele>411.23</ele>
        <time>2021-02-21T08:58:09Z</time>
      </trkpt>
      <trkpt lat="43.55921" lon="5.86251">
        <ele>406.75</ele>
        <time>2021-02-21T08:58:35Z</time>
      </trkpt>
      <trkpt lat="43.55936" lon="5.86233">
        <ele>407.02</ele>
        <time>2021-02-21T08:59:16Z</time>
      </trkpt>
      <trkpt lat="43.55951" lon="5.86218">
        <ele>407.92</ele>
        <time>2021-02-21T08:59:21Z</time>
      </trkpt>
      <trkpt lat="43.55966" lon="5.86199">
        <ele>409.12</ele>
        <time>2021-02-21T08:59:28Z</time>
      </trkpt>
      <trkpt lat="43.55974" lon="5.86174">
        <ele>410.22</ele>
        <time>2021-02-21T08:59:34Z</time>
      </trkpt>
      <trkpt lat="43.55982" lon="5.8615">
        <ele>411.15</ele>
        <time>2021-02-21T08:59:41Z</time>
      </trkpt>
      <trkpt lat="43.55997" lon="5.86133">
        <ele>411.82</ele>
        <time>2021-02-21T08:59:47Z</time>
      </trkpt>
      <trkpt lat="43.55999" lon="5.86107">
        <ele>413.11</ele>
        <time>2021-02-21T08:59:53Z</time>
      </trkpt>
      <trkpt lat="43.55996" lon="5.86083">
        <ele>414.61</ele>
        <time>2021-02-21T08:59:59Z</time>
      </trkpt>
      <trkpt lat="43.55998" lon="5.86058">
        <ele>416.35</ele>
        <time>2021-02-21T09:00:10Z</time>
      </trkpt>
      <trkpt lat="43.55995" lon="5.86031">
        <ele>418</ele>
        <time>2021-02-21T09:00:20Z</time>
      </trkpt>
      <trkpt lat="43.55987" lon="5.86007">
        <ele>419.52</ele>
        <time>2021-02-21T09:00:27Z</time>
      </trkpt>
      <trkpt lat="43.55984" lon="5.85981">
        <ele>420.74</ele>
        <time>2021-02-21T09:00:34Z</time>
      </trkpt>
      <trkpt lat="43.55986" lon="5.85955">
        <ele>421.62</ele>
        <time>2021-02-21T09:00:40Z</time>
      </trkpt>
      <trkpt lat="43.5599" lon="5.85929">
        <ele>423.2</ele>
        <time>2021-02-21T09:00:47Z</time>
      </trkpt>
      <trkpt lat="43.56005" lon="5.85911">
        <ele>425.27</ele>
        <time>2021-02-21T09:00:54Z</time>
      </trkpt>
      <trkpt lat="43.56023" lon="5.85903">
        <ele>427.66</ele>
        <time>2021-02-21T09:01:00Z</time>
      </trkpt>
      <trkpt lat="43.56042" lon="5.85889">
        <ele>430.97</ele>
        <time>2021-02-21T09:01:07Z</time>
      </trkpt>
      <trkpt lat="43.56058" lon="5.85871">
        <ele>433.21</ele>
        <time>2021-02-21T09:01:14Z</time>
      </trkpt>
      <trkpt lat="43.56068" lon="5.85848">
        <ele>434.9</ele>
        <time>2021-02-21T09:01:23Z</time>
      </trkpt>
      <trkpt lat="43.56076" lon="5.85822">
        <ele>436.68</ele>
        <time>2021-02-21T09:01:31Z</time>
      </trkpt>
      <trkpt lat="43.5608" lon="5.85796">
        <ele>439.04</ele>
        <time>2021-02-21T09:01:38Z</time>
      </trkpt>
      <trkpt lat="43.56078" lon="5.85769">
        <ele>438.09</ele>
        <time>2021-02-21T09:01:45Z</time>
      </trkpt>
      <trkpt lat="43.56076" lon="5.85743">
        <ele>436.99</ele>
        <time>2021-02-21T09:01:51Z</time>
      </trkpt>
      <trkpt lat="43.5607" lon="5.85718">
        <ele>436.12</ele>
        <time>2021-02-21T09:01:57Z</time>
      </trkpt>
      <trkpt lat="43.56061" lon="5.85692">
        <ele>434.84</ele>
        <time>2021-02-21T09:02:04Z</time>
      </trkpt>
      <trkpt lat="43.5606" lon="5.85664">
        <ele>433.91</ele>
        <time>2021-02-21T09:02:11Z</time>
      </trkpt>
      <trkpt lat="43.56058" lon="5.85637">
        <ele>433.1</ele>
        <time>2021-02-21T09:02:17Z</time>
      </trkpt>
      <trkpt lat="43.56055" lon="5.8561">
        <ele>432.17</ele>
        <time>2021-02-21T09:02:24Z</time>
      </trkpt>
      <trkpt lat="43.56055" lon="5.85584">
        <ele>431.7</ele>
        <time>2021-02-21T09:02:30Z</time>
      </trkpt>
      <trkpt lat="43.56055" lon="5.85559">
        <ele>431.02</ele>
        <time>2021-02-21T09:02:36Z</time>
      </trkpt>
      <trkpt lat="43.56056" lon="5.85531">
        <ele>430.65</ele>
        <time>2021-02-21T09:02:43Z</time>
      </trkpt>
      <trkpt lat="43.56057" lon="5.85505">
        <ele>430.99</ele>
        <time>2021-02-21T09:02:49Z</time>
      </trkpt>
      <trkpt lat="43.56057" lon="5.8548">
        <ele>429.8</ele>
        <time>2021-02-21T09:02:55Z</time>
      </trkpt>
      <trkpt lat="43.56059" lon="5.85454">
        <ele>428.9</ele>
        <time>2021-02-21T09:03:01Z</time>
      </trkpt>
      <trkpt lat="43.56061" lon="5.85427">
        <ele>428.95</ele>
        <time>2021-02-21T09:03:07Z</time>
      </trkpt>
      <trkpt lat="43.56069" lon="5.85401">
        <ele>429.29</ele>
        <time>2021-02-21T09:03:13Z</time>
      </trkpt>
      <trkpt lat="43.56073" lon="5.85373">
        <ele>429.56</ele>
        <time>2021-02-21T09:03:19Z</time>
      </trkpt>
      <trkpt lat="43.56072" lon="5.85347">
        <ele>429.27</ele>
        <time>2021-02-21T09:03:25Z</time>
      </trkpt>
      <trkpt lat="43.56084" lon="5.85323">
        <ele>429.87</ele>
        <time>2021-02-21T09:03:35Z</time>
      </trkpt>
      <trkpt lat="43.56088" lon="5.85298">
        <ele>430.57</ele>
        <time>2021-02-21T09:03:42Z</time>
      </trkpt>
      <trkpt lat="43.56082" lon="5.85274">
        <ele>430.47</ele>
        <time>2021-02-21T09:03:50Z</time>
      </trkpt>
      <trkpt lat="43.56064" lon="5.85264">
        <ele>430.74</ele>
        <time>2021-02-21T09:03:58Z</time>
      </trkpt>
      <trkpt lat="43.56048" lon="5.85251">
        <ele>433.11</ele>
        <time>2021-02-21T09:04:06Z</time>
      </trkpt>
      <trkpt lat="43.56037" lon="5.85229">
        <ele>434.78</ele>
        <time>2021-02-21T09:04:14Z</time>
      </trkpt>
      <trkpt lat="43.56025" lon="5.85208">
        <ele>436.69</ele>
        <time>2021-02-21T09:04:22Z</time>
      </trkpt>
      <trkpt lat="43.56014" lon="5.85187">
        <ele>438.24</ele>
        <time>2021-02-21T09:04:29Z</time>
      </trkpt>
      <trkpt lat="43.56002" lon="5.85168">
        <ele>439.68</ele>
        <time>2021-02-21T09:04:36Z</time>
      </trkpt>
      <trkpt lat="43.55986" lon="5.85153">
        <ele>442.11</ele>
        <time>2021-02-21T09:04:44Z</time>
      </trkpt>
      <trkpt lat="43.5597" lon="5.85139">
        <ele>443.24</ele>
        <time>2021-02-21T09:04:51Z</time>
      </trkpt>
      <trkpt lat="43.55961" lon="5.85117">
        <ele>445</ele>
        <time>2021-02-21T09:04:58Z</time>
      </trkpt>
      <trkpt lat="43.5595" lon="5.85093">
        <ele>446.42</ele>
        <time>2021-02-21T09:05:06Z</time>
      </trkpt>
      <trkpt lat="43.55943" lon="5.85066">
        <ele>446.67</ele>
        <time>2021-02-21T09:05:13Z</time>
      </trkpt>
      <trkpt lat="43.55936" lon="5.85043">
        <ele>448.08</ele>
        <time>2021-02-21T09:05:21Z</time>
      </trkpt>
      <trkpt lat="43.55951" lon="5.85061">
        <ele>450.42</ele>
        <time>2021-02-21T09:05:32Z</time>
      </trkpt>
      <trkpt lat="43.55965" lon="5.85077">
        <ele>451.24</ele>
        <time>2021-02-21T09:05:38Z</time>
      </trkpt>
      <trkpt lat="43.55984" lon="5.85085">
        <ele>452.02</ele>
        <time>2021-02-21T09:05:47Z</time>
      </trkpt>
      <trkpt lat="43.56002" lon="5.85088">
        <ele>453.26</ele>
        <time>2021-02-21T09:05:55Z</time>
      </trkpt>
      <trkpt lat="43.56021" lon="5.85087">
        <ele>453.38</ele>
        <time>2021-02-21T09:06:03Z</time>
      </trkpt>
      <trkpt lat="43.56023" lon="5.85062">
        <ele>451.77</ele>
        <time>2021-02-21T09:06:15Z</time>
      </trkpt>
      <trkpt lat="43.56014" lon="5.8504">
        <ele>453.52</ele>
        <time>2021-02-21T09:06:26Z</time>
      </trkpt>
      <trkpt lat="43.56005" lon="5.85017">
        <ele>455.42</ele>
        <time>2021-02-21T09:06:36Z</time>
      </trkpt>
      <trkpt lat="43.55999" lon="5.84993">
        <ele>456.42</ele>
        <time>2021-02-21T09:06:45Z</time>
      </trkpt>
      <trkpt lat="43.55989" lon="5.84969">
        <ele>457.96</ele>
        <time>2021-02-21T09:06:54Z</time>
      </trkpt>
      <trkpt lat="43.55972" lon="5.84961">
        <ele>458.13</ele>
        <time>2021-02-21T09:07:01Z</time>
      </trkpt>
      <trkpt lat="43.55955" lon="5.8495">
        <ele>459.68</ele>
        <time>2021-02-21T09:07:08Z</time>
      </trkpt>
      <trkpt lat="43.55946" lon="5.84927">
        <ele>462.72</ele>
        <time>2021-02-21T09:07:17Z</time>
      </trkpt>
      <trkpt lat="43.55943" lon="5.84903">
        <ele>462.43</ele>
        <time>2021-02-21T09:07:24Z</time>
      </trkpt>
      <trkpt lat="43.55945" lon="5.84876">
        <ele>461.37</ele>
        <time>2021-02-21T09:07:32Z</time>
      </trkpt>
      <trkpt lat="43.55947" lon="5.8485">
        <ele>461.07</ele>
        <time>2021-02-21T09:07:40Z</time>
      </trkpt>
      <trkpt lat="43.55948" lon="5.84823">
        <ele>460.39</ele>
        <time>2021-02-21T09:07:49Z</time>
      </trkpt>
      <trkpt lat="43.55955" lon="5.84799">
        <ele>460.17</ele>
        <time>2021-02-21T09:07:59Z</time>
      </trkpt>
      <trkpt lat="43.55965" lon="5.84775">
        <ele>459.59</ele>
        <time>2021-02-21T09:08:09Z</time>
      </trkpt>
      <trkpt lat="43.55978" lon="5.8475">
        <ele>459.28</ele>
        <time>2021-02-21T09:08:15Z</time>
      </trkpt>
      <trkpt lat="43.55987" lon="5.84726">
        <ele>458.91</ele>
        <time>2021-02-21T09:08:19Z</time>
      </trkpt>
      <trkpt lat="43.55999" lon="5.84696">
        <ele>458.2</ele>
        <time>2021-02-21T09:08:23Z</time>
      </trkpt>
      <trkpt lat="43.56012" lon="5.84668">
        <ele>454.39</ele>
        <time>2021-02-21T09:08:27Z</time>
      </trkpt>
      <trkpt lat="43.56024" lon="5.84645">
        <ele>452.86</ele>
        <time>2021-02-21T09:08:30Z</time>
      </trkpt>
      <trkpt lat="43.56037" lon="5.84622">
        <ele>451.57</ele>
        <time>2021-02-21T09:08:33Z</time>
      </trkpt>
      <trkpt lat="43.56056" lon="5.84604">
        <ele>450.59</ele>
        <time>2021-02-21T09:08:36Z</time>
      </trkpt>
      <trkpt lat="43.56077" lon="5.84588">
        <ele>449.29</ele>
        <time>2021-02-21T09:08:39Z</time>
      </trkpt>
      <trkpt lat="43.56097" lon="5.84576">
        <ele>448.44</ele>
        <time>2021-02-21T09:08:42Z</time>
      </trkpt>
      <trkpt lat="43.56117" lon="5.84567">
        <ele>447.82</ele>
        <time>2021-02-21T09:08:45Z</time>
      </trkpt>
      <trkpt lat="43.56138" lon="5.84558">
        <ele>447.32</ele>
        <time>2021-02-21T09:08:48Z</time>
      </trkpt>
      <trkpt lat="43.5616" lon="5.84555">
        <ele>447.44</ele>
        <time>2021-02-21T09:08:51Z</time>
      </trkpt>
      <trkpt lat="43.56181" lon="5.84569">
        <ele>447.56</ele>
        <time>2021-02-21T09:08:54Z</time>
      </trkpt>
      <trkpt lat="43.562" lon="5.8459">
        <ele>447.65</ele>
        <time>2021-02-21T09:08:57Z</time>
      </trkpt>
      <trkpt lat="43.56218" lon="5.84612">
        <ele>447.68</ele>
        <time>2021-02-21T09:09:00Z</time>
      </trkpt>
      <trkpt lat="43.56234" lon="5.84633">
        <ele>447.66</ele>
        <time>2021-02-21T09:09:03Z</time>
      </trkpt>
      <trkpt lat="43.56245" lon="5.84656">
        <ele>448.12</ele>
        <time>2021-02-21T09:09:06Z</time>
      </trkpt>
      <trkpt lat="43.5625" lon="5.84685">
        <ele>448.82</ele>
        <time>2021-02-21T09:09:10Z</time>
      </trkpt>
      <trkpt lat="43.56254" lon="5.84711">
        <ele>449.44</ele>
        <time>2021-02-21T09:09:14Z</time>
      </trkpt>
      <trkpt lat="43.56257" lon="5.84737">
        <ele>449.94</ele>
        <time>2021-02-21T09:09:18Z</time>
      </trkpt>
      <trkpt lat="43.56261" lon="5.84762">
        <ele>450.42</ele>
        <time>2021-02-21T09:09:22Z</time>
      </trkpt>
      <trkpt lat="43.56264" lon="5.84792">
        <ele>451.32</ele>
        <time>2021-02-21T09:09:27Z</time>
      </trkpt>
      <trkpt lat="43.56268" lon="5.8482">
        <ele>452.32</ele>
        <time>2021-02-21T09:09:32Z</time>
      </trkpt>
      <trkpt lat="43.56277" lon="5.84842">
        <ele>453.32</ele>
        <time>2021-02-21T09:09:37Z</time>
      </trkpt>
      <trkpt lat="43.56292" lon="5.84858">
        <ele>453.21</ele>
        <time>2021-02-21T09:09:42Z</time>
      </trkpt>
      <trkpt lat="43.56311" lon="5.84873">
        <ele>453.8</ele>
        <time>2021-02-21T09:09:47Z</time>
      </trkpt>
      <trkpt lat="43.56328" lon="5.84889">
        <ele>454.75</ele>
        <time>2021-02-21T09:09:52Z</time>
      </trkpt>
      <trkpt lat="43.56345" lon="5.84902">
        <ele>454.35</ele>
        <time>2021-02-21T09:09:57Z</time>
      </trkpt>
      <trkpt lat="43.56364" lon="5.84913">
        <ele>454.73</ele>
        <time>2021-02-21T09:10:03Z</time>
      </trkpt>
      <trkpt lat="43.56382" lon="5.84923">
        <ele>454.5</ele>
        <time>2021-02-21T09:10:08Z</time>
      </trkpt>
      <trkpt lat="43.564" lon="5.84935">
        <ele>454.74</ele>
        <time>2021-02-21T09:10:13Z</time>
      </trkpt>
      <trkpt lat="43.56414" lon="5.84952">
        <ele>456.23</ele>
        <time>2021-02-21T09:10:18Z</time>
      </trkpt>
      <trkpt lat="43.5643" lon="5.8497">
        <ele>457.17</ele>
        <time>2021-02-21T09:10:24Z</time>
      </trkpt>
      <trkpt lat="43.56445" lon="5.84989">
        <ele>457.34</ele>
        <time>2021-02-21T09:10:30Z</time>
      </trkpt>
      <trkpt lat="43.56461" lon="5.85008">
        <ele>457.26</ele>
        <time>2021-02-21T09:10:36Z</time>
      </trkpt>
      <trkpt lat="43.56478" lon="5.85027">
        <ele>456.71</ele>
        <time>2021-02-21T09:10:42Z</time>
      </trkpt>
      <trkpt lat="43.56494" lon="5.85045">
        <ele>456.83</ele>
        <time>2021-02-21T09:10:47Z</time>
      </trkpt>
      <trkpt lat="43.56508" lon="5.85061">
        <ele>456.17</ele>
        <time>2021-02-21T09:10:51Z</time>
      </trkpt>
      <trkpt lat="43.56522" lon="5.85077">
        <ele>455.85</ele>
        <time>2021-02-21T09:10:55Z</time>
      </trkpt>
      <trkpt lat="43.56539" lon="5.85097">
        <ele>455.5</ele>
        <time>2021-02-21T09:11:00Z</time>
      </trkpt>
      <trkpt lat="43.56555" lon="5.85115">
        <ele>456.42</ele>
        <time>2021-02-21T09:11:04Z</time>
      </trkpt>
      <trkpt lat="43.56572" lon="5.85127">
        <ele>461.77</ele>
        <time>2021-02-21T09:11:55Z</time>
      </trkpt>
      <trkpt lat="43.56593" lon="5.85137">
        <ele>462.04</ele>
        <time>2021-02-21T09:12:00Z</time>
      </trkpt>
      <trkpt lat="43.56615" lon="5.85132">
        <ele>462.82</ele>
        <time>2021-02-21T09:12:05Z</time>
      </trkpt>
      <trkpt lat="43.56626" lon="5.85105">
        <ele>462.99</ele>
        <time>2021-02-21T09:12:09Z</time>
      </trkpt>
      <trkpt lat="43.56635" lon="5.85079">
        <ele>462.25</ele>
        <time>2021-02-21T09:12:12Z</time>
      </trkpt>
      <trkpt lat="43.5665" lon="5.85054">
        <ele>461.09</ele>
        <time>2021-02-21T09:12:15Z</time>
      </trkpt>
      <trkpt lat="43.56665" lon="5.85029">
        <ele>459.3</ele>
        <time>2021-02-21T09:12:18Z</time>
      </trkpt>
      <trkpt lat="43.56679" lon="5.85003">
        <ele>457.71</ele>
        <time>2021-02-21T09:12:21Z</time>
      </trkpt>
      <trkpt lat="43.56688" lon="5.84972">
        <ele>455.45</ele>
        <time>2021-02-21T09:12:24Z</time>
      </trkpt>
      <trkpt lat="43.56692" lon="5.84947">
        <ele>453.93</ele>
        <time>2021-02-21T09:12:26Z</time>
      </trkpt>
      <trkpt lat="43.56701" lon="5.84916">
        <ele>452.96</ele>
        <time>2021-02-21T09:12:29Z</time>
      </trkpt>
      <trkpt lat="43.56724" lon="5.84907">
        <ele>451.46</ele>
        <time>2021-02-21T09:12:32Z</time>
      </trkpt>
      <trkpt lat="43.56745" lon="5.84919">
        <ele>449.64</ele>
        <time>2021-02-21T09:12:35Z</time>
      </trkpt>
      <trkpt lat="43.56763" lon="5.84934">
        <ele>446.6</ele>
        <time>2021-02-21T09:12:38Z</time>
      </trkpt>
      <trkpt lat="43.56784" lon="5.84938">
        <ele>443.6</ele>
        <time>2021-02-21T09:12:41Z</time>
      </trkpt>
      <trkpt lat="43.56806" lon="5.84931">
        <ele>441.23</ele>
        <time>2021-02-21T09:12:44Z</time>
      </trkpt>
      <trkpt lat="43.56824" lon="5.84916">
        <ele>439.32</ele>
        <time>2021-02-21T09:12:47Z</time>
      </trkpt>
      <trkpt lat="43.56842" lon="5.84899">
        <ele>437.52</ele>
        <time>2021-02-21T09:12:50Z</time>
      </trkpt>
      <trkpt lat="43.56863" lon="5.84895">
        <ele>436.25</ele>
        <time>2021-02-21T09:12:53Z</time>
      </trkpt>
      <trkpt lat="43.56879" lon="5.84919">
        <ele>435.48</ele>
        <time>2021-02-21T09:12:56Z</time>
      </trkpt>
      <trkpt lat="43.56887" lon="5.84949">
        <ele>434.82</ele>
        <time>2021-02-21T09:12:59Z</time>
      </trkpt>
      <trkpt lat="43.56898" lon="5.84973">
        <ele>434.22</ele>
        <time>2021-02-21T09:13:02Z</time>
      </trkpt>
      <trkpt lat="43.56909" lon="5.84993">
        <ele>433.35</ele>
        <time>2021-02-21T09:13:05Z</time>
      </trkpt>
      <trkpt lat="43.56923" lon="5.85017">
        <ele>432.86</ele>
        <time>2021-02-21T09:13:09Z</time>
      </trkpt>
      <trkpt lat="43.5693" lon="5.85045">
        <ele>432.97</ele>
        <time>2021-02-21T09:13:14Z</time>
      </trkpt>
      <trkpt lat="43.56937" lon="5.85071">
        <ele>432.99</ele>
        <time>2021-02-21T09:13:50Z</time>
      </trkpt>
      <trkpt lat="43.56942" lon="5.85095">
        <ele>433.13</ele>
        <time>2021-02-21T09:13:56Z</time>
      </trkpt>
      <trkpt lat="43.56947" lon="5.85121">
        <ele>433.55</ele>
        <time>2021-02-21T09:14:01Z</time>
      </trkpt>
      <trkpt lat="43.56951" lon="5.8515">
        <ele>434.04</ele>
        <time>2021-02-21T09:14:07Z</time>
      </trkpt>
      <trkpt lat="43.56942" lon="5.85173">
        <ele>433.89</ele>
        <time>2021-02-21T09:14:12Z</time>
      </trkpt>
      <trkpt lat="43.56931" lon="5.85193">
        <ele>433.67</ele>
        <time>2021-02-21T09:14:16Z</time>
      </trkpt>
      <trkpt lat="43.56923" lon="5.85217">
        <ele>434.02</ele>
        <time>2021-02-21T09:14:20Z</time>
      </trkpt>
      <trkpt lat="43.56918" lon="5.85241">
        <ele>435.01</ele>
        <time>2021-02-21T09:14:24Z</time>
      </trkpt>
      <trkpt lat="43.56906" lon="5.85263">
        <ele>435.58</ele>
        <time>2021-02-21T09:14:29Z</time>
      </trkpt>
      <trkpt lat="43.56896" lon="5.85287">
        <ele>435.05</ele>
        <time>2021-02-21T09:14:35Z</time>
      </trkpt>
      <trkpt lat="43.56883" lon="5.85309">
        <ele>435.31</ele>
        <time>2021-02-21T09:14:40Z</time>
      </trkpt>
      <trkpt lat="43.5687" lon="5.85328">
        <ele>435.25</ele>
        <time>2021-02-21T09:14:44Z</time>
      </trkpt>
      <trkpt lat="43.56864" lon="5.85352">
        <ele>433.24</ele>
        <time>2021-02-21T09:14:50Z</time>
      </trkpt>
      <trkpt lat="43.56861" lon="5.85381">
        <ele>433.25</ele>
        <time>2021-02-21T09:14:57Z</time>
      </trkpt>
      <trkpt lat="43.5685" lon="5.85403">
        <ele>432.56</ele>
        <time>2021-02-21T09:15:02Z</time>
      </trkpt>
      <trkpt lat="43.56831" lon="5.85405">
        <ele>431.29</ele>
        <time>2021-02-21T09:15:07Z</time>
      </trkpt>
      <trkpt lat="43.56822" lon="5.85427">
        <ele>431.22</ele>
        <time>2021-02-21T09:15:13Z</time>
      </trkpt>
      <trkpt lat="43.56827" lon="5.85454">
        <ele>431.17</ele>
        <time>2021-02-21T09:15:18Z</time>
      </trkpt>
      <trkpt lat="43.5683" lon="5.85481">
        <ele>430.66</ele>
        <time>2021-02-21T09:15:23Z</time>
      </trkpt>
      <trkpt lat="43.56831" lon="5.8551">
        <ele>429.91</ele>
        <time>2021-02-21T09:15:28Z</time>
      </trkpt>
      <trkpt lat="43.56834" lon="5.85537">
        <ele>430.34</ele>
        <time>2021-02-21T09:15:33Z</time>
      </trkpt>
      <trkpt lat="43.56835" lon="5.85566">
        <ele>431.46</ele>
        <time>2021-02-21T09:15:41Z</time>
      </trkpt>
      <trkpt lat="43.56835" lon="5.85594">
        <ele>431.08</ele>
        <time>2021-02-21T09:15:47Z</time>
      </trkpt>
      <trkpt lat="43.56835" lon="5.85621">
        <ele>431.24</ele>
        <time>2021-02-21T09:15:52Z</time>
      </trkpt>
      <trkpt lat="43.56838" lon="5.85647">
        <ele>429.98</ele>
        <time>2021-02-21T09:15:57Z</time>
      </trkpt>
      <trkpt lat="43.56827" lon="5.85668">
        <ele>431.46</ele>
        <time>2021-02-21T09:16:04Z</time>
      </trkpt>
      <trkpt lat="43.56808" lon="5.85675">
        <ele>433.95</ele>
        <time>2021-02-21T09:16:14Z</time>
      </trkpt>
      <trkpt lat="43.56792" lon="5.85686">
        <ele>437.81</ele>
        <time>2021-02-21T09:16:24Z</time>
      </trkpt>
      <trkpt lat="43.56775" lon="5.85695">
        <ele>440.29</ele>
        <time>2021-02-21T09:16:34Z</time>
      </trkpt>
      <trkpt lat="43.56762" lon="5.85714">
        <ele>443.77</ele>
        <time>2021-02-21T09:16:48Z</time>
      </trkpt>
      <trkpt lat="43.5676" lon="5.8574">
        <ele>447.2</ele>
        <time>2021-02-21T09:16:58Z</time>
      </trkpt>
      <trkpt lat="43.56754" lon="5.85765">
        <ele>449.12</ele>
        <time>2021-02-21T09:17:06Z</time>
      </trkpt>
      <trkpt lat="43.56744" lon="5.85786">
        <ele>451.01</ele>
        <time>2021-02-21T09:17:13Z</time>
      </trkpt>
      <trkpt lat="43.56731" lon="5.85805">
        <ele>451.87</ele>
        <time>2021-02-21T09:17:20Z</time>
      </trkpt>
      <trkpt lat="43.56713" lon="5.85818">
        <ele>451.18</ele>
        <time>2021-02-21T09:17:27Z</time>
      </trkpt>
      <trkpt lat="43.56693" lon="5.85819">
        <ele>451.03</ele>
        <time>2021-02-21T09:17:33Z</time>
      </trkpt>
      <trkpt lat="43.56679" lon="5.85839">
        <ele>450.38</ele>
        <time>2021-02-21T09:17:40Z</time>
      </trkpt>
      <trkpt lat="43.5667" lon="5.85866">
        <ele>451.09</ele>
        <time>2021-02-21T09:17:47Z</time>
      </trkpt>
      <trkpt lat="43.56649" lon="5.85872">
        <ele>449.27</ele>
        <time>2021-02-21T09:17:53Z</time>
      </trkpt>
      <trkpt lat="43.5663" lon="5.85885">
        <ele>448.04</ele>
        <time>2021-02-21T09:17:59Z</time>
      </trkpt>
      <trkpt lat="43.56628" lon="5.85911">
        <ele>447.08</ele>
        <time>2021-02-21T09:18:05Z</time>
      </trkpt>
      <trkpt lat="43.56612" lon="5.8593">
        <ele>447.03</ele>
        <time>2021-02-21T09:18:12Z</time>
      </trkpt>
      <trkpt lat="43.56594" lon="5.85942">
        <ele>445.58</ele>
        <time>2021-02-21T09:18:17Z</time>
      </trkpt>
      <trkpt lat="43.56576" lon="5.85958">
        <ele>445.05</ele>
        <time>2021-02-21T09:18:22Z</time>
      </trkpt>
      <trkpt lat="43.56563" lon="5.85975">
        <ele>445.25</ele>
        <time>2021-02-21T09:18:28Z</time>
      </trkpt>
      <trkpt lat="43.56574" lon="5.85995">
        <ele>443.92</ele>
        <time>2021-02-21T09:19:09Z</time>
      </trkpt>
      <trkpt lat="43.5659" lon="5.86009">
        <ele>447.02</ele>
        <time>2021-02-21T09:19:16Z</time>
      </trkpt>
      <trkpt lat="43.56607" lon="5.86021">
        <ele>450.16</ele>
        <time>2021-02-21T09:19:23Z</time>
      </trkpt>
      <trkpt lat="43.56604" lon="5.86049">
        <ele>452.95</ele>
        <time>2021-02-21T09:19:30Z</time>
      </trkpt>
      <trkpt lat="43.56602" lon="5.86078">
        <ele>455.14</ele>
        <time>2021-02-21T09:19:36Z</time>
      </trkpt>
      <trkpt lat="43.56599" lon="5.86107">
        <ele>456.74</ele>
        <time>2021-02-21T09:19:42Z</time>
      </trkpt>
      <trkpt lat="43.56597" lon="5.86132">
        <ele>457.62</ele>
        <time>2021-02-21T09:19:47Z</time>
      </trkpt>
      <trkpt lat="43.56597" lon="5.86159">
        <ele>458.03</ele>
        <time>2021-02-21T09:19:53Z</time>
      </trkpt>
      <trkpt lat="43.56584" lon="5.8618">
        <ele>458</ele>
        <time>2021-02-21T09:20:02Z</time>
      </trkpt>
      <trkpt lat="43.56566" lon="5.8619">
        <ele>456.05</ele>
        <time>2021-02-21T09:20:07Z</time>
      </trkpt>
      <trkpt lat="43.56551" lon="5.86204">
        <ele>454.95</ele>
        <time>2021-02-21T09:20:13Z</time>
      </trkpt>
      <trkpt lat="43.56533" lon="5.86217">
        <ele>452.38</ele>
        <time>2021-02-21T09:20:18Z</time>
      </trkpt>
      <trkpt lat="43.56514" lon="5.86232">
        <ele>449.01</ele>
        <time>2021-02-21T09:20:23Z</time>
      </trkpt>
      <trkpt lat="43.56496" lon="5.86247">
        <ele>446.63</ele>
        <time>2021-02-21T09:20:28Z</time>
      </trkpt>
      <trkpt lat="43.56476" lon="5.8626">
        <ele>445.4</ele>
        <time>2021-02-21T09:20:33Z</time>
      </trkpt>
      <trkpt lat="43.56457" lon="5.86271">
        <ele>443.35</ele>
        <time>2021-02-21T09:20:38Z</time>
      </trkpt>
      <trkpt lat="43.56435" lon="5.86277">
        <ele>441.94</ele>
        <time>2021-02-21T09:20:43Z</time>
      </trkpt>
      <trkpt lat="43.56415" lon="5.86282">
        <ele>440.68</ele>
        <time>2021-02-21T09:20:47Z</time>
      </trkpt>
      <trkpt lat="43.56396" lon="5.86288">
        <ele>438.31</ele>
        <time>2021-02-21T09:20:51Z</time>
      </trkpt>
      <trkpt lat="43.56375" lon="5.86284">
        <ele>437.28</ele>
        <time>2021-02-21T09:20:55Z</time>
      </trkpt>
      <trkpt lat="43.56354" lon="5.8629">
        <ele>435.73</ele>
        <time>2021-02-21T09:20:59Z</time>
      </trkpt>
      <trkpt lat="43.56333" lon="5.86291">
        <ele>435.89</ele>
        <time>2021-02-21T09:21:03Z</time>
      </trkpt>
      <trkpt lat="43.5631" lon="5.8629">
        <ele>435.35</ele>
        <time>2021-02-21T09:21:07Z</time>
      </trkpt>
      <trkpt lat="43.56292" lon="5.86286">
        <ele>433.75</ele>
        <time>2021-02-21T09:21:10Z</time>
      </trkpt>
      <trkpt lat="43.56272" lon="5.86283">
        <ele>431.91</ele>
        <time>2021-02-21T09:21:14Z</time>
      </trkpt>
      <trkpt lat="43.56252" lon="5.86285">
        <ele>429.85</ele>
        <time>2021-02-21T09:21:22Z</time>
      </trkpt>
      <trkpt lat="43.56233" lon="5.86285">
        <ele>432.91</ele>
        <time>2021-02-21T09:21:32Z</time>
      </trkpt>
      <trkpt lat="43.56213" lon="5.86291">
        <ele>436.43</ele>
        <time>2021-02-21T09:21:40Z</time>
      </trkpt>
      <trkpt lat="43.56194" lon="5.86296">
        <ele>438.98</ele>
        <time>2021-02-21T09:21:47Z</time>
      </trkpt>
      <trkpt lat="43.56174" lon="5.86301">
        <ele>439.42</ele>
        <time>2021-02-21T09:21:59Z</time>
      </trkpt>
      <trkpt lat="43.56156" lon="5.86307">
        <ele>436.72</ele>
        <time>2021-02-21T09:22:04Z</time>
      </trkpt>
      <trkpt lat="43.56135" lon="5.86313">
        <ele>433.07</ele>
        <time>2021-02-21T09:22:09Z</time>
      </trkpt>
      <trkpt lat="43.56116" lon="5.86316">
        <ele>429.6</ele>
        <time>2021-02-21T09:22:14Z</time>
      </trkpt>
      <trkpt lat="43.56092" lon="5.8631">
        <ele>427.31</ele>
        <time>2021-02-21T09:22:18Z</time>
      </trkpt>
      <trkpt lat="43.5607" lon="5.86302">
        <ele>423.99</ele>
        <time>2021-02-21T09:22:22Z</time>
      </trkpt>
      <trkpt lat="43.56049" lon="5.86293">
        <ele>417.96</ele>
        <time>2021-02-21T09:22:26Z</time>
      </trkpt>
      <trkpt lat="43.56032" lon="5.86284">
        <ele>416.15</ele>
        <time>2021-02-21T09:22:29Z</time>
      </trkpt>
      <trkpt lat="43.56014" lon="5.86276">
        <ele>415.21</ele>
        <time>2021-02-21T09:22:32Z</time>
      </trkpt>
      <trkpt lat="43.55993" lon="5.8627">
        <ele>413.33</ele>
        <time>2021-02-21T09:22:36Z</time>
      </trkpt>
      <trkpt lat="43.55975" lon="5.86263">
        <ele>408.96</ele>
        <time>2021-02-21T09:22:40Z</time>
      </trkpt>
      <trkpt lat="43.55956" lon="5.86258">
        <ele>404.69</ele>
        <time>2021-02-21T09:22:44Z</time>
      </trkpt>
      <trkpt lat="43.55937" lon="5.86253">
        <ele>400.03</ele>
        <time>2021-02-21T09:22:49Z</time>
      </trkpt>
      <trkpt lat="43.55918" lon="5.86256">
        <ele>395.07</ele>
        <time>2021-02-21T09:22:56Z</time>
      </trkpt>
      <trkpt lat="43.55911" lon="5.86279">
        <ele>397.45</ele>
        <time>2021-02-21T09:23:04Z</time>
      </trkpt>
      <trkpt lat="43.5591" lon="5.86305">
        <ele>400.74</ele>
        <time>2021-02-21T09:23:11Z</time>
      </trkpt>
      <trkpt lat="43.55916" lon="5.86331">
        <ele>402.72</ele>
        <time>2021-02-21T09:23:19Z</time>
      </trkpt>
      <trkpt lat="43.55921" lon="5.86355">
        <ele>401.88</ele>
        <time>2021-02-21T09:23:26Z</time>
      </trkpt>
      <trkpt lat="43.55931" lon="5.8638">
        <ele>401.24</ele>
        <time>2021-02-21T09:23:33Z</time>
      </trkpt>
      <trkpt lat="43.55943" lon="5.86401">
        <ele>401.25</ele>
        <time>2021-02-21T09:23:38Z</time>
      </trkpt>
      <trkpt lat="43.55952" lon="5.86423">
        <ele>399.65</ele>
        <time>2021-02-21T09:23:42Z</time>
      </trkpt>
      <trkpt lat="43.55969" lon="5.86439">
        <ele>400.51</ele>
        <time>2021-02-21T09:23:47Z</time>
      </trkpt>
      <trkpt lat="43.55984" lon="5.86452">
        <ele>400.42</ele>
        <time>2021-02-21T09:23:52Z</time>
      </trkpt>
      <trkpt lat="43.56001" lon="5.86463">
        <ele>400.71</ele>
        <time>2021-02-21T09:23:57Z</time>
      </trkpt>
      <trkpt lat="43.56019" lon="5.86471">
        <ele>400.33</ele>
        <time>2021-02-21T09:24:02Z</time>
      </trkpt>
      <trkpt lat="43.56034" lon="5.86486">
        <ele>400.28</ele>
        <time>2021-02-21T09:24:08Z</time>
      </trkpt>
      <trkpt lat="43.56037" lon="5.86511">
        <ele>401.12</ele>
        <time>2021-02-21T09:24:14Z</time>
      </trkpt>
      <trkpt lat="43.56052" lon="5.86528">
        <ele>402.41</ele>
        <time>2021-02-21T09:24:22Z</time>
      </trkpt>
      <trkpt lat="43.56068" lon="5.86545">
        <ele>403.11</ele>
        <time>2021-02-21T09:24:28Z</time>
      </trkpt>
      <trkpt lat="43.56079" lon="5.86568">
        <ele>403.87</ele>
        <time>2021-02-21T09:24:34Z</time>
      </trkpt>
      <trkpt lat="43.56084" lon="5.86594">
        <ele>403.25</ele>
        <time>2021-02-21T09:24:39Z</time>
      </trkpt>
      <trkpt lat="43.56083" lon="5.86621">
        <ele>401.29</ele>
        <time>2021-02-21T09:24:44Z</time>
      </trkpt>
      <trkpt lat="43.56066" lon="5.86627">
        <ele>400.15</ele>
        <time>2021-02-21T09:24:49Z</time>
      </trkpt>
      <trkpt lat="43.56048" lon="5.8662">
        <ele>399.77</ele>
        <time>2021-02-21T09:24:54Z</time>
      </trkpt>
      <trkpt lat="43.56027" lon="5.86623">
        <ele>398.11</ele>
        <time>2021-02-21T09:24:59Z</time>
      </trkpt>
      <trkpt lat="43.56005" lon="5.86618">
        <ele>396.77</ele>
        <time>2021-02-21T09:25:04Z</time>
      </trkpt>
      <trkpt lat="43.55984" lon="5.86616">
        <ele>396.67</ele>
        <time>2021-02-21T09:25:09Z</time>
      </trkpt>
      <trkpt lat="43.5597" lon="5.86632">
        <ele>396.31</ele>
        <time>2021-02-21T09:25:14Z</time>
      </trkpt>
      <trkpt lat="43.55952" lon="5.86642">
        <ele>396.4</ele>
        <time>2021-02-21T09:25:19Z</time>
      </trkpt>
      <trkpt lat="43.55934" lon="5.86654">
        <ele>395.45</ele>
        <time>2021-02-21T09:25:23Z</time>
      </trkpt>
      <trkpt lat="43.55915" lon="5.86661">
        <ele>394.43</ele>
        <time>2021-02-21T09:25:27Z</time>
      </trkpt>
      <trkpt lat="43.55897" lon="5.8667">
        <ele>394.41</ele>
        <time>2021-02-21T09:25:32Z</time>
      </trkpt>
      <trkpt lat="43.55882" lon="5.86687">
        <ele>394.76</ele>
        <time>2021-02-21T09:25:37Z</time>
      </trkpt>
      <trkpt lat="43.55873" lon="5.86712">
        <ele>395.58</ele>
        <time>2021-02-21T09:25:43Z</time>
      </trkpt>
      <trkpt lat="43.55856" lon="5.86724">
        <ele>396.4</ele>
        <time>2021-02-21T09:25:48Z</time>
      </trkpt>
      <trkpt lat="43.55837" lon="5.86727">
        <ele>396.08</ele>
        <time>2021-02-21T09:25:53Z</time>
      </trkpt>
      <trkpt lat="43.55817" lon="5.86733">
        <ele>396.56</ele>
        <time>2021-02-21T09:25:59Z</time>
      </trkpt>
      <trkpt lat="43.558" lon="5.86747">
        <ele>394.78</ele>
        <time>2021-02-21T09:26:04Z</time>
      </trkpt>
      <trkpt lat="43.55791" lon="5.8677">
        <ele>394.69</ele>
        <time>2021-02-21T09:26:09Z</time>
      </trkpt>
      <trkpt lat="43.55781" lon="5.86797">
        <ele>395.34</ele>
        <time>2021-02-21T09:26:14Z</time>
      </trkpt>
      <trkpt lat="43.55773" lon="5.8682">
        <ele>395.72</ele>
        <time>2021-02-21T09:26:18Z</time>
      </trkpt>
      <trkpt lat="43.55767" lon="5.86845">
        <ele>395.46</ele>
        <time>2021-02-21T09:26:22Z</time>
      </trkpt>
      <trkpt lat="43.55763" lon="5.86875">
        <ele>394.42</ele>
        <time>2021-02-21T09:26:26Z</time>
      </trkpt>
      <trkpt lat="43.55758" lon="5.86905">
        <ele>393.22</ele>
        <time>2021-02-21T09:26:30Z</time>
      </trkpt>
      <trkpt lat="43.55756" lon="5.86934">
        <ele>391.62</ele>
        <time>2021-02-21T09:26:34Z</time>
      </trkpt>
      <trkpt lat="43.55757" lon="5.86964">
        <ele>390.2</ele>
        <time>2021-02-21T09:26:38Z</time>
      </trkpt>
      <trkpt lat="43.5576" lon="5.86993">
        <ele>388.86</ele>
        <time>2021-02-21T09:26:42Z</time>
      </trkpt>
      <trkpt lat="43.55765" lon="5.87019">
        <ele>387.77</ele>
        <time>2021-02-21T09:26:46Z</time>
      </trkpt>
      <trkpt lat="43.55777" lon="5.87042">
        <ele>387.47</ele>
        <time>2021-02-21T09:26:51Z</time>
      </trkpt>
      <trkpt lat="43.5579" lon="5.87063">
        <ele>387.65</ele>
        <time>2021-02-21T09:26:56Z</time>
      </trkpt>
      <trkpt lat="43.55803" lon="5.8708">
        <ele>389.32</ele>
        <time>2021-02-21T09:27:00Z</time>
      </trkpt>
      <trkpt lat="43.55816" lon="5.87096">
        <ele>391.35</ele>
        <time>2021-02-21T09:27:04Z</time>
      </trkpt>
      <trkpt lat="43.55823" lon="5.87123">
        <ele>393.02</ele>
        <time>2021-02-21T09:27:09Z</time>
      </trkpt>
      <trkpt lat="43.55808" lon="5.87141">
        <ele>393.76</ele>
        <time>2021-02-21T09:27:14Z</time>
      </trkpt>
      <trkpt lat="43.5579" lon="5.87145">
        <ele>389.41</ele>
        <time>2021-02-21T09:27:25Z</time>
      </trkpt>
      <trkpt lat="43.55775" lon="5.8713">
        <ele>382.44</ele>
        <time>2021-02-21T09:30:08Z</time>
      </trkpt>
      <trkpt lat="43.55765" lon="5.87108">
        <ele>383.46</ele>
        <time>2021-02-21T09:30:21Z</time>
      </trkpt>
      <trkpt lat="43.55749" lon="5.87094">
        <ele>385.2</ele>
        <time>2021-02-21T09:30:33Z</time>
      </trkpt>
      <trkpt lat="43.55735" lon="5.87078">
        <ele>388.56</ele>
        <time>2021-02-21T09:30:47Z</time>
      </trkpt>
      <trkpt lat="43.55725" lon="5.87055">
        <ele>395.52</ele>
        <time>2021-02-21T09:31:01Z</time>
      </trkpt>
      <trkpt lat="43.55715" lon="5.87035">
        <ele>398.69</ele>
        <time>2021-02-21T09:31:13Z</time>
      </trkpt>
      <trkpt lat="43.55702" lon="5.87014">
        <ele>401.55</ele>
        <time>2021-02-21T09:31:27Z</time>
      </trkpt>
      <trkpt lat="43.55691" lon="5.86994">
        <ele>403.12</ele>
        <time>2021-02-21T09:31:40Z</time>
      </trkpt>
      <trkpt lat="43.55681" lon="5.86972">
        <ele>404.66</ele>
        <time>2021-02-21T09:31:52Z</time>
      </trkpt>
      <trkpt lat="43.5567" lon="5.86952">
        <ele>406.34</ele>
        <time>2021-02-21T09:32:05Z</time>
      </trkpt>
      <trkpt lat="43.55661" lon="5.8693">
        <ele>408.62</ele>
        <time>2021-02-21T09:32:20Z</time>
      </trkpt>
      <trkpt lat="43.55648" lon="5.8691">
        <ele>410.7</ele>
        <time>2021-02-21T09:32:34Z</time>
      </trkpt>
      <trkpt lat="43.55644" lon="5.86885">
        <ele>415.99</ele>
        <time>2021-02-21T09:32:49Z</time>
      </trkpt>
      <trkpt lat="43.55642" lon="5.8686">
        <ele>421.87</ele>
        <time>2021-02-21T09:33:04Z</time>
      </trkpt>
      <trkpt lat="43.55637" lon="5.86835">
        <ele>428.37</ele>
        <time>2021-02-21T09:33:20Z</time>
      </trkpt>
      <trkpt lat="43.55632" lon="5.8681">
        <ele>430.57</ele>
        <time>2021-02-21T09:33:39Z</time>
      </trkpt>
      <trkpt lat="43.55623" lon="5.86788">
        <ele>434.33</ele>
        <time>2021-02-21T09:33:55Z</time>
      </trkpt>
      <trkpt lat="43.55615" lon="5.86765">
        <ele>438.71</ele>
        <time>2021-02-21T09:34:10Z</time>
      </trkpt>
      <trkpt lat="43.55604" lon="5.86745">
        <ele>436.09</ele>
        <time>2021-02-21T09:34:27Z</time>
      </trkpt>
      <trkpt lat="43.55588" lon="5.8673">
        <ele>437.35</ele>
        <time>2021-02-21T09:34:46Z</time>
      </trkpt>
      <trkpt lat="43.55577" lon="5.8671">
        <ele>436.9</ele>
        <time>2021-02-21T09:35:00Z</time>
      </trkpt>
      <trkpt lat="43.55559" lon="5.86699">
        <ele>436.26</ele>
        <time>2021-02-21T09:35:14Z</time>
      </trkpt>
      <trkpt lat="43.55544" lon="5.86684">
        <ele>437.54</ele>
        <time>2021-02-21T09:35:27Z</time>
      </trkpt>
      <trkpt lat="43.55527" lon="5.86671">
        <ele>438.69</ele>
        <time>2021-02-21T09:35:41Z</time>
      </trkpt>
      <trkpt lat="43.55513" lon="5.86654">
        <ele>432.87</ele>
        <time>2021-02-21T09:38:37Z</time>
      </trkpt>
      <trkpt lat="43.55526" lon="5.86636">
        <ele>433.62</ele>
        <time>2021-02-21T09:38:56Z</time>
      </trkpt>
      <trkpt lat="43.55543" lon="5.86627">
        <ele>435.87</ele>
        <time>2021-02-21T09:39:05Z</time>
      </trkpt>
      <trkpt lat="43.55542" lon="5.86602">
        <ele>440.27</ele>
        <time>2021-02-21T09:39:18Z</time>
      </trkpt>
      <trkpt lat="43.55525" lon="5.86588">
        <ele>437.37</ele>
        <time>2021-02-21T09:39:25Z</time>
      </trkpt>
      <trkpt lat="43.55509" lon="5.86572">
        <ele>434.54</ele>
        <time>2021-02-21T09:39:30Z</time>
      </trkpt>
      <trkpt lat="43.55489" lon="5.86574">
        <ele>433.17</ele>
        <time>2021-02-21T09:39:35Z</time>
      </trkpt>
      <trkpt lat="43.55471" lon="5.86566">
        <ele>431.74</ele>
        <time>2021-02-21T09:39:39Z</time>
      </trkpt>
      <trkpt lat="43.55453" lon="5.86553">
        <ele>430.94</ele>
        <time>2021-02-21T09:39:44Z</time>
      </trkpt>
      <trkpt lat="43.55444" lon="5.86531">
        <ele>434.49</ele>
        <time>2021-02-21T09:39:50Z</time>
      </trkpt>
      <trkpt lat="43.55437" lon="5.86507">
        <ele>437.38</ele>
        <time>2021-02-21T09:39:56Z</time>
      </trkpt>
      <trkpt lat="43.55425" lon="5.86485">
        <ele>439.57</ele>
        <time>2021-02-21T09:40:03Z</time>
      </trkpt>
      <trkpt lat="43.55412" lon="5.86466">
        <ele>438.63</ele>
        <time>2021-02-21T09:40:10Z</time>
      </trkpt>
      <trkpt lat="43.554" lon="5.86444">
        <ele>439.06</ele>
        <time>2021-02-21T09:40:17Z</time>
      </trkpt>
      <trkpt lat="43.55387" lon="5.86425">
        <ele>440.66</ele>
        <time>2021-02-21T09:40:24Z</time>
      </trkpt>
      <trkpt lat="43.55377" lon="5.86402">
        <ele>441.43</ele>
        <time>2021-02-21T09:40:31Z</time>
      </trkpt>
      <trkpt lat="43.55367" lon="5.86381">
        <ele>439.59</ele>
        <time>2021-02-21T09:40:37Z</time>
      </trkpt>
      <trkpt lat="43.55354" lon="5.86362">
        <ele>438.01</ele>
        <time>2021-02-21T09:40:42Z</time>
      </trkpt>
      <trkpt lat="43.55343" lon="5.86342">
        <ele>436.73</ele>
        <time>2021-02-21T09:40:47Z</time>
      </trkpt>
      <trkpt lat="43.55324" lon="5.86331">
        <ele>435.64</ele>
        <time>2021-02-21T09:40:54Z</time>
      </trkpt>
      <trkpt lat="43.55305" lon="5.86333">
        <ele>437.03</ele>
        <time>2021-02-21T09:41:00Z</time>
      </trkpt>
      <trkpt lat="43.55285" lon="5.86326">
        <ele>437.47</ele>
        <time>2021-02-21T09:41:10Z</time>
      </trkpt>
      <trkpt lat="43.55267" lon="5.86323">
        <ele>438.8</ele>
        <time>2021-02-21T09:41:19Z</time>
      </trkpt>
      <trkpt lat="43.55248" lon="5.86321">
        <ele>442.45</ele>
        <time>2021-02-21T09:41:30Z</time>
      </trkpt>
      <trkpt lat="43.55234" lon="5.86304">
        <ele>446.47</ele>
        <time>2021-02-21T09:41:41Z</time>
      </trkpt>
      <trkpt lat="43.55221" lon="5.86285">
        <ele>449.97</ele>
        <time>2021-02-21T09:41:51Z</time>
      </trkpt>
      <trkpt lat="43.55207" lon="5.86269">
        <ele>454.65</ele>
        <time>2021-02-21T09:42:02Z</time>
      </trkpt>
      <trkpt lat="43.55194" lon="5.8625">
        <ele>458.91</ele>
        <time>2021-02-21T09:42:14Z</time>
      </trkpt>
      <trkpt lat="43.55179" lon="5.86235">
        <ele>462.32</ele>
        <time>2021-02-21T09:42:26Z</time>
      </trkpt>
      <trkpt lat="43.55168" lon="5.86214">
        <ele>464.93</ele>
        <time>2021-02-21T09:42:37Z</time>
      </trkpt>
      <trkpt lat="43.55153" lon="5.86196">
        <ele>468.37</ele>
        <time>2021-02-21T09:42:50Z</time>
      </trkpt>
      <trkpt lat="43.55145" lon="5.86219">
        <ele>474.64</ele>
        <time>2021-02-21T09:43:14Z</time>
      </trkpt>
      <trkpt lat="43.55143" lon="5.86244">
        <ele>478.47</ele>
        <time>2021-02-21T09:43:23Z</time>
      </trkpt>
      <trkpt lat="43.55141" lon="5.8627">
        <ele>481.07</ele>
        <time>2021-02-21T09:43:33Z</time>
      </trkpt>
      <trkpt lat="43.55125" lon="5.86285">
        <ele>482.7</ele>
        <time>2021-02-21T09:43:44Z</time>
      </trkpt>
      <trkpt lat="43.55109" lon="5.86297">
        <ele>483.44</ele>
        <time>2021-02-21T09:43:54Z</time>
      </trkpt>
      <trkpt lat="43.55094" lon="5.86311">
        <ele>485.8</ele>
        <time>2021-02-21T09:44:06Z</time>
      </trkpt>
      <trkpt lat="43.55079" lon="5.86327">
        <ele>488.99</ele>
        <time>2021-02-21T09:44:18Z</time>
      </trkpt>
      <trkpt lat="43.5506" lon="5.86336">
        <ele>487.49</ele>
        <time>2021-02-21T09:44:24Z</time>
      </trkpt>
      <trkpt lat="43.55042" lon="5.86328">
        <ele>485.04</ele>
        <time>2021-02-21T09:44:29Z</time>
      </trkpt>
      <trkpt lat="43.55042" lon="5.86303">
        <ele>485.82</ele>
        <time>2021-02-21T09:44:42Z</time>
      </trkpt>
      <trkpt lat="43.5505" lon="5.86278">
        <ele>485.65</ele>
        <time>2021-02-21T09:44:51Z</time>
      </trkpt>
      <trkpt lat="43.55058" lon="5.86251">
        <ele>482.29</ele>
        <time>2021-02-21T09:44:59Z</time>
      </trkpt>
      <trkpt lat="43.55067" lon="5.86227">
        <ele>479.71</ele>
        <time>2021-02-21T09:45:08Z</time>
      </trkpt>
      <trkpt lat="43.55073" lon="5.86203">
        <ele>476.67</ele>
        <time>2021-02-21T09:45:17Z</time>
      </trkpt>
      <trkpt lat="43.55078" lon="5.86178">
        <ele>476.71</ele>
        <time>2021-02-21T09:45:28Z</time>
      </trkpt>
      <trkpt lat="43.55071" lon="5.86154">
        <ele>477.34</ele>
        <time>2021-02-21T09:45:42Z</time>
      </trkpt>
      <trkpt lat="43.55071" lon="5.86128">
        <ele>477.46</ele>
        <time>2021-02-21T09:45:54Z</time>
      </trkpt>
      <trkpt lat="43.55072" lon="5.86102">
        <ele>477.09</ele>
        <time>2021-02-21T09:46:05Z</time>
      </trkpt>
      <trkpt lat="43.55073" lon="5.86076">
        <ele>476.17</ele>
        <time>2021-02-21T09:46:16Z</time>
      </trkpt>
      <trkpt lat="43.55067" lon="5.86051">
        <ele>477.31</ele>
        <time>2021-02-21T09:46:29Z</time>
      </trkpt>
      <trkpt lat="43.55068" lon="5.86024">
        <ele>479.22</ele>
        <time>2021-02-21T09:46:41Z</time>
      </trkpt>
      <trkpt lat="43.55077" lon="5.86002">
        <ele>481.04</ele>
        <time>2021-02-21T09:46:51Z</time>
      </trkpt>
      <trkpt lat="43.55082" lon="5.85977">
        <ele>481.94</ele>
        <time>2021-02-21T09:47:00Z</time>
      </trkpt>
      <trkpt lat="43.55088" lon="5.85953">
        <ele>482.06</ele>
        <time>2021-02-21T09:47:10Z</time>
      </trkpt>
      <trkpt lat="43.55094" lon="5.85928">
        <ele>483.74</ele>
        <time>2021-02-21T09:47:20Z</time>
      </trkpt>
      <trkpt lat="43.55098" lon="5.85902">
        <ele>482.83</ele>
        <time>2021-02-21T09:47:28Z</time>
      </trkpt>
      <trkpt lat="43.55099" lon="5.85875">
        <ele>483.45</ele>
        <time>2021-02-21T09:47:37Z</time>
      </trkpt>
      <trkpt lat="43.55109" lon="5.85852">
        <ele>484.82</ele>
        <time>2021-02-21T09:47:46Z</time>
      </trkpt>
      <trkpt lat="43.55117" lon="5.85828">
        <ele>483.5</ele>
        <time>2021-02-21T09:47:54Z</time>
      </trkpt>
      <trkpt lat="43.55127" lon="5.85806">
        <ele>484.72</ele>
        <time>2021-02-21T09:48:02Z</time>
      </trkpt>
      <trkpt lat="43.5514" lon="5.85789">
        <ele>486.2</ele>
        <time>2021-02-21T09:48:10Z</time>
      </trkpt>
      <trkpt lat="43.55147" lon="5.85765">
        <ele>485.78</ele>
        <time>2021-02-21T09:48:18Z</time>
      </trkpt>
      <trkpt lat="43.55157" lon="5.85743">
        <ele>485.09</ele>
        <time>2021-02-21T09:48:26Z</time>
      </trkpt>
      <trkpt lat="43.55168" lon="5.85721">
        <ele>487.6</ele>
        <time>2021-02-21T09:48:34Z</time>
      </trkpt>
      <trkpt lat="43.55174" lon="5.85696">
        <ele>488.28</ele>
        <time>2021-02-21T09:48:42Z</time>
      </trkpt>
      <trkpt lat="43.55184" lon="5.85673">
        <ele>488.47</ele>
        <time>2021-02-21T09:48:50Z</time>
      </trkpt>
      <trkpt lat="43.55191" lon="5.8565">
        <ele>485.26</ele>
        <time>2021-02-21T09:48:57Z</time>
      </trkpt>
      <trkpt lat="43.55198" lon="5.85623">
        <ele>483.82</ele>
        <time>2021-02-21T09:49:05Z</time>
      </trkpt>
      <trkpt lat="43.55204" lon="5.85598">
        <ele>483.05</ele>
        <time>2021-02-21T09:49:11Z</time>
      </trkpt>
      <trkpt lat="43.55218" lon="5.85577">
        <ele>484.24</ele>
        <time>2021-02-21T09:49:18Z</time>
      </trkpt>
      <trkpt lat="43.55227" lon="5.85555">
        <ele>485.48</ele>
        <time>2021-02-21T09:49:24Z</time>
      </trkpt>
      <trkpt lat="43.55234" lon="5.85531">
        <ele>484.74</ele>
        <time>2021-02-21T09:49:30Z</time>
      </trkpt>
      <trkpt lat="43.55238" lon="5.85505">
        <ele>483.62</ele>
        <time>2021-02-21T09:49:35Z</time>
      </trkpt>
      <trkpt lat="43.55241" lon="5.85476">
        <ele>482.76</ele>
        <time>2021-02-21T09:49:40Z</time>
      </trkpt>
      <trkpt lat="43.55222" lon="5.85479">
        <ele>487.93</ele>
        <time>2021-02-21T09:57:39Z</time>
      </trkpt>
      <trkpt lat="43.552" lon="5.85489">
        <ele>488.34</ele>
        <time>2021-02-21T09:57:43Z</time>
      </trkpt>
      <trkpt lat="43.55179" lon="5.85482">
        <ele>484.71</ele>
        <time>2021-02-21T09:57:47Z</time>
      </trkpt>
      <trkpt lat="43.55158" lon="5.85476">
        <ele>481.79</ele>
        <time>2021-02-21T09:57:51Z</time>
      </trkpt>
      <trkpt lat="43.55136" lon="5.85478">
        <ele>479.24</ele>
        <time>2021-02-21T09:57:55Z</time>
      </trkpt>
      <trkpt lat="43.55113" lon="5.85482">
        <ele>478.03</ele>
        <time>2021-02-21T09:57:59Z</time>
      </trkpt>
      <trkpt lat="43.55091" lon="5.85487">
        <ele>476.93</ele>
        <time>2021-02-21T09:58:03Z</time>
      </trkpt>
      <trkpt lat="43.5507" lon="5.85492">
        <ele>476.02</ele>
        <time>2021-02-21T09:58:07Z</time>
      </trkpt>
      <trkpt lat="43.55049" lon="5.8549">
        <ele>474</ele>
        <time>2021-02-21T09:58:11Z</time>
      </trkpt>
      <trkpt lat="43.5503" lon="5.85495">
        <ele>472.62</ele>
        <time>2021-02-21T09:58:15Z</time>
      </trkpt>
      <trkpt lat="43.55012" lon="5.85514">
        <ele>471.9</ele>
        <time>2021-02-21T09:58:20Z</time>
      </trkpt>
      <trkpt lat="43.54992" lon="5.85522">
        <ele>470.33</ele>
        <time>2021-02-21T09:58:25Z</time>
      </trkpt>
      <trkpt lat="43.54975" lon="5.85531">
        <ele>469.03</ele>
        <time>2021-02-21T09:58:30Z</time>
      </trkpt>
      <trkpt lat="43.54964" lon="5.85553">
        <ele>467.71</ele>
        <time>2021-02-21T09:58:36Z</time>
      </trkpt>
      <trkpt lat="43.54946" lon="5.85556">
        <ele>464.75</ele>
        <time>2021-02-21T09:59:22Z</time>
      </trkpt>
      <trkpt lat="43.54928" lon="5.85565">
        <ele>465.37</ele>
        <time>2021-02-21T09:59:28Z</time>
      </trkpt>
      <trkpt lat="43.54912" lon="5.8558">
        <ele>466.04</ele>
        <time>2021-02-21T09:59:34Z</time>
      </trkpt>
      <trkpt lat="43.54894" lon="5.85587">
        <ele>465.64</ele>
        <time>2021-02-21T09:59:39Z</time>
      </trkpt>
      <trkpt lat="43.54874" lon="5.85584">
        <ele>463.47</ele>
        <time>2021-02-21T09:59:43Z</time>
      </trkpt>
      <trkpt lat="43.54854" lon="5.85595">
        <ele>462.62</ele>
        <time>2021-02-21T09:59:48Z</time>
      </trkpt>
      <trkpt lat="43.54835" lon="5.85601">
        <ele>461.13</ele>
        <time>2021-02-21T09:59:52Z</time>
      </trkpt>
      <trkpt lat="43.54814" lon="5.85607">
        <ele>460.24</ele>
        <time>2021-02-21T09:59:56Z</time>
      </trkpt>
      <trkpt lat="43.54794" lon="5.85615">
        <ele>459.3</ele>
        <time>2021-02-21T10:00:00Z</time>
      </trkpt>
      <trkpt lat="43.54773" lon="5.85625">
        <ele>458.52</ele>
        <time>2021-02-21T10:00:05Z</time>
      </trkpt>
      <trkpt lat="43.54756" lon="5.85642">
        <ele>458.57</ele>
        <time>2021-02-21T10:00:10Z</time>
      </trkpt>
      <trkpt lat="43.54737" lon="5.85657">
        <ele>457.74</ele>
        <time>2021-02-21T10:00:15Z</time>
      </trkpt>
      <trkpt lat="43.54721" lon="5.8567">
        <ele>456.69</ele>
        <time>2021-02-21T10:00:19Z</time>
      </trkpt>
      <trkpt lat="43.54703" lon="5.85685">
        <ele>456.65</ele>
        <time>2021-02-21T10:00:24Z</time>
      </trkpt>
      <trkpt lat="43.54685" lon="5.85694">
        <ele>457</ele>
        <time>2021-02-21T10:00:32Z</time>
      </trkpt>
      <trkpt lat="43.5467" lon="5.85673">
        <ele>456.51</ele>
        <time>2021-02-21T10:00:37Z</time>
      </trkpt>
      <trkpt lat="43.54654" lon="5.85655">
        <ele>455.03</ele>
        <time>2021-02-21T10:00:42Z</time>
      </trkpt>
      <trkpt lat="43.54633" lon="5.85651">
        <ele>454.5</ele>
        <time>2021-02-21T10:00:47Z</time>
      </trkpt>
      <trkpt lat="43.54612" lon="5.85643">
        <ele>452.68</ele>
        <time>2021-02-21T10:00:51Z</time>
      </trkpt>
      <trkpt lat="43.54592" lon="5.85636">
        <ele>450.86</ele>
        <time>2021-02-21T10:00:54Z</time>
      </trkpt>
      <trkpt lat="43.54571" lon="5.85642">
        <ele>449.74</ele>
        <time>2021-02-21T10:00:59Z</time>
      </trkpt>
      <trkpt lat="43.54554" lon="5.8566">
        <ele>449.39</ele>
        <time>2021-02-21T10:01:04Z</time>
      </trkpt>
      <trkpt lat="43.54543" lon="5.85682">
        <ele>449.09</ele>
        <time>2021-02-21T10:01:08Z</time>
      </trkpt>
      <trkpt lat="43.54531" lon="5.85705">
        <ele>448.97</ele>
        <time>2021-02-21T10:01:12Z</time>
      </trkpt>
      <trkpt lat="43.54518" lon="5.85726">
        <ele>449.54</ele>
        <time>2021-02-21T10:01:17Z</time>
      </trkpt>
      <trkpt lat="43.54502" lon="5.85744">
        <ele>450.78</ele>
        <time>2021-02-21T10:01:23Z</time>
      </trkpt>
      <trkpt lat="43.54483" lon="5.85753">
        <ele>451.89</ele>
        <time>2021-02-21T10:01:29Z</time>
      </trkpt>
      <trkpt lat="43.54464" lon="5.85761">
        <ele>450.78</ele>
        <time>2021-02-21T10:01:34Z</time>
      </trkpt>
      <trkpt lat="43.54447" lon="5.8577">
        <ele>451.1</ele>
        <time>2021-02-21T10:01:40Z</time>
      </trkpt>
      <trkpt lat="43.54429" lon="5.85778">
        <ele>451.93</ele>
        <time>2021-02-21T10:01:47Z</time>
      </trkpt>
      <trkpt lat="43.54413" lon="5.85791">
        <ele>454.29</ele>
        <time>2021-02-21T10:01:55Z</time>
      </trkpt>
      <trkpt lat="43.54396" lon="5.85798">
        <ele>450.52</ele>
        <time>2021-02-21T10:03:00Z</time>
      </trkpt>
      <trkpt lat="43.54378" lon="5.85809">
        <ele>451.44</ele>
        <time>2021-02-21T10:03:07Z</time>
      </trkpt>
      <trkpt lat="43.54362" lon="5.8582">
        <ele>453.37</ele>
        <time>2021-02-21T10:03:13Z</time>
      </trkpt>
      <trkpt lat="43.54343" lon="5.85833">
        <ele>455.75</ele>
        <time>2021-02-21T10:03:19Z</time>
      </trkpt>
      <trkpt lat="43.54328" lon="5.85846">
        <ele>458.12</ele>
        <time>2021-02-21T10:03:24Z</time>
      </trkpt>
      <trkpt lat="43.54311" lon="5.85858">
        <ele>459.97</ele>
        <time>2021-02-21T10:03:29Z</time>
      </trkpt>
      <trkpt lat="43.5429" lon="5.85861">
        <ele>462.25</ele>
        <time>2021-02-21T10:03:34Z</time>
      </trkpt>
      <trkpt lat="43.54272" lon="5.85847">
        <ele>461.98</ele>
        <time>2021-02-21T10:03:39Z</time>
      </trkpt>
      <trkpt lat="43.54252" lon="5.85851">
        <ele>463.09</ele>
        <time>2021-02-21T10:03:44Z</time>
      </trkpt>
      <trkpt lat="43.54233" lon="5.8586">
        <ele>465.16</ele>
        <time>2021-02-21T10:03:49Z</time>
      </trkpt>
      <trkpt lat="43.54215" lon="5.85875">
        <ele>467.54</ele>
        <time>2021-02-21T10:03:54Z</time>
      </trkpt>
      <trkpt lat="43.54198" lon="5.8589">
        <ele>468.53</ele>
        <time>2021-02-21T10:03:58Z</time>
      </trkpt>
      <trkpt lat="43.54181" lon="5.85901">
        <ele>469.62</ele>
        <time>2021-02-21T10:04:02Z</time>
      </trkpt>
      <trkpt lat="43.54164" lon="5.85915">
        <ele>470.04</ele>
        <time>2021-02-21T10:04:06Z</time>
      </trkpt>
      <trkpt lat="43.54145" lon="5.85926">
        <ele>470.36</ele>
        <time>2021-02-21T10:04:10Z</time>
      </trkpt>
      <trkpt lat="43.54127" lon="5.85936">
        <ele>470.37</ele>
        <time>2021-02-21T10:04:14Z</time>
      </trkpt>
      <trkpt lat="43.54108" lon="5.85948">
        <ele>470.24</ele>
        <time>2021-02-21T10:04:18Z</time>
      </trkpt>
      <trkpt lat="43.54092" lon="5.85963">
        <ele>469.66</ele>
        <time>2021-02-21T10:04:22Z</time>
      </trkpt>
      <trkpt lat="43.54074" lon="5.85973">
        <ele>469</ele>
        <time>2021-02-21T10:04:26Z</time>
      </trkpt>
      <trkpt lat="43.54052" lon="5.85967">
        <ele>468.86</ele>
        <time>2021-02-21T10:04:30Z</time>
      </trkpt>
      <trkpt lat="43.54035" lon="5.8595">
        <ele>469.46</ele>
        <time>2021-02-21T10:04:34Z</time>
      </trkpt>
      <trkpt lat="43.54017" lon="5.85937">
        <ele>470.79</ele>
        <time>2021-02-21T10:04:38Z</time>
      </trkpt>
      <trkpt lat="43.53997" lon="5.85936">
        <ele>471.82</ele>
        <time>2021-02-21T10:04:42Z</time>
      </trkpt>
      <trkpt lat="43.53975" lon="5.85937">
        <ele>471.02</ele>
        <time>2021-02-21T10:04:46Z</time>
      </trkpt>
      <trkpt lat="43.53954" lon="5.85942">
        <ele>471.44</ele>
        <time>2021-02-21T10:04:50Z</time>
      </trkpt>
      <trkpt lat="43.53935" lon="5.85949">
        <ele>471.86</ele>
        <time>2021-02-21T10:04:54Z</time>
      </trkpt>
      <trkpt lat="43.53913" lon="5.85958">
        <ele>471.97</ele>
        <time>2021-02-21T10:04:58Z</time>
      </trkpt>
      <trkpt lat="43.53891" lon="5.85966">
        <ele>472.21</ele>
        <time>2021-02-21T10:05:02Z</time>
      </trkpt>
      <trkpt lat="43.53871" lon="5.85977">
        <ele>470.76</ele>
        <time>2021-02-21T10:05:07Z</time>
      </trkpt>
      <trkpt lat="43.53855" lon="5.8599">
        <ele>467.69</ele>
        <time>2021-02-21T10:05:11Z</time>
      </trkpt>
      <trkpt lat="43.53839" lon="5.86001">
        <ele>466.09</ele>
        <time>2021-02-21T10:05:15Z</time>
      </trkpt>
      <trkpt lat="43.53821" lon="5.86012">
        <ele>463.81</ele>
        <time>2021-02-21T10:05:19Z</time>
      </trkpt>
      <trkpt lat="43.53804" lon="5.86024">
        <ele>461.23</ele>
        <time>2021-02-21T10:05:23Z</time>
      </trkpt>
      <trkpt lat="43.53787" lon="5.86036">
        <ele>459.39</ele>
        <time>2021-02-21T10:05:27Z</time>
      </trkpt>
      <trkpt lat="43.5377" lon="5.86047">
        <ele>457.31</ele>
        <time>2021-02-21T10:05:31Z</time>
      </trkpt>
      <trkpt lat="43.53752" lon="5.8606">
        <ele>455.02</ele>
        <time>2021-02-21T10:05:35Z</time>
      </trkpt>
      <trkpt lat="43.53735" lon="5.86074">
        <ele>452.52</ele>
        <time>2021-02-21T10:05:39Z</time>
      </trkpt>
      <trkpt lat="43.5372" lon="5.86091">
        <ele>449.93</ele>
        <time>2021-02-21T10:05:43Z</time>
      </trkpt>
      <trkpt lat="43.53706" lon="5.86111">
        <ele>447.83</ele>
        <time>2021-02-21T10:05:47Z</time>
      </trkpt>
      <trkpt lat="43.53695" lon="5.86134">
        <ele>445.82</ele>
        <time>2021-02-21T10:05:51Z</time>
      </trkpt>
      <trkpt lat="43.53685" lon="5.86156">
        <ele>444.15</ele>
        <time>2021-02-21T10:05:55Z</time>
      </trkpt>
      <trkpt lat="43.53673" lon="5.86178">
        <ele>443.41</ele>
        <time>2021-02-21T10:06:00Z</time>
      </trkpt>
      <trkpt lat="43.53652" lon="5.86175">
        <ele>441.51</ele>
        <time>2021-02-21T10:06:05Z</time>
      </trkpt>
      <trkpt lat="43.53636" lon="5.86157">
        <ele>438.2</ele>
        <time>2021-02-21T10:06:09Z</time>
      </trkpt>
      <trkpt lat="43.53618" lon="5.86137">
        <ele>435.23</ele>
        <time>2021-02-21T10:06:14Z</time>
      </trkpt>
      <trkpt lat="43.53597" lon="5.86133">
        <ele>431.89</ele>
        <time>2021-02-21T10:06:18Z</time>
      </trkpt>
      <trkpt lat="43.53579" lon="5.86141">
        <ele>430.05</ele>
        <time>2021-02-21T10:06:22Z</time>
      </trkpt>
      <trkpt lat="43.53563" lon="5.86157">
        <ele>429.07</ele>
        <time>2021-02-21T10:06:26Z</time>
      </trkpt>
      <trkpt lat="43.53554" lon="5.86179">
        <ele>428.95</ele>
        <time>2021-02-21T10:06:30Z</time>
      </trkpt>
      <trkpt lat="43.53537" lon="5.86192">
        <ele>428.82</ele>
        <time>2021-02-21T10:06:34Z</time>
      </trkpt>
      <trkpt lat="43.53516" lon="5.86192">
        <ele>428.17</ele>
        <time>2021-02-21T10:06:38Z</time>
      </trkpt>
      <trkpt lat="43.53501" lon="5.86171">
        <ele>427.11</ele>
        <time>2021-02-21T10:06:42Z</time>
      </trkpt>
      <trkpt lat="43.53483" lon="5.86152">
        <ele>425.81</ele>
        <time>2021-02-21T10:06:46Z</time>
      </trkpt>
      <trkpt lat="43.53463" lon="5.86156">
        <ele>424.5</ele>
        <time>2021-02-21T10:06:50Z</time>
      </trkpt>
      <trkpt lat="43.53445" lon="5.86171">
        <ele>423.28</ele>
        <time>2021-02-21T10:06:54Z</time>
      </trkpt>
      <trkpt lat="43.53425" lon="5.86187">
        <ele>422.04</ele>
        <time>2021-02-21T10:06:58Z</time>
      </trkpt>
      <trkpt lat="43.53403" lon="5.86199">
        <ele>420.87</ele>
        <time>2021-02-21T10:07:02Z</time>
      </trkpt>
      <trkpt lat="43.53382" lon="5.86209">
        <ele>420.39</ele>
        <time>2021-02-21T10:07:06Z</time>
      </trkpt>
      <trkpt lat="43.53361" lon="5.86205">
        <ele>420.47</ele>
        <time>2021-02-21T10:07:10Z</time>
      </trkpt>
      <trkpt lat="43.53343" lon="5.86187">
        <ele>421.12</ele>
        <time>2021-02-21T10:07:14Z</time>
      </trkpt>
      <trkpt lat="43.53325" lon="5.86173">
        <ele>421.72</ele>
        <time>2021-02-21T10:07:18Z</time>
      </trkpt>
      <trkpt lat="43.53306" lon="5.86157">
        <ele>422.7</ele>
        <time>2021-02-21T10:07:22Z</time>
      </trkpt>
      <trkpt lat="43.53287" lon="5.86143">
        <ele>423.5</ele>
        <time>2021-02-21T10:07:26Z</time>
      </trkpt>
      <trkpt lat="43.53268" lon="5.86127">
        <ele>423.61</ele>
        <time>2021-02-21T10:07:30Z</time>
      </trkpt>
      <trkpt lat="43.53248" lon="5.86115">
        <ele>423.53</ele>
        <time>2021-02-21T10:07:34Z</time>
      </trkpt>
      <trkpt lat="43.53227" lon="5.86102">
        <ele>424.26</ele>
        <time>2021-02-21T10:07:38Z</time>
      </trkpt>
      <trkpt lat="43.53211" lon="5.86089">
        <ele>424.64</ele>
        <time>2021-02-21T10:07:41Z</time>
      </trkpt>
      <trkpt lat="43.53195" lon="5.86067">
        <ele>423.95</ele>
        <time>2021-02-21T10:07:45Z</time>
      </trkpt>
      <trkpt lat="43.53175" lon="5.86066">
        <ele>421.85</ele>
        <time>2021-02-21T10:07:54Z</time>
      </trkpt>
      <trkpt lat="43.53157" lon="5.86078">
        <ele>422.09</ele>
        <time>2021-02-21T10:08:00Z</time>
      </trkpt>
      <trkpt lat="43.53136" lon="5.86085">
        <ele>422.62</ele>
        <time>2021-02-21T10:08:05Z</time>
      </trkpt>
      <trkpt lat="43.53117" lon="5.86101">
        <ele>422.3</ele>
        <time>2021-02-21T10:08:11Z</time>
      </trkpt>
      <trkpt lat="43.53102" lon="5.86121">
        <ele>421.61</ele>
        <time>2021-02-21T10:08:15Z</time>
      </trkpt>
      <trkpt lat="43.53088" lon="5.86144">
        <ele>421.12</ele>
        <time>2021-02-21T10:08:19Z</time>
      </trkpt>
      <trkpt lat="43.53071" lon="5.86162">
        <ele>420.4</ele>
        <time>2021-02-21T10:08:23Z</time>
      </trkpt>
      <trkpt lat="43.53053" lon="5.86174">
        <ele>419.6</ele>
        <time>2021-02-21T10:08:27Z</time>
      </trkpt>
      <trkpt lat="43.53032" lon="5.86185">
        <ele>417.94</ele>
        <time>2021-02-21T10:08:31Z</time>
      </trkpt>
      <trkpt lat="43.53017" lon="5.86201">
        <ele>416.16</ele>
        <time>2021-02-21T10:08:35Z</time>
      </trkpt>
      <trkpt lat="43.53011" lon="5.86232">
        <ele>415.2</ele>
        <time>2021-02-21T10:08:39Z</time>
      </trkpt>
      <trkpt lat="43.53008" lon="5.86257">
        <ele>414.52</ele>
        <time>2021-02-21T10:08:42Z</time>
      </trkpt>
      <trkpt lat="43.53005" lon="5.86284">
        <ele>413.82</ele>
        <time>2021-02-21T10:08:45Z</time>
      </trkpt>
      <trkpt lat="43.53" lon="5.86309">
        <ele>413.05</ele>
        <time>2021-02-21T10:08:48Z</time>
      </trkpt>
      <trkpt lat="43.52989" lon="5.8633">
        <ele>411.46</ele>
        <time>2021-02-21T10:08:51Z</time>
      </trkpt>
      <trkpt lat="43.52974" lon="5.86346">
        <ele>410.33</ele>
        <time>2021-02-21T10:08:54Z</time>
      </trkpt>
      <trkpt lat="43.52956" lon="5.8636">
        <ele>409.23</ele>
        <time>2021-02-21T10:08:57Z</time>
      </trkpt>
      <trkpt lat="43.52939" lon="5.86375">
        <ele>408.42</ele>
        <time>2021-02-21T10:09:00Z</time>
      </trkpt>
      <trkpt lat="43.52923" lon="5.86391">
        <ele>407.19</ele>
        <time>2021-02-21T10:09:03Z</time>
      </trkpt>
      <trkpt lat="43.52909" lon="5.86418">
        <ele>405.27</ele>
        <time>2021-02-21T10:09:07Z</time>
      </trkpt>
      <trkpt lat="43.52892" lon="5.86435">
        <ele>403.76</ele>
        <time>2021-02-21T10:09:10Z</time>
      </trkpt>
      <trkpt lat="43.52877" lon="5.86452">
        <ele>402.78</ele>
        <time>2021-02-21T10:09:13Z</time>
      </trkpt>
      <trkpt lat="43.52861" lon="5.86466">
        <ele>401.57</ele>
        <time>2021-02-21T10:09:16Z</time>
      </trkpt>
      <trkpt lat="43.52841" lon="5.86484">
        <ele>399.77</ele>
        <time>2021-02-21T10:09:20Z</time>
      </trkpt>
      <trkpt lat="43.52824" lon="5.86506">
        <ele>398.19</ele>
        <time>2021-02-21T10:09:24Z</time>
      </trkpt>
      <trkpt lat="43.52814" lon="5.86529">
        <ele>397.17</ele>
        <time>2021-02-21T10:09:27Z</time>
      </trkpt>
      <trkpt lat="43.52807" lon="5.86555">
        <ele>395.99</ele>
        <time>2021-02-21T10:09:30Z</time>
      </trkpt>
      <trkpt lat="43.52804" lon="5.86581">
        <ele>394.55</ele>
        <time>2021-02-21T10:09:34Z</time>
      </trkpt>
      <trkpt lat="43.52807" lon="5.86611">
        <ele>393.25</ele>
        <time>2021-02-21T10:09:38Z</time>
      </trkpt>
      <trkpt lat="43.52808" lon="5.86643">
        <ele>392.06</ele>
        <time>2021-02-21T10:09:42Z</time>
      </trkpt>
      <trkpt lat="43.52809" lon="5.86668">
        <ele>389.92</ele>
        <time>2021-02-21T10:09:45Z</time>
      </trkpt>
      <trkpt lat="43.52799" lon="5.86698">
        <ele>388.25</ele>
        <time>2021-02-21T10:09:49Z</time>
      </trkpt>
      <trkpt lat="43.52795" lon="5.86722">
        <ele>386.93</ele>
        <time>2021-02-21T10:09:52Z</time>
      </trkpt>
      <trkpt lat="43.52782" lon="5.86741">
        <ele>385.95</ele>
        <time>2021-02-21T10:09:55Z</time>
      </trkpt>
      <trkpt lat="43.52768" lon="5.86762">
        <ele>384.24</ele>
        <time>2021-02-21T10:09:58Z</time>
      </trkpt>
      <trkpt lat="43.52755" lon="5.86782">
        <ele>383.24</ele>
        <time>2021-02-21T10:10:01Z</time>
      </trkpt>
      <trkpt lat="43.52742" lon="5.86803">
        <ele>381.91</ele>
        <time>2021-02-21T10:10:04Z</time>
      </trkpt>
      <trkpt lat="43.52728" lon="5.86823">
        <ele>380.37</ele>
        <time>2021-02-21T10:10:07Z</time>
      </trkpt>
      <trkpt lat="43.52724" lon="5.86848">
        <ele>379.35</ele>
        <time>2021-02-21T10:10:10Z</time>
      </trkpt>
      <trkpt lat="43.52726" lon="5.86878">
        <ele>377.59</ele>
        <time>2021-02-21T10:10:14Z</time>
      </trkpt>
      <trkpt lat="43.52731" lon="5.86902">
        <ele>376.35</ele>
        <time>2021-02-21T10:10:17Z</time>
      </trkpt>
      <trkpt lat="43.52737" lon="5.86926">
        <ele>375.36</ele>
        <time>2021-02-21T10:10:20Z</time>
      </trkpt>
      <trkpt lat="43.52742" lon="5.86952">
        <ele>374.25</ele>
        <time>2021-02-21T10:10:23Z</time>
      </trkpt>
      <trkpt lat="43.52742" lon="5.86977">
        <ele>373.42</ele>
        <time>2021-02-21T10:10:26Z</time>
      </trkpt>
      <trkpt lat="43.5274" lon="5.87002">
        <ele>372.58</ele>
        <time>2021-02-21T10:10:29Z</time>
      </trkpt>
      <trkpt lat="43.52738" lon="5.87032">
        <ele>370.08</ele>
        <time>2021-02-21T10:10:33Z</time>
      </trkpt>
      <trkpt lat="43.52721" lon="5.87053">
        <ele>368.49</ele>
        <time>2021-02-21T10:10:37Z</time>
      </trkpt>
      <trkpt lat="43.52708" lon="5.87071">
        <ele>367.29</ele>
        <time>2021-02-21T10:10:40Z</time>
      </trkpt>
      <trkpt lat="43.52696" lon="5.87091">
        <ele>366.07</ele>
        <time>2021-02-21T10:10:43Z</time>
      </trkpt>
      <trkpt lat="43.52691" lon="5.8712">
        <ele>365.04</ele>
        <time>2021-02-21T10:10:47Z</time>
      </trkpt>
      <trkpt lat="43.52692" lon="5.8715">
        <ele>363.84</ele>
        <time>2021-02-21T10:10:51Z</time>
      </trkpt>
      <trkpt lat="43.52696" lon="5.87175">
        <ele>362.84</ele>
        <time>2021-02-21T10:10:54Z</time>
      </trkpt>
      <trkpt lat="43.527" lon="5.87201">
        <ele>362.02</ele>
        <time>2021-02-21T10:10:57Z</time>
      </trkpt>
      <trkpt lat="43.52698" lon="5.87233">
        <ele>360.84</ele>
        <time>2021-02-21T10:11:01Z</time>
      </trkpt>
      <trkpt lat="43.5269" lon="5.87263">
        <ele>359.46</ele>
        <time>2021-02-21T10:11:05Z</time>
      </trkpt>
      <trkpt lat="43.52678" lon="5.87283">
        <ele>358.54</ele>
        <time>2021-02-21T10:11:08Z</time>
      </trkpt>
      <trkpt lat="43.5266" lon="5.87298">
        <ele>357.64</ele>
        <time>2021-02-21T10:11:11Z</time>
      </trkpt>
      <trkpt lat="43.52644" lon="5.87319">
        <ele>356.74</ele>
        <time>2021-02-21T10:11:14Z</time>
      </trkpt>
      <trkpt lat="43.52632" lon="5.87343">
        <ele>356.03</ele>
        <time>2021-02-21T10:11:17Z</time>
      </trkpt>
      <trkpt lat="43.5262" lon="5.87365">
        <ele>354.95</ele>
        <time>2021-02-21T10:11:20Z</time>
      </trkpt>
      <trkpt lat="43.52614" lon="5.87388">
        <ele>354.22</ele>
        <time>2021-02-21T10:11:23Z</time>
      </trkpt>
      <trkpt lat="43.52618" lon="5.87414">
        <ele>353.5</ele>
        <time>2021-02-21T10:11:27Z</time>
      </trkpt>
      <trkpt lat="43.52623" lon="5.87441">
        <ele>353.18</ele>
        <time>2021-02-21T10:11:31Z</time>
      </trkpt>
      <trkpt lat="43.52618" lon="5.87467">
        <ele>352.42</ele>
        <time>2021-02-21T10:11:35Z</time>
      </trkpt>
      <trkpt lat="43.526" lon="5.87472">
        <ele>352.01</ele>
        <time>2021-02-21T10:11:39Z</time>
      </trkpt>
      <trkpt lat="43.52582" lon="5.87484">
        <ele>351.03</ele>
        <time>2021-02-21T10:11:43Z</time>
      </trkpt>
      <trkpt lat="43.52562" lon="5.87499">
        <ele>349.57</ele>
        <time>2021-02-21T10:11:47Z</time>
      </trkpt>
      <trkpt lat="43.52548" lon="5.87515">
        <ele>348.9</ele>
        <time>2021-02-21T10:11:50Z</time>
      </trkpt>
      <trkpt lat="43.52532" lon="5.8753">
        <ele>348.24</ele>
        <time>2021-02-21T10:11:53Z</time>
      </trkpt>
      <trkpt lat="43.52515" lon="5.87547">
        <ele>346.77</ele>
        <time>2021-02-21T10:11:57Z</time>
      </trkpt>
      <trkpt lat="43.525" lon="5.87565">
        <ele>345.62</ele>
        <time>2021-02-21T10:12:01Z</time>
      </trkpt>
      <trkpt lat="43.52485" lon="5.87585">
        <ele>344.35</ele>
        <time>2021-02-21T10:12:05Z</time>
      </trkpt>
      <trkpt lat="43.52465" lon="5.87603">
        <ele>343.56</ele>
        <time>2021-02-21T10:12:09Z</time>
      </trkpt>
      <trkpt lat="43.52445" lon="5.8762">
        <ele>343.55</ele>
        <time>2021-02-21T10:12:13Z</time>
      </trkpt>
      <trkpt lat="43.52429" lon="5.87637">
        <ele>343.28</ele>
        <time>2021-02-21T10:12:17Z</time>
      </trkpt>
      <trkpt lat="43.52416" lon="5.87663">
        <ele>343.43</ele>
        <time>2021-02-21T10:12:21Z</time>
      </trkpt>
      <trkpt lat="43.52416" lon="5.87696">
        <ele>342.93</ele>
        <time>2021-02-21T10:12:25Z</time>
      </trkpt>
      <trkpt lat="43.52437" lon="5.87711">
        <ele>341.12</ele>
        <time>2021-02-21T10:12:26Z</time>
      </trkpt>
      <trkpt lat="43.52453" lon="5.87733">
        <ele>339.31</ele>
        <time>2021-02-21T10:12:28Z</time>
      </trkpt>
      <trkpt lat="43.52456" lon="5.87765">
        <ele>339.35</ele>
        <time>2021-02-21T10:12:32Z</time>
      </trkpt>
      <trkpt lat="43.52462" lon="5.87795">
        <ele>340.02</ele>
        <time>2021-02-21T10:12:36Z</time>
      </trkpt>
      <trkpt lat="43.52474" lon="5.87817">
        <ele>340.39</ele>
        <time>2021-02-21T10:12:38Z</time>
      </trkpt>
      <trkpt lat="43.52493" lon="5.87833">
        <ele>339.33</ele>
        <time>2021-02-21T10:12:39Z</time>
      </trkpt>
      <trkpt lat="43.52506" lon="5.87858">
        <ele>338.9</ele>
        <time>2021-02-21T10:12:41Z</time>
      </trkpt>
      <trkpt lat="43.52509" lon="5.87887">
        <ele>338.61</ele>
        <time>2021-02-21T10:12:44Z</time>
      </trkpt>
      <trkpt lat="43.5251" lon="5.87915">
        <ele>338.97</ele>
        <time>2021-02-21T10:12:47Z</time>
      </trkpt>
      <trkpt lat="43.52504" lon="5.8794">
        <ele>339.76</ele>
        <time>2021-02-21T10:12:51Z</time>
      </trkpt>
      <trkpt lat="43.52482" lon="5.87929">
        <ele>339.41</ele>
        <time>2021-02-21T10:12:57Z</time>
      </trkpt>
      <trkpt lat="43.52462" lon="5.87912">
        <ele>338.79</ele>
        <time>2021-02-21T10:13:01Z</time>
      </trkpt>
      <trkpt lat="43.52444" lon="5.87909">
        <ele>338.65</ele>
        <time>2021-02-21T10:13:04Z</time>
      </trkpt>
      <trkpt lat="43.52423" lon="5.87916">
        <ele>338.76</ele>
        <time>2021-02-21T10:13:08Z</time>
      </trkpt>
      <trkpt lat="43.5241" lon="5.87936">
        <ele>338.14</ele>
        <time>2021-02-21T10:13:12Z</time>
      </trkpt>
      <trkpt lat="43.52401" lon="5.8796">
        <ele>337.1</ele>
        <time>2021-02-21T10:13:16Z</time>
      </trkpt>
      <trkpt lat="43.52396" lon="5.8799">
        <ele>336.61</ele>
        <time>2021-02-21T10:13:20Z</time>
      </trkpt>
      <trkpt lat="43.52391" lon="5.88019">
        <ele>335.66</ele>
        <time>2021-02-21T10:13:24Z</time>
      </trkpt>
      <trkpt lat="43.52384" lon="5.88044">
        <ele>334.69</ele>
        <time>2021-02-21T10:13:28Z</time>
      </trkpt>
      <trkpt lat="43.52365" lon="5.88045">
        <ele>334.08</ele>
        <time>2021-02-21T10:13:32Z</time>
      </trkpt>
      <trkpt lat="43.52347" lon="5.88038">
        <ele>334.33</ele>
        <time>2021-02-21T10:13:36Z</time>
      </trkpt>
      <trkpt lat="43.52325" lon="5.88025">
        <ele>334.92</ele>
        <time>2021-02-21T10:13:40Z</time>
      </trkpt>
      <trkpt lat="43.52306" lon="5.88021">
        <ele>335.42</ele>
        <time>2021-02-21T10:13:43Z</time>
      </trkpt>
      <trkpt lat="43.52285" lon="5.88024">
        <ele>336.32</ele>
        <time>2021-02-21T10:13:47Z</time>
      </trkpt>
      <trkpt lat="43.52267" lon="5.88036">
        <ele>336.55</ele>
        <time>2021-02-21T10:13:51Z</time>
      </trkpt>
      <trkpt lat="43.52252" lon="5.88054">
        <ele>335.69</ele>
        <time>2021-02-21T10:13:55Z</time>
      </trkpt>
      <trkpt lat="43.52243" lon="5.88076">
        <ele>334.76</ele>
        <time>2021-02-21T10:13:58Z</time>
      </trkpt>
      <trkpt lat="43.52235" lon="5.881">
        <ele>333.29</ele>
        <time>2021-02-21T10:14:01Z</time>
      </trkpt>
      <trkpt lat="43.52227" lon="5.88126">
        <ele>332.03</ele>
        <time>2021-02-21T10:14:04Z</time>
      </trkpt>
      <trkpt lat="43.52219" lon="5.88149">
        <ele>330.93</ele>
        <time>2021-02-21T10:14:07Z</time>
      </trkpt>
      <trkpt lat="43.52202" lon="5.88164">
        <ele>330.5</ele>
        <time>2021-02-21T10:14:10Z</time>
      </trkpt>
      <trkpt lat="43.52185" lon="5.88173">
        <ele>330.19</ele>
        <time>2021-02-21T10:14:13Z</time>
      </trkpt>
      <trkpt lat="43.52167" lon="5.88171">
        <ele>329.89</ele>
        <time>2021-02-21T10:14:16Z</time>
      </trkpt>
      <trkpt lat="43.5215" lon="5.88161">
        <ele>329.97</ele>
        <time>2021-02-21T10:14:19Z</time>
      </trkpt>
      <trkpt lat="43.52128" lon="5.8816">
        <ele>330.15</ele>
        <time>2021-02-21T10:14:23Z</time>
      </trkpt>
      <trkpt lat="43.52108" lon="5.88169">
        <ele>329.99</ele>
        <time>2021-02-21T10:14:27Z</time>
      </trkpt>
      <trkpt lat="43.52088" lon="5.88185">
        <ele>329.51</ele>
        <time>2021-02-21T10:14:31Z</time>
      </trkpt>
      <trkpt lat="43.52068" lon="5.88201">
        <ele>328.72</ele>
        <time>2021-02-21T10:14:35Z</time>
      </trkpt>
      <trkpt lat="43.52048" lon="5.88217">
        <ele>327.35</ele>
        <time>2021-02-21T10:14:39Z</time>
      </trkpt>
      <trkpt lat="43.52027" lon="5.88225">
        <ele>327.07</ele>
        <time>2021-02-21T10:14:43Z</time>
      </trkpt>
      <trkpt lat="43.52006" lon="5.88233">
        <ele>326.71</ele>
        <time>2021-02-21T10:14:47Z</time>
      </trkpt>
      <trkpt lat="43.51988" lon="5.88224">
        <ele>326.65</ele>
        <time>2021-02-21T10:14:51Z</time>
      </trkpt>
      <trkpt lat="43.51972" lon="5.88206">
        <ele>328.23</ele>
        <time>2021-02-21T10:14:56Z</time>
      </trkpt>
      <trkpt lat="43.51953" lon="5.88194">
        <ele>329.03</ele>
        <time>2021-02-21T10:15:02Z</time>
      </trkpt>
      <trkpt lat="43.51933" lon="5.88196">
        <ele>330.3</ele>
        <time>2021-02-21T10:15:07Z</time>
      </trkpt>
      <trkpt lat="43.51913" lon="5.88203">
        <ele>330.65</ele>
        <time>2021-02-21T10:15:11Z</time>
      </trkpt>
      <trkpt lat="43.51891" lon="5.88205">
        <ele>330.76</ele>
        <time>2021-02-21T10:15:15Z</time>
      </trkpt>
      <trkpt lat="43.51868" lon="5.88205">
        <ele>331.6</ele>
        <time>2021-02-21T10:15:19Z</time>
      </trkpt>
      <trkpt lat="43.51846" lon="5.88215">
        <ele>332.3</ele>
        <time>2021-02-21T10:15:23Z</time>
      </trkpt>
      <trkpt lat="43.51828" lon="5.88228">
        <ele>331.27</ele>
        <time>2021-02-21T10:15:27Z</time>
      </trkpt>
      <trkpt lat="43.51808" lon="5.88243">
        <ele>330.79</ele>
        <time>2021-02-21T10:15:31Z</time>
      </trkpt>
      <trkpt lat="43.5179" lon="5.88264">
        <ele>328.78</ele>
        <time>2021-02-21T10:15:35Z</time>
      </trkpt>
      <trkpt lat="43.51775" lon="5.88288">
        <ele>325.47</ele>
        <time>2021-02-21T10:15:39Z</time>
      </trkpt>
      <trkpt lat="43.51759" lon="5.88304">
        <ele>322.27</ele>
        <time>2021-02-21T10:15:43Z</time>
      </trkpt>
      <trkpt lat="43.51738" lon="5.8829">
        <ele>318.87</ele>
        <time>2021-02-21T10:15:47Z</time>
      </trkpt>
      <trkpt lat="43.5172" lon="5.88275">
        <ele>318.47</ele>
        <time>2021-02-21T10:15:51Z</time>
      </trkpt>
      <trkpt lat="43.51701" lon="5.88268">
        <ele>319.2</ele>
        <time>2021-02-21T10:15:56Z</time>
      </trkpt>
      <trkpt lat="43.51683" lon="5.88283">
        <ele>319.45</ele>
        <time>2021-02-21T10:16:01Z</time>
      </trkpt>
      <trkpt lat="43.51669" lon="5.88301">
        <ele>317.81</ele>
        <time>2021-02-21T10:16:05Z</time>
      </trkpt>
      <trkpt lat="43.51656" lon="5.88325">
        <ele>315.77</ele>
        <time>2021-02-21T10:16:09Z</time>
      </trkpt>
      <trkpt lat="43.51642" lon="5.88344">
        <ele>314.94</ele>
        <time>2021-02-21T10:16:13Z</time>
      </trkpt>
      <trkpt lat="43.5162" lon="5.88341">
        <ele>315.84</ele>
        <time>2021-02-21T10:16:18Z</time>
      </trkpt>
      <trkpt lat="43.51605" lon="5.88317">
        <ele>315.61</ele>
        <time>2021-02-21T10:16:22Z</time>
      </trkpt>
      <trkpt lat="43.51593" lon="5.88297">
        <ele>314.39</ele>
        <time>2021-02-21T10:16:25Z</time>
      </trkpt>
      <trkpt lat="43.51578" lon="5.88272">
        <ele>313.58</ele>
        <time>2021-02-21T10:16:29Z</time>
      </trkpt>
      <trkpt lat="43.5156" lon="5.88261">
        <ele>313.65</ele>
        <time>2021-02-21T10:16:33Z</time>
      </trkpt>
      <trkpt lat="43.51542" lon="5.88269">
        <ele>313.8</ele>
        <time>2021-02-21T10:16:37Z</time>
      </trkpt>
      <trkpt lat="43.51528" lon="5.88284">
        <ele>314.06</ele>
        <time>2021-02-21T10:16:40Z</time>
      </trkpt>
      <trkpt lat="43.51514" lon="5.88299">
        <ele>313.99</ele>
        <time>2021-02-21T10:16:43Z</time>
      </trkpt>
      <trkpt lat="43.51502" lon="5.88319">
        <ele>313.33</ele>
        <time>2021-02-21T10:16:46Z</time>
      </trkpt>
      <trkpt lat="43.51489" lon="5.88336">
        <ele>312.62</ele>
        <time>2021-02-21T10:16:49Z</time>
      </trkpt>
      <trkpt lat="43.51475" lon="5.88352">
        <ele>311.74</ele>
        <time>2021-02-21T10:16:52Z</time>
      </trkpt>
      <trkpt lat="43.51453" lon="5.88362">
        <ele>311.69</ele>
        <time>2021-02-21T10:16:56Z</time>
      </trkpt>
      <trkpt lat="43.51434" lon="5.88358">
        <ele>311.57</ele>
        <time>2021-02-21T10:16:59Z</time>
      </trkpt>
      <trkpt lat="43.51416" lon="5.88339">
        <ele>311.86</ele>
        <time>2021-02-21T10:17:03Z</time>
      </trkpt>
      <trkpt lat="43.51398" lon="5.88319">
        <ele>311.3</ele>
        <time>2021-02-21T10:17:07Z</time>
      </trkpt>
      <trkpt lat="43.5138" lon="5.88304">
        <ele>311.45</ele>
        <time>2021-02-21T10:17:11Z</time>
      </trkpt>
      <trkpt lat="43.51359" lon="5.88299">
        <ele>312.02</ele>
        <time>2021-02-21T10:17:15Z</time>
      </trkpt>
      <trkpt lat="43.51336" lon="5.88304">
        <ele>312.62</ele>
        <time>2021-02-21T10:17:19Z</time>
      </trkpt>
      <trkpt lat="43.51317" lon="5.88315">
        <ele>312.32</ele>
        <time>2021-02-21T10:17:23Z</time>
      </trkpt>
      <trkpt lat="43.51302" lon="5.88335">
        <ele>309.92</ele>
        <time>2021-02-21T10:17:27Z</time>
      </trkpt>
      <trkpt lat="43.51289" lon="5.88362">
        <ele>308.25</ele>
        <time>2021-02-21T10:17:31Z</time>
      </trkpt>
      <trkpt lat="43.51281" lon="5.88388">
        <ele>306.64</ele>
        <time>2021-02-21T10:17:35Z</time>
      </trkpt>
      <trkpt lat="43.51271" lon="5.8841">
        <ele>305.4</ele>
        <time>2021-02-21T10:17:39Z</time>
      </trkpt>
      <trkpt lat="43.51261" lon="5.88432">
        <ele>301.57</ele>
        <time>2021-02-21T10:17:50Z</time>
      </trkpt>
      <trkpt lat="43.51241" lon="5.88428">
        <ele>296.97</ele>
        <time>2021-02-21T10:18:01Z</time>
      </trkpt>
      <trkpt lat="43.5122" lon="5.88415">
        <ele>293.56</ele>
        <time>2021-02-21T10:18:06Z</time>
      </trkpt>
      <trkpt lat="43.51202" lon="5.88415">
        <ele>291.5</ele>
        <time>2021-02-21T10:18:09Z</time>
      </trkpt>
      <trkpt lat="43.51185" lon="5.88426">
        <ele>289.61</ele>
        <time>2021-02-21T10:18:12Z</time>
      </trkpt>
      <trkpt lat="43.51167" lon="5.88431">
        <ele>287.36</ele>
        <time>2021-02-21T10:18:17Z</time>
      </trkpt>
      <trkpt lat="43.51163" lon="5.88406">
        <ele>286.25</ele>
        <time>2021-02-21T10:18:21Z</time>
      </trkpt>
      <trkpt lat="43.51163" lon="5.88379">
        <ele>284.91</ele>
        <time>2021-02-21T10:18:25Z</time>
      </trkpt>
      <trkpt lat="43.51159" lon="5.88354">
        <ele>284.41</ele>
        <time>2021-02-21T10:18:29Z</time>
      </trkpt>
      <trkpt lat="43.51142" lon="5.88334">
        <ele>284.47</ele>
        <time>2021-02-21T10:18:34Z</time>
      </trkpt>
      <trkpt lat="43.51121" lon="5.88336">
        <ele>284.75</ele>
        <time>2021-02-21T10:18:38Z</time>
      </trkpt>
      <trkpt lat="43.51099" lon="5.88347">
        <ele>285.24</ele>
        <time>2021-02-21T10:18:42Z</time>
      </trkpt>
      <trkpt lat="43.51077" lon="5.88353">
        <ele>285.55</ele>
        <time>2021-02-21T10:18:46Z</time>
      </trkpt>
      <trkpt lat="43.51058" lon="5.88354">
        <ele>285.93</ele>
        <time>2021-02-21T10:18:50Z</time>
      </trkpt>
      <trkpt lat="43.51037" lon="5.88358">
        <ele>286.24</ele>
        <time>2021-02-21T10:18:54Z</time>
      </trkpt>
      <trkpt lat="43.51015" lon="5.88362">
        <ele>286.46</ele>
        <time>2021-02-21T10:18:58Z</time>
      </trkpt>
      <trkpt lat="43.50993" lon="5.88368">
        <ele>286.65</ele>
        <time>2021-02-21T10:19:02Z</time>
      </trkpt>
      <trkpt lat="43.50972" lon="5.88377">
        <ele>286.96</ele>
        <time>2021-02-21T10:19:06Z</time>
      </trkpt>
      <trkpt lat="43.50954" lon="5.88388">
        <ele>286.96</ele>
        <time>2021-02-21T10:19:10Z</time>
      </trkpt>
      <trkpt lat="43.50934" lon="5.88395">
        <ele>288.01</ele>
        <time>2021-02-21T10:19:16Z</time>
      </trkpt>
      <trkpt lat="43.50916" lon="5.88399">
        <ele>288.97</ele>
        <time>2021-02-21T10:19:23Z</time>
      </trkpt>
      <trkpt lat="43.50896" lon="5.88406">
        <ele>289.72</ele>
        <time>2021-02-21T10:19:30Z</time>
      </trkpt>
      <trkpt lat="43.50874" lon="5.88413">
        <ele>290.64</ele>
        <time>2021-02-21T10:19:35Z</time>
      </trkpt>
      <trkpt lat="43.50852" lon="5.88416">
        <ele>291.17</ele>
        <time>2021-02-21T10:19:40Z</time>
      </trkpt>
      <trkpt lat="43.50835" lon="5.88409">
        <ele>291.46</ele>
        <time>2021-02-21T10:19:44Z</time>
      </trkpt>
      <trkpt lat="43.50827" lon="5.88386">
        <ele>291</ele>
        <time>2021-02-21T10:19:48Z</time>
      </trkpt>
      <trkpt lat="43.50828" lon="5.88355">
        <ele>290.73</ele>
        <time>2021-02-21T10:19:53Z</time>
      </trkpt>
      <trkpt lat="43.50825" lon="5.8833">
        <ele>290.47</ele>
        <time>2021-02-21T10:19:57Z</time>
      </trkpt>
      <trkpt lat="43.5081" lon="5.88312">
        <ele>290.45</ele>
        <time>2021-02-21T10:20:01Z</time>
      </trkpt>
      <trkpt lat="43.50791" lon="5.88303">
        <ele>290.84</ele>
        <time>2021-02-21T10:20:05Z</time>
      </trkpt>
      <trkpt lat="43.50769" lon="5.88307">
        <ele>291.42</ele>
        <time>2021-02-21T10:20:09Z</time>
      </trkpt>
      <trkpt lat="43.50752" lon="5.88319">
        <ele>289.28</ele>
        <time>2021-02-21T10:20:13Z</time>
      </trkpt>
      <trkpt lat="43.50738" lon="5.88336">
        <ele>286.55</ele>
        <time>2021-02-21T10:20:17Z</time>
      </trkpt>
      <trkpt lat="43.50725" lon="5.88356">
        <ele>283.79</ele>
        <time>2021-02-21T10:20:22Z</time>
      </trkpt>
      <trkpt lat="43.50713" lon="5.88378">
        <ele>282.59</ele>
        <time>2021-02-21T10:20:27Z</time>
      </trkpt>
      <trkpt lat="43.507" lon="5.88401">
        <ele>281.42</ele>
        <time>2021-02-21T10:20:33Z</time>
      </trkpt>
      <trkpt lat="43.5069" lon="5.88425">
        <ele>278.4</ele>
        <time>2021-02-21T10:20:38Z</time>
      </trkpt>
      <trkpt lat="43.50673" lon="5.88436">
        <ele>277.34</ele>
        <time>2021-02-21T10:20:42Z</time>
      </trkpt>
      <trkpt lat="43.50656" lon="5.88442">
        <ele>276.34</ele>
        <time>2021-02-21T10:20:46Z</time>
      </trkpt>
      <trkpt lat="43.50636" lon="5.88455">
        <ele>275.63</ele>
        <time>2021-02-21T10:20:51Z</time>
      </trkpt>
      <trkpt lat="43.50617" lon="5.88458">
        <ele>274.89</ele>
        <time>2021-02-21T10:20:55Z</time>
      </trkpt>
      <trkpt lat="43.506" lon="5.88467">
        <ele>274.67</ele>
        <time>2021-02-21T10:20:59Z</time>
      </trkpt>
      <trkpt lat="43.50582" lon="5.88481">
        <ele>273.71</ele>
        <time>2021-02-21T10:21:03Z</time>
      </trkpt>
      <trkpt lat="43.50567" lon="5.88499">
        <ele>273.17</ele>
        <time>2021-02-21T10:21:07Z</time>
      </trkpt>
      <trkpt lat="43.5055" lon="5.88519">
        <ele>271.17</ele>
        <time>2021-02-21T10:21:12Z</time>
      </trkpt>
      <trkpt lat="43.50534" lon="5.88541">
        <ele>269.4</ele>
        <time>2021-02-21T10:21:17Z</time>
      </trkpt>
      <trkpt lat="43.50519" lon="5.88556">
        <ele>267.83</ele>
        <time>2021-02-21T10:21:21Z</time>
      </trkpt>
      <trkpt lat="43.50502" lon="5.88571">
        <ele>266.42</ele>
        <time>2021-02-21T10:21:25Z</time>
      </trkpt>
      <trkpt lat="43.50482" lon="5.88584">
        <ele>265.8</ele>
        <time>2021-02-21T10:21:29Z</time>
      </trkpt>
      <trkpt lat="43.50463" lon="5.88597">
        <ele>265.9</ele>
        <time>2021-02-21T10:21:33Z</time>
      </trkpt>
      <trkpt lat="43.50443" lon="5.88612">
        <ele>264.92</ele>
        <time>2021-02-21T10:21:37Z</time>
      </trkpt>
      <trkpt lat="43.50422" lon="5.88627">
        <ele>264.5</ele>
        <time>2021-02-21T10:21:41Z</time>
      </trkpt>
      <trkpt lat="43.50404" lon="5.88636">
        <ele>264.3</ele>
        <time>2021-02-21T10:21:45Z</time>
      </trkpt>
      <trkpt lat="43.50386" lon="5.88651">
        <ele>264</ele>
        <time>2021-02-21T10:21:50Z</time>
      </trkpt>
      <trkpt lat="43.50373" lon="5.88672">
        <ele>261.85</ele>
        <time>2021-02-21T10:21:56Z</time>
      </trkpt>
      <trkpt lat="43.50362" lon="5.88699">
        <ele>252.13</ele>
        <time>2021-02-21T10:23:50Z</time>
      </trkpt>
      <trkpt lat="43.50356" lon="5.88725">
        <ele>251.61</ele>
        <time>2021-02-21T10:35:06Z</time>
      </trkpt>
      <trkpt lat="43.5036" lon="5.88752">
        <ele>251.19</ele>
        <time>2021-02-21T10:35:10Z</time>
      </trkpt>
      <trkpt lat="43.50362" lon="5.88785">
        <ele>250.81</ele>
        <time>2021-02-21T10:35:14Z</time>
      </trkpt>
      <trkpt lat="43.5036" lon="5.88812">
        <ele>250.42</ele>
        <time>2021-02-21T10:35:17Z</time>
      </trkpt>
    </trkseg>
  </trk>
</gpx>